<?xml version="1.0" encoding="UTF-8" standalone="no" ?>
<gpx xmlns="http://www.topografix.com/GPX/1/1" xmlns:xsi="http://www.w3.org/2001/XMLSchema-instance" xsi:schemaLocation="http://www.topografix.com/GPX/1/1 http://www.topografix.com/GPX/1/1/gpx.xsd" version="1.1" creator="VisuGPX - https://www.visugpx.com">
  <metadata>
    <name>Rando Sport et Nature - la grande boucle de Rambouillet</name>
    <desc><![CDATA[Longue randonnée de 27km depuis la gare de Gazeran à Rambouillet 

]]></desc>
  </metadata>
  <trk>
    <name><![CDATA[26 janv. 2020 à 10:51:03]]></name>
    <cmt><![CDATA[26 janv. 2020 à 10:51:03]]></cmt>
    <trkseg>
      <trkpt lat="48.62594" lon="1.77224">
        <ele>163</ele>
        <time>2020-01-26T09:51:03Z</time>
      </trkpt>
      <trkpt lat="48.62593" lon="1.77225">
        <ele>164</ele>
        <time>2020-01-26T09:51:04Z</time>
      </trkpt>
      <trkpt lat="48.62596" lon="1.77229">
        <ele>163</ele>
        <time>2020-01-26T09:51:44Z</time>
      </trkpt>
      <trkpt lat="48.62597" lon="1.77219">
        <ele>162</ele>
        <time>2020-01-26T09:53:24Z</time>
      </trkpt>
      <trkpt lat="48.62596" lon="1.77212">
        <ele>162</ele>
        <time>2020-01-26T09:53:29Z</time>
      </trkpt>
      <trkpt lat="48.62595" lon="1.77204">
        <ele>162</ele>
        <time>2020-01-26T09:53:37Z</time>
      </trkpt>
      <trkpt lat="48.62596" lon="1.77197">
        <ele>162</ele>
        <time>2020-01-26T09:53:42Z</time>
      </trkpt>
      <trkpt lat="48.62596" lon="1.77203">
        <ele>160</ele>
        <time>2020-01-26T09:54:02Z</time>
      </trkpt>
      <trkpt lat="48.62598" lon="1.77209">
        <ele>158</ele>
        <time>2020-01-26T09:54:09Z</time>
      </trkpt>
      <trkpt lat="48.62609" lon="1.77204">
        <ele>157</ele>
        <time>2020-01-26T09:54:22Z</time>
      </trkpt>
      <trkpt lat="48.62612" lon="1.772">
        <ele>158</ele>
        <time>2020-01-26T09:54:26Z</time>
      </trkpt>
      <trkpt lat="48.62608" lon="1.77194">
        <ele>159</ele>
        <time>2020-01-26T09:54:31Z</time>
      </trkpt>
      <trkpt lat="48.62613" lon="1.7719">
        <ele>161</ele>
        <time>2020-01-26T09:54:39Z</time>
      </trkpt>
      <trkpt lat="48.62616" lon="1.77194">
        <ele>161</ele>
        <time>2020-01-26T09:54:44Z</time>
      </trkpt>
      <trkpt lat="48.62618" lon="1.77203">
        <ele>159</ele>
        <time>2020-01-26T09:57:16Z</time>
      </trkpt>
      <trkpt lat="48.62622" lon="1.77209">
        <ele>159</ele>
        <time>2020-01-26T09:57:22Z</time>
      </trkpt>
      <trkpt lat="48.62658" lon="1.77223">
        <ele>159</ele>
        <time>2020-01-26T09:57:54Z</time>
      </trkpt>
      <trkpt lat="48.62698" lon="1.77237">
        <ele>159</ele>
        <time>2020-01-26T09:58:25Z</time>
      </trkpt>
      <trkpt lat="48.62739" lon="1.77245">
        <ele>159</ele>
        <time>2020-01-26T09:58:57Z</time>
      </trkpt>
      <trkpt lat="48.6275" lon="1.77247">
        <ele>159</ele>
        <time>2020-01-26T09:59:06Z</time>
      </trkpt>
      <trkpt lat="48.62755" lon="1.77246">
        <ele>159</ele>
        <time>2020-01-26T09:59:10Z</time>
      </trkpt>
      <trkpt lat="48.6276" lon="1.77247">
        <ele>159</ele>
        <time>2020-01-26T09:59:14Z</time>
      </trkpt>
      <trkpt lat="48.62771" lon="1.77247">
        <ele>159</ele>
        <time>2020-01-26T09:59:21Z</time>
      </trkpt>
      <trkpt lat="48.62811" lon="1.77255">
        <ele>159</ele>
        <time>2020-01-26T09:59:52Z</time>
      </trkpt>
      <trkpt lat="48.62856" lon="1.77258">
        <ele>158</ele>
        <time>2020-01-26T10:00:27Z</time>
      </trkpt>
      <trkpt lat="48.62897" lon="1.77259">
        <ele>157</ele>
        <time>2020-01-26T10:00:58Z</time>
      </trkpt>
      <trkpt lat="48.62908" lon="1.77258">
        <ele>157</ele>
        <time>2020-01-26T10:01:06Z</time>
      </trkpt>
      <trkpt lat="48.62914" lon="1.77257">
        <ele>157</ele>
        <time>2020-01-26T10:01:10Z</time>
      </trkpt>
      <trkpt lat="48.6296" lon="1.77254">
        <ele>156</ele>
        <time>2020-01-26T10:01:45Z</time>
      </trkpt>
      <trkpt lat="48.63008" lon="1.77248">
        <ele>154</ele>
        <time>2020-01-26T10:02:20Z</time>
      </trkpt>
      <trkpt lat="48.63054" lon="1.77247">
        <ele>153</ele>
        <time>2020-01-26T10:02:54Z</time>
      </trkpt>
      <trkpt lat="48.63097" lon="1.77244">
        <ele>151</ele>
        <time>2020-01-26T10:03:26Z</time>
      </trkpt>
      <trkpt lat="48.63147" lon="1.7724">
        <ele>151</ele>
        <time>2020-01-26T10:04:02Z</time>
      </trkpt>
      <trkpt lat="48.63197" lon="1.77238">
        <ele>150</ele>
        <time>2020-01-26T10:04:38Z</time>
      </trkpt>
      <trkpt lat="48.63225" lon="1.77231">
        <ele>149</ele>
        <time>2020-01-26T10:04:59Z</time>
      </trkpt>
      <trkpt lat="48.63268" lon="1.77209">
        <ele>149</ele>
        <time>2020-01-26T10:05:31Z</time>
      </trkpt>
      <trkpt lat="48.63281" lon="1.77201">
        <ele>149</ele>
        <time>2020-01-26T10:05:41Z</time>
      </trkpt>
      <trkpt lat="48.63285" lon="1.77196">
        <ele>148</ele>
        <time>2020-01-26T10:05:45Z</time>
      </trkpt>
      <trkpt lat="48.63294" lon="1.77192">
        <ele>148</ele>
        <time>2020-01-26T10:05:53Z</time>
      </trkpt>
      <trkpt lat="48.63304" lon="1.77184">
        <ele>148</ele>
        <time>2020-01-26T10:06:01Z</time>
      </trkpt>
      <trkpt lat="48.63311" lon="1.77175">
        <ele>148</ele>
        <time>2020-01-26T10:06:09Z</time>
      </trkpt>
      <trkpt lat="48.63315" lon="1.77171">
        <ele>148</ele>
        <time>2020-01-26T10:06:13Z</time>
      </trkpt>
      <trkpt lat="48.63339" lon="1.77156">
        <ele>146</ele>
        <time>2020-01-26T10:06:34Z</time>
      </trkpt>
      <trkpt lat="48.63345" lon="1.77156">
        <ele>146</ele>
        <time>2020-01-26T10:06:38Z</time>
      </trkpt>
      <trkpt lat="48.63355" lon="1.7715">
        <ele>146</ele>
        <time>2020-01-26T10:06:46Z</time>
      </trkpt>
      <trkpt lat="48.63368" lon="1.77138">
        <ele>145</ele>
        <time>2020-01-26T10:06:55Z</time>
      </trkpt>
      <trkpt lat="48.63373" lon="1.77137">
        <ele>145</ele>
        <time>2020-01-26T10:06:58Z</time>
      </trkpt>
      <trkpt lat="48.63388" lon="1.77138">
        <ele>144</ele>
        <time>2020-01-26T10:07:08Z</time>
      </trkpt>
      <trkpt lat="48.63409" lon="1.77128">
        <ele>144</ele>
        <time>2020-01-26T10:07:24Z</time>
      </trkpt>
      <trkpt lat="48.63423" lon="1.77121">
        <ele>142</ele>
        <time>2020-01-26T10:07:34Z</time>
      </trkpt>
      <trkpt lat="48.63429" lon="1.7712">
        <ele>142</ele>
        <time>2020-01-26T10:07:38Z</time>
      </trkpt>
      <trkpt lat="48.63433" lon="1.77111">
        <ele>141</ele>
        <time>2020-01-26T10:07:45Z</time>
      </trkpt>
      <trkpt lat="48.63478" lon="1.77092">
        <ele>134</ele>
        <time>2020-01-26T10:08:20Z</time>
      </trkpt>
      <trkpt lat="48.63528" lon="1.77088">
        <ele>130</ele>
        <time>2020-01-26T10:08:56Z</time>
      </trkpt>
      <trkpt lat="48.63547" lon="1.77088">
        <ele>129</ele>
        <time>2020-01-26T10:09:11Z</time>
      </trkpt>
      <trkpt lat="48.63565" lon="1.77083">
        <ele>129</ele>
        <time>2020-01-26T10:09:24Z</time>
      </trkpt>
      <trkpt lat="48.63589" lon="1.77082">
        <ele>128</ele>
        <time>2020-01-26T10:09:43Z</time>
      </trkpt>
      <trkpt lat="48.63624" lon="1.77067">
        <ele>128</ele>
        <time>2020-01-26T10:10:14Z</time>
      </trkpt>
      <trkpt lat="48.63666" lon="1.77057">
        <ele>128</ele>
        <time>2020-01-26T10:10:54Z</time>
      </trkpt>
      <trkpt lat="48.63706" lon="1.7705">
        <ele>130</ele>
        <time>2020-01-26T10:11:24Z</time>
      </trkpt>
      <trkpt lat="48.63746" lon="1.77103">
        <ele>130</ele>
        <time>2020-01-26T10:12:07Z</time>
      </trkpt>
      <trkpt lat="48.63753" lon="1.77111">
        <ele>130</ele>
        <time>2020-01-26T10:12:13Z</time>
      </trkpt>
      <trkpt lat="48.63759" lon="1.77125">
        <ele>130</ele>
        <time>2020-01-26T10:12:21Z</time>
      </trkpt>
      <trkpt lat="48.63768" lon="1.7713">
        <ele>130</ele>
        <time>2020-01-26T10:12:29Z</time>
      </trkpt>
      <trkpt lat="48.63802" lon="1.77125">
        <ele>131</ele>
        <time>2020-01-26T10:13:02Z</time>
      </trkpt>
      <trkpt lat="48.63813" lon="1.7712">
        <ele>132</ele>
        <time>2020-01-26T10:13:13Z</time>
      </trkpt>
      <trkpt lat="48.63852" lon="1.77113">
        <ele>134</ele>
        <time>2020-01-26T10:13:45Z</time>
      </trkpt>
      <trkpt lat="48.63862" lon="1.77113">
        <ele>135</ele>
        <time>2020-01-26T10:13:53Z</time>
      </trkpt>
      <trkpt lat="48.63864" lon="1.77099">
        <ele>136</ele>
        <time>2020-01-26T10:14:00Z</time>
      </trkpt>
      <trkpt lat="48.63865" lon="1.77088">
        <ele>136</ele>
        <time>2020-01-26T10:14:05Z</time>
      </trkpt>
      <trkpt lat="48.63867" lon="1.77065">
        <ele>136</ele>
        <time>2020-01-26T10:14:18Z</time>
      </trkpt>
      <trkpt lat="48.63871" lon="1.77052">
        <ele>137</ele>
        <time>2020-01-26T10:14:26Z</time>
      </trkpt>
      <trkpt lat="48.63878" lon="1.77015">
        <ele>137</ele>
        <time>2020-01-26T10:14:46Z</time>
      </trkpt>
      <trkpt lat="48.6388" lon="1.77009">
        <ele>137</ele>
        <time>2020-01-26T10:14:50Z</time>
      </trkpt>
      <trkpt lat="48.6388" lon="1.77002">
        <ele>137</ele>
        <time>2020-01-26T10:14:54Z</time>
      </trkpt>
      <trkpt lat="48.63881" lon="1.76994">
        <ele>136</ele>
        <time>2020-01-26T10:14:58Z</time>
      </trkpt>
      <trkpt lat="48.63886" lon="1.7698">
        <ele>136</ele>
        <time>2020-01-26T10:15:05Z</time>
      </trkpt>
      <trkpt lat="48.63885" lon="1.76925">
        <ele>135</ele>
        <time>2020-01-26T10:15:32Z</time>
      </trkpt>
      <trkpt lat="48.63886" lon="1.76918">
        <ele>135</ele>
        <time>2020-01-26T10:15:36Z</time>
      </trkpt>
      <trkpt lat="48.63886" lon="1.76911">
        <ele>135</ele>
        <time>2020-01-26T10:15:39Z</time>
      </trkpt>
      <trkpt lat="48.63883" lon="1.76896">
        <ele>134</ele>
        <time>2020-01-26T10:15:46Z</time>
      </trkpt>
      <trkpt lat="48.6388" lon="1.76873">
        <ele>134</ele>
        <time>2020-01-26T10:15:55Z</time>
      </trkpt>
      <trkpt lat="48.63875" lon="1.76859">
        <ele>133</ele>
        <time>2020-01-26T10:16:02Z</time>
      </trkpt>
      <trkpt lat="48.63862" lon="1.76835">
        <ele>133</ele>
        <time>2020-01-26T10:16:15Z</time>
      </trkpt>
      <trkpt lat="48.63857" lon="1.76814">
        <ele>133</ele>
        <time>2020-01-26T10:16:25Z</time>
      </trkpt>
      <trkpt lat="48.63854" lon="1.76807">
        <ele>133</ele>
        <time>2020-01-26T10:16:28Z</time>
      </trkpt>
      <trkpt lat="48.63842" lon="1.76776">
        <ele>132</ele>
        <time>2020-01-26T10:16:46Z</time>
      </trkpt>
      <trkpt lat="48.63825" lon="1.76746">
        <ele>132</ele>
        <time>2020-01-26T10:17:01Z</time>
      </trkpt>
      <trkpt lat="48.6382" lon="1.76743">
        <ele>132</ele>
        <time>2020-01-26T10:17:04Z</time>
      </trkpt>
      <trkpt lat="48.63815" lon="1.76742">
        <ele>132</ele>
        <time>2020-01-26T10:17:07Z</time>
      </trkpt>
      <trkpt lat="48.63804" lon="1.76742">
        <ele>131</ele>
        <time>2020-01-26T10:17:14Z</time>
      </trkpt>
      <trkpt lat="48.63798" lon="1.76742">
        <ele>131</ele>
        <time>2020-01-26T10:17:18Z</time>
      </trkpt>
      <trkpt lat="48.63788" lon="1.76738">
        <ele>130</ele>
        <time>2020-01-26T10:17:26Z</time>
      </trkpt>
      <trkpt lat="48.63767" lon="1.76725">
        <ele>129</ele>
        <time>2020-01-26T10:17:42Z</time>
      </trkpt>
      <trkpt lat="48.63737" lon="1.76699">
        <ele>129</ele>
        <time>2020-01-26T10:18:05Z</time>
      </trkpt>
      <trkpt lat="48.63728" lon="1.76696">
        <ele>128</ele>
        <time>2020-01-26T10:18:13Z</time>
      </trkpt>
      <trkpt lat="48.63679" lon="1.76673">
        <ele>128</ele>
        <time>2020-01-26T10:18:45Z</time>
      </trkpt>
      <trkpt lat="48.63669" lon="1.76667">
        <ele>128</ele>
        <time>2020-01-26T10:18:53Z</time>
      </trkpt>
      <trkpt lat="48.63655" lon="1.76655">
        <ele>128</ele>
        <time>2020-01-26T10:19:07Z</time>
      </trkpt>
      <trkpt lat="48.6365" lon="1.76653">
        <ele>128</ele>
        <time>2020-01-26T10:19:11Z</time>
      </trkpt>
      <trkpt lat="48.63644" lon="1.76651">
        <ele>128</ele>
        <time>2020-01-26T10:19:16Z</time>
      </trkpt>
      <trkpt lat="48.63638" lon="1.7665">
        <ele>128</ele>
        <time>2020-01-26T10:19:20Z</time>
      </trkpt>
      <trkpt lat="48.63624" lon="1.76644">
        <ele>128</ele>
        <time>2020-01-26T10:19:32Z</time>
      </trkpt>
      <trkpt lat="48.63611" lon="1.76633">
        <ele>129</ele>
        <time>2020-01-26T10:19:44Z</time>
      </trkpt>
      <trkpt lat="48.63597" lon="1.76627">
        <ele>129</ele>
        <time>2020-01-26T10:19:54Z</time>
      </trkpt>
      <trkpt lat="48.63594" lon="1.76624">
        <ele>129</ele>
        <time>2020-01-26T10:19:57Z</time>
      </trkpt>
      <trkpt lat="48.63565" lon="1.76607">
        <ele>129</ele>
        <time>2020-01-26T10:20:17Z</time>
      </trkpt>
      <trkpt lat="48.63556" lon="1.76599">
        <ele>129</ele>
        <time>2020-01-26T10:20:24Z</time>
      </trkpt>
      <trkpt lat="48.63545" lon="1.76593">
        <ele>129</ele>
        <time>2020-01-26T10:20:32Z</time>
      </trkpt>
      <trkpt lat="48.63541" lon="1.76588">
        <ele>129</ele>
        <time>2020-01-26T10:20:36Z</time>
      </trkpt>
      <trkpt lat="48.6353" lon="1.7657">
        <ele>130</ele>
        <time>2020-01-26T10:20:47Z</time>
      </trkpt>
      <trkpt lat="48.6352" lon="1.76563">
        <ele>131</ele>
        <time>2020-01-26T10:20:55Z</time>
      </trkpt>
      <trkpt lat="48.63514" lon="1.76563">
        <ele>131</ele>
        <time>2020-01-26T10:20:59Z</time>
      </trkpt>
      <trkpt lat="48.63469" lon="1.76576">
        <ele>128</ele>
        <time>2020-01-26T10:21:32Z</time>
      </trkpt>
      <trkpt lat="48.63448" lon="1.76587">
        <ele>127</ele>
        <time>2020-01-26T10:21:47Z</time>
      </trkpt>
      <trkpt lat="48.63438" lon="1.76596">
        <ele>127</ele>
        <time>2020-01-26T10:21:55Z</time>
      </trkpt>
      <trkpt lat="48.63424" lon="1.76614">
        <ele>128</ele>
        <time>2020-01-26T10:22:10Z</time>
      </trkpt>
      <trkpt lat="48.63419" lon="1.76627">
        <ele>128</ele>
        <time>2020-01-26T10:22:19Z</time>
      </trkpt>
      <trkpt lat="48.63407" lon="1.76687">
        <ele>132</ele>
        <time>2020-01-26T10:22:53Z</time>
      </trkpt>
      <trkpt lat="48.63405" lon="1.76695">
        <ele>132</ele>
        <time>2020-01-26T10:22:58Z</time>
      </trkpt>
      <trkpt lat="48.6339" lon="1.76756">
        <ele>135</ele>
        <time>2020-01-26T10:23:31Z</time>
      </trkpt>
      <trkpt lat="48.63388" lon="1.76762">
        <ele>135</ele>
        <time>2020-01-26T10:23:35Z</time>
      </trkpt>
      <trkpt lat="48.63386" lon="1.76769">
        <ele>136</ele>
        <time>2020-01-26T10:23:40Z</time>
      </trkpt>
      <trkpt lat="48.63384" lon="1.76784">
        <ele>137</ele>
        <time>2020-01-26T10:23:49Z</time>
      </trkpt>
      <trkpt lat="48.6337" lon="1.76843">
        <ele>140</ele>
        <time>2020-01-26T10:24:22Z</time>
      </trkpt>
      <trkpt lat="48.63367" lon="1.76859">
        <ele>141</ele>
        <time>2020-01-26T10:24:30Z</time>
      </trkpt>
      <trkpt lat="48.63353" lon="1.76908">
        <ele>143</ele>
        <time>2020-01-26T10:24:58Z</time>
      </trkpt>
      <trkpt lat="48.63351" lon="1.76922">
        <ele>144</ele>
        <time>2020-01-26T10:25:07Z</time>
      </trkpt>
      <trkpt lat="48.63351" lon="1.7693">
        <ele>145</ele>
        <time>2020-01-26T10:25:24Z</time>
      </trkpt>
      <trkpt lat="48.63346" lon="1.76929">
        <ele>146</ele>
        <time>2020-01-26T10:25:42Z</time>
      </trkpt>
      <trkpt lat="48.63342" lon="1.76926">
        <ele>146</ele>
        <time>2020-01-26T10:25:48Z</time>
      </trkpt>
      <trkpt lat="48.63339" lon="1.76919">
        <ele>147</ele>
        <time>2020-01-26T10:25:55Z</time>
      </trkpt>
      <trkpt lat="48.63336" lon="1.76914">
        <ele>146</ele>
        <time>2020-01-26T10:26:00Z</time>
      </trkpt>
      <trkpt lat="48.63332" lon="1.76907">
        <ele>147</ele>
        <time>2020-01-26T10:26:07Z</time>
      </trkpt>
      <trkpt lat="48.63329" lon="1.76902">
        <ele>147</ele>
        <time>2020-01-26T10:26:10Z</time>
      </trkpt>
      <trkpt lat="48.63327" lon="1.76894">
        <ele>147</ele>
        <time>2020-01-26T10:26:14Z</time>
      </trkpt>
      <trkpt lat="48.63321" lon="1.76881">
        <ele>147</ele>
        <time>2020-01-26T10:26:23Z</time>
      </trkpt>
      <trkpt lat="48.63315" lon="1.76868">
        <ele>147</ele>
        <time>2020-01-26T10:26:31Z</time>
      </trkpt>
      <trkpt lat="48.6331" lon="1.76855">
        <ele>148</ele>
        <time>2020-01-26T10:26:38Z</time>
      </trkpt>
      <trkpt lat="48.63306" lon="1.76851">
        <ele>148</ele>
        <time>2020-01-26T10:26:41Z</time>
      </trkpt>
      <trkpt lat="48.63305" lon="1.76841">
        <ele>148</ele>
        <time>2020-01-26T10:26:47Z</time>
      </trkpt>
      <trkpt lat="48.63301" lon="1.76835">
        <ele>148</ele>
        <time>2020-01-26T10:26:51Z</time>
      </trkpt>
      <trkpt lat="48.63281" lon="1.76785">
        <ele>151</ele>
        <time>2020-01-26T10:27:20Z</time>
      </trkpt>
      <trkpt lat="48.63281" lon="1.76777">
        <ele>151</ele>
        <time>2020-01-26T10:27:25Z</time>
      </trkpt>
      <trkpt lat="48.63262" lon="1.7672">
        <ele>154</ele>
        <time>2020-01-26T10:27:55Z</time>
      </trkpt>
      <trkpt lat="48.6326" lon="1.76715">
        <ele>154</ele>
        <time>2020-01-26T10:27:58Z</time>
      </trkpt>
      <trkpt lat="48.63241" lon="1.76669">
        <ele>155</ele>
        <time>2020-01-26T10:28:26Z</time>
      </trkpt>
      <trkpt lat="48.63234" lon="1.76657">
        <ele>156</ele>
        <time>2020-01-26T10:28:34Z</time>
      </trkpt>
      <trkpt lat="48.6323" lon="1.76643">
        <ele>156</ele>
        <time>2020-01-26T10:28:41Z</time>
      </trkpt>
      <trkpt lat="48.63228" lon="1.76637">
        <ele>156</ele>
        <time>2020-01-26T10:28:45Z</time>
      </trkpt>
      <trkpt lat="48.63221" lon="1.76634">
        <ele>156</ele>
        <time>2020-01-26T10:28:51Z</time>
      </trkpt>
      <trkpt lat="48.63216" lon="1.76635">
        <ele>156</ele>
        <time>2020-01-26T10:28:55Z</time>
      </trkpt>
      <trkpt lat="48.63211" lon="1.76635">
        <ele>157</ele>
        <time>2020-01-26T10:29:03Z</time>
      </trkpt>
      <trkpt lat="48.63213" lon="1.7664">
        <ele>157</ele>
        <time>2020-01-26T10:30:33Z</time>
      </trkpt>
      <trkpt lat="48.63217" lon="1.76635">
        <ele>157</ele>
        <time>2020-01-26T10:30:45Z</time>
      </trkpt>
      <trkpt lat="48.63224" lon="1.76638">
        <ele>157</ele>
        <time>2020-01-26T10:32:15Z</time>
      </trkpt>
      <trkpt lat="48.63221" lon="1.76642">
        <ele>158</ele>
        <time>2020-01-26T10:34:19Z</time>
      </trkpt>
      <trkpt lat="48.63216" lon="1.76642">
        <ele>158</ele>
        <time>2020-01-26T10:34:23Z</time>
      </trkpt>
      <trkpt lat="48.63202" lon="1.7665">
        <ele>158</ele>
        <time>2020-01-26T10:34:35Z</time>
      </trkpt>
      <trkpt lat="48.63191" lon="1.76654">
        <ele>159</ele>
        <time>2020-01-26T10:34:43Z</time>
      </trkpt>
      <trkpt lat="48.63185" lon="1.76655">
        <ele>159</ele>
        <time>2020-01-26T10:34:47Z</time>
      </trkpt>
      <trkpt lat="48.63179" lon="1.76655">
        <ele>159</ele>
        <time>2020-01-26T10:34:51Z</time>
      </trkpt>
      <trkpt lat="48.63165" lon="1.76663">
        <ele>159</ele>
        <time>2020-01-26T10:35:03Z</time>
      </trkpt>
      <trkpt lat="48.63155" lon="1.7667">
        <ele>159</ele>
        <time>2020-01-26T10:35:11Z</time>
      </trkpt>
      <trkpt lat="48.63137" lon="1.76676">
        <ele>160</ele>
        <time>2020-01-26T10:35:26Z</time>
      </trkpt>
      <trkpt lat="48.63128" lon="1.76681">
        <ele>160</ele>
        <time>2020-01-26T10:35:34Z</time>
      </trkpt>
      <trkpt lat="48.63123" lon="1.76682">
        <ele>160</ele>
        <time>2020-01-26T10:35:38Z</time>
      </trkpt>
      <trkpt lat="48.63117" lon="1.76683">
        <ele>160</ele>
        <time>2020-01-26T10:35:42Z</time>
      </trkpt>
      <trkpt lat="48.63112" lon="1.76687">
        <ele>160</ele>
        <time>2020-01-26T10:35:47Z</time>
      </trkpt>
      <trkpt lat="48.63091" lon="1.76694">
        <ele>160</ele>
        <time>2020-01-26T10:36:01Z</time>
      </trkpt>
      <trkpt lat="48.6305" lon="1.76717">
        <ele>161</ele>
        <time>2020-01-26T10:36:30Z</time>
      </trkpt>
      <trkpt lat="48.63045" lon="1.76718">
        <ele>161</ele>
        <time>2020-01-26T10:36:34Z</time>
      </trkpt>
      <trkpt lat="48.63037" lon="1.76721">
        <ele>161</ele>
        <time>2020-01-26T10:36:42Z</time>
      </trkpt>
      <trkpt lat="48.63021" lon="1.76722">
        <ele>161</ele>
        <time>2020-01-26T10:36:53Z</time>
      </trkpt>
      <trkpt lat="48.63001" lon="1.76732">
        <ele>161</ele>
        <time>2020-01-26T10:37:07Z</time>
      </trkpt>
      <trkpt lat="48.62996" lon="1.7673">
        <ele>161</ele>
        <time>2020-01-26T10:37:11Z</time>
      </trkpt>
      <trkpt lat="48.62986" lon="1.76733">
        <ele>161</ele>
        <time>2020-01-26T10:37:18Z</time>
      </trkpt>
      <trkpt lat="48.62982" lon="1.76736">
        <ele>161</ele>
        <time>2020-01-26T10:37:21Z</time>
      </trkpt>
      <trkpt lat="48.62956" lon="1.76747">
        <ele>161</ele>
        <time>2020-01-26T10:37:40Z</time>
      </trkpt>
      <trkpt lat="48.62951" lon="1.76752">
        <ele>160</ele>
        <time>2020-01-26T10:37:44Z</time>
      </trkpt>
      <trkpt lat="48.6294" lon="1.76756">
        <ele>160</ele>
        <time>2020-01-26T10:37:52Z</time>
      </trkpt>
      <trkpt lat="48.62929" lon="1.76754">
        <ele>160</ele>
        <time>2020-01-26T10:38:00Z</time>
      </trkpt>
      <trkpt lat="48.62924" lon="1.76753">
        <ele>160</ele>
        <time>2020-01-26T10:38:04Z</time>
      </trkpt>
      <trkpt lat="48.62882" lon="1.76736">
        <ele>159</ele>
        <time>2020-01-26T10:38:35Z</time>
      </trkpt>
      <trkpt lat="48.62872" lon="1.76733">
        <ele>159</ele>
        <time>2020-01-26T10:38:43Z</time>
      </trkpt>
      <trkpt lat="48.62861" lon="1.76732">
        <ele>159</ele>
        <time>2020-01-26T10:38:52Z</time>
      </trkpt>
      <trkpt lat="48.62847" lon="1.76722">
        <ele>159</ele>
        <time>2020-01-26T10:39:03Z</time>
      </trkpt>
      <trkpt lat="48.62836" lon="1.76721">
        <ele>159</ele>
        <time>2020-01-26T10:39:10Z</time>
      </trkpt>
      <trkpt lat="48.62822" lon="1.76709">
        <ele>158</ele>
        <time>2020-01-26T10:39:23Z</time>
      </trkpt>
      <trkpt lat="48.62816" lon="1.76707">
        <ele>158</ele>
        <time>2020-01-26T10:39:27Z</time>
      </trkpt>
      <trkpt lat="48.62811" lon="1.76705">
        <ele>158</ele>
        <time>2020-01-26T10:39:31Z</time>
      </trkpt>
      <trkpt lat="48.62791" lon="1.76693">
        <ele>158</ele>
        <time>2020-01-26T10:39:45Z</time>
      </trkpt>
      <trkpt lat="48.62786" lon="1.76693">
        <ele>157</ele>
        <time>2020-01-26T10:39:48Z</time>
      </trkpt>
      <trkpt lat="48.62762" lon="1.76681">
        <ele>156</ele>
        <time>2020-01-26T10:40:05Z</time>
      </trkpt>
      <trkpt lat="48.62749" lon="1.76678">
        <ele>156</ele>
        <time>2020-01-26T10:40:14Z</time>
      </trkpt>
      <trkpt lat="48.62744" lon="1.76675">
        <ele>155</ele>
        <time>2020-01-26T10:40:17Z</time>
      </trkpt>
      <trkpt lat="48.62736" lon="1.76667">
        <ele>154</ele>
        <time>2020-01-26T10:40:24Z</time>
      </trkpt>
      <trkpt lat="48.62728" lon="1.76648">
        <ele>154</ele>
        <time>2020-01-26T10:40:34Z</time>
      </trkpt>
      <trkpt lat="48.62726" lon="1.76635">
        <ele>154</ele>
        <time>2020-01-26T10:40:41Z</time>
      </trkpt>
      <trkpt lat="48.62724" lon="1.7662">
        <ele>154</ele>
        <time>2020-01-26T10:40:48Z</time>
      </trkpt>
      <trkpt lat="48.62717" lon="1.76596">
        <ele>154</ele>
        <time>2020-01-26T10:41:01Z</time>
      </trkpt>
      <trkpt lat="48.62707" lon="1.76538">
        <ele>154</ele>
        <time>2020-01-26T10:41:33Z</time>
      </trkpt>
      <trkpt lat="48.62691" lon="1.76467">
        <ele>155</ele>
        <time>2020-01-26T10:42:09Z</time>
      </trkpt>
      <trkpt lat="48.62681" lon="1.76425">
        <ele>155</ele>
        <time>2020-01-26T10:42:30Z</time>
      </trkpt>
      <trkpt lat="48.62677" lon="1.76414">
        <ele>155</ele>
        <time>2020-01-26T10:42:37Z</time>
      </trkpt>
      <trkpt lat="48.62671" lon="1.76386">
        <ele>155</ele>
        <time>2020-01-26T10:42:52Z</time>
      </trkpt>
      <trkpt lat="48.62657" lon="1.76364">
        <ele>154</ele>
        <time>2020-01-26T10:43:08Z</time>
      </trkpt>
      <trkpt lat="48.62648" lon="1.76356">
        <ele>154</ele>
        <time>2020-01-26T10:43:15Z</time>
      </trkpt>
      <trkpt lat="48.62635" lon="1.76335">
        <ele>153</ele>
        <time>2020-01-26T10:43:30Z</time>
      </trkpt>
      <trkpt lat="48.62607" lon="1.76325">
        <ele>153</ele>
        <time>2020-01-26T10:43:51Z</time>
      </trkpt>
      <trkpt lat="48.62569" lon="1.76324">
        <ele>152</ele>
        <time>2020-01-26T10:44:21Z</time>
      </trkpt>
      <trkpt lat="48.62532" lon="1.76278">
        <ele>151</ele>
        <time>2020-01-26T10:44:55Z</time>
      </trkpt>
      <trkpt lat="48.62521" lon="1.76256">
        <ele>150</ele>
        <time>2020-01-26T10:45:09Z</time>
      </trkpt>
      <trkpt lat="48.62514" lon="1.76248">
        <ele>150</ele>
        <time>2020-01-26T10:45:15Z</time>
      </trkpt>
      <trkpt lat="48.62508" lon="1.76236">
        <ele>150</ele>
        <time>2020-01-26T10:45:22Z</time>
      </trkpt>
      <trkpt lat="48.62505" lon="1.76223">
        <ele>149</ele>
        <time>2020-01-26T10:45:28Z</time>
      </trkpt>
      <trkpt lat="48.62506" lon="1.76195">
        <ele>149</ele>
        <time>2020-01-26T10:45:42Z</time>
      </trkpt>
      <trkpt lat="48.62512" lon="1.76165">
        <ele>148</ele>
        <time>2020-01-26T10:45:56Z</time>
      </trkpt>
      <trkpt lat="48.62525" lon="1.76127">
        <ele>147</ele>
        <time>2020-01-26T10:46:17Z</time>
      </trkpt>
      <trkpt lat="48.62534" lon="1.76077">
        <ele>145</ele>
        <time>2020-01-26T10:46:43Z</time>
      </trkpt>
      <trkpt lat="48.62536" lon="1.76069">
        <ele>145</ele>
        <time>2020-01-26T10:46:47Z</time>
      </trkpt>
      <trkpt lat="48.62538" lon="1.76062">
        <ele>145</ele>
        <time>2020-01-26T10:46:51Z</time>
      </trkpt>
      <trkpt lat="48.62543" lon="1.76048">
        <ele>144</ele>
        <time>2020-01-26T10:46:58Z</time>
      </trkpt>
      <trkpt lat="48.62547" lon="1.76036">
        <ele>144</ele>
        <time>2020-01-26T10:47:05Z</time>
      </trkpt>
      <trkpt lat="48.62552" lon="1.76035">
        <ele>144</ele>
        <time>2020-01-26T10:47:09Z</time>
      </trkpt>
      <trkpt lat="48.62562" lon="1.76034">
        <ele>144</ele>
        <time>2020-01-26T10:47:16Z</time>
      </trkpt>
      <trkpt lat="48.6259" lon="1.76023">
        <ele>144</ele>
        <time>2020-01-26T10:47:28Z</time>
      </trkpt>
      <trkpt lat="48.62592" lon="1.76026">
        <ele>144</ele>
        <time>2020-01-26T10:47:33Z</time>
      </trkpt>
      <trkpt lat="48.62598" lon="1.76019">
        <ele>144</ele>
        <time>2020-01-26T10:47:46Z</time>
      </trkpt>
      <trkpt lat="48.62614" lon="1.75993">
        <ele>144</ele>
        <time>2020-01-26T10:48:06Z</time>
      </trkpt>
      <trkpt lat="48.62619" lon="1.7598">
        <ele>144</ele>
        <time>2020-01-26T10:48:14Z</time>
      </trkpt>
      <trkpt lat="48.62622" lon="1.75973">
        <ele>144</ele>
        <time>2020-01-26T10:48:18Z</time>
      </trkpt>
      <trkpt lat="48.62645" lon="1.75917">
        <ele>145</ele>
        <time>2020-01-26T10:48:53Z</time>
      </trkpt>
      <trkpt lat="48.62661" lon="1.75867">
        <ele>147</ele>
        <time>2020-01-26T10:49:24Z</time>
      </trkpt>
      <trkpt lat="48.62667" lon="1.75857">
        <ele>148</ele>
        <time>2020-01-26T10:49:29Z</time>
      </trkpt>
      <trkpt lat="48.62671" lon="1.75844">
        <ele>148</ele>
        <time>2020-01-26T10:49:35Z</time>
      </trkpt>
      <trkpt lat="48.62673" lon="1.7583">
        <ele>148</ele>
        <time>2020-01-26T10:49:42Z</time>
      </trkpt>
      <trkpt lat="48.62685" lon="1.75791">
        <ele>149</ele>
        <time>2020-01-26T10:50:04Z</time>
      </trkpt>
      <trkpt lat="48.62695" lon="1.7572">
        <ele>146</ele>
        <time>2020-01-26T10:50:41Z</time>
      </trkpt>
      <trkpt lat="48.62697" lon="1.75657">
        <ele>143</ele>
        <time>2020-01-26T10:51:12Z</time>
      </trkpt>
      <trkpt lat="48.62699" lon="1.75643">
        <ele>142</ele>
        <time>2020-01-26T10:51:20Z</time>
      </trkpt>
      <trkpt lat="48.62693" lon="1.75614">
        <ele>141</ele>
        <time>2020-01-26T10:51:33Z</time>
      </trkpt>
      <trkpt lat="48.62691" lon="1.756">
        <ele>140</ele>
        <time>2020-01-26T10:51:40Z</time>
      </trkpt>
      <trkpt lat="48.62693" lon="1.75585">
        <ele>139</ele>
        <time>2020-01-26T10:51:47Z</time>
      </trkpt>
      <trkpt lat="48.62689" lon="1.75557">
        <ele>137</ele>
        <time>2020-01-26T10:52:00Z</time>
      </trkpt>
      <trkpt lat="48.62693" lon="1.75499">
        <ele>135</ele>
        <time>2020-01-26T10:52:25Z</time>
      </trkpt>
      <trkpt lat="48.62683" lon="1.75483">
        <ele>134</ele>
        <time>2020-01-26T10:52:37Z</time>
      </trkpt>
      <trkpt lat="48.62681" lon="1.75453">
        <ele>132</ele>
        <time>2020-01-26T10:52:53Z</time>
      </trkpt>
      <trkpt lat="48.62668" lon="1.75412">
        <ele>130</ele>
        <time>2020-01-26T10:53:18Z</time>
      </trkpt>
      <trkpt lat="48.62649" lon="1.75375">
        <ele>129</ele>
        <time>2020-01-26T10:53:39Z</time>
      </trkpt>
      <trkpt lat="48.62634" lon="1.75324">
        <ele>128</ele>
        <time>2020-01-26T10:54:10Z</time>
      </trkpt>
      <trkpt lat="48.62631" lon="1.75308">
        <ele>128</ele>
        <time>2020-01-26T10:54:18Z</time>
      </trkpt>
      <trkpt lat="48.62628" lon="1.75296">
        <ele>128</ele>
        <time>2020-01-26T10:54:24Z</time>
      </trkpt>
      <trkpt lat="48.62622" lon="1.75284">
        <ele>128</ele>
        <time>2020-01-26T10:54:33Z</time>
      </trkpt>
      <trkpt lat="48.62611" lon="1.75212">
        <ele>128</ele>
        <time>2020-01-26T10:55:06Z</time>
      </trkpt>
      <trkpt lat="48.62608" lon="1.75198">
        <ele>128</ele>
        <time>2020-01-26T10:55:12Z</time>
      </trkpt>
      <trkpt lat="48.62611" lon="1.75185">
        <ele>128</ele>
        <time>2020-01-26T10:55:18Z</time>
      </trkpt>
      <trkpt lat="48.62625" lon="1.75126">
        <ele>128</ele>
        <time>2020-01-26T10:55:49Z</time>
      </trkpt>
      <trkpt lat="48.62634" lon="1.75069">
        <ele>128</ele>
        <time>2020-01-26T10:56:18Z</time>
      </trkpt>
      <trkpt lat="48.62632" lon="1.75055">
        <ele>128</ele>
        <time>2020-01-26T10:56:25Z</time>
      </trkpt>
      <trkpt lat="48.62617" lon="1.75019">
        <ele>128</ele>
        <time>2020-01-26T10:56:46Z</time>
      </trkpt>
      <trkpt lat="48.62611" lon="1.7501">
        <ele>128</ele>
        <time>2020-01-26T10:56:54Z</time>
      </trkpt>
      <trkpt lat="48.62606" lon="1.74998">
        <ele>128</ele>
        <time>2020-01-26T10:57:02Z</time>
      </trkpt>
      <trkpt lat="48.62596" lon="1.74984">
        <ele>128</ele>
        <time>2020-01-26T10:57:14Z</time>
      </trkpt>
      <trkpt lat="48.62593" lon="1.74976">
        <ele>128</ele>
        <time>2020-01-26T10:57:18Z</time>
      </trkpt>
      <trkpt lat="48.62581" lon="1.74961">
        <ele>128</ele>
        <time>2020-01-26T10:57:32Z</time>
      </trkpt>
      <trkpt lat="48.62578" lon="1.74953">
        <ele>128</ele>
        <time>2020-01-26T10:57:36Z</time>
      </trkpt>
      <trkpt lat="48.62548" lon="1.74926">
        <ele>127</ele>
        <time>2020-01-26T10:57:59Z</time>
      </trkpt>
      <trkpt lat="48.62546" lon="1.7492">
        <ele>127</ele>
        <time>2020-01-26T10:58:03Z</time>
      </trkpt>
      <trkpt lat="48.62529" lon="1.74857">
        <ele>127</ele>
        <time>2020-01-26T10:58:36Z</time>
      </trkpt>
      <trkpt lat="48.62527" lon="1.74842">
        <ele>127</ele>
        <time>2020-01-26T10:58:44Z</time>
      </trkpt>
      <trkpt lat="48.62536" lon="1.74798">
        <ele>128</ele>
        <time>2020-01-26T10:59:03Z</time>
      </trkpt>
      <trkpt lat="48.62537" lon="1.74768">
        <ele>127</ele>
        <time>2020-01-26T10:59:17Z</time>
      </trkpt>
      <trkpt lat="48.62534" lon="1.74753">
        <ele>127</ele>
        <time>2020-01-26T10:59:25Z</time>
      </trkpt>
      <trkpt lat="48.62524" lon="1.74729">
        <ele>127</ele>
        <time>2020-01-26T10:59:42Z</time>
      </trkpt>
      <trkpt lat="48.62517" lon="1.74719">
        <ele>127</ele>
        <time>2020-01-26T10:59:51Z</time>
      </trkpt>
      <trkpt lat="48.62509" lon="1.74711">
        <ele>127</ele>
        <time>2020-01-26T11:00:00Z</time>
      </trkpt>
      <trkpt lat="48.62478" lon="1.74654">
        <ele>127</ele>
        <time>2020-01-26T11:00:35Z</time>
      </trkpt>
      <trkpt lat="48.62473" lon="1.74642">
        <ele>127</ele>
        <time>2020-01-26T11:00:41Z</time>
      </trkpt>
      <trkpt lat="48.62469" lon="1.74635">
        <ele>127</ele>
        <time>2020-01-26T11:00:45Z</time>
      </trkpt>
      <trkpt lat="48.62462" lon="1.74623">
        <ele>126</ele>
        <time>2020-01-26T11:00:53Z</time>
      </trkpt>
      <trkpt lat="48.62457" lon="1.7461">
        <ele>127</ele>
        <time>2020-01-26T11:01:01Z</time>
      </trkpt>
      <trkpt lat="48.62445" lon="1.74584">
        <ele>127</ele>
        <time>2020-01-26T11:01:17Z</time>
      </trkpt>
      <trkpt lat="48.62441" lon="1.74575">
        <ele>127</ele>
        <time>2020-01-26T11:01:25Z</time>
      </trkpt>
      <trkpt lat="48.6244" lon="1.74558">
        <ele>127</ele>
        <time>2020-01-26T11:01:33Z</time>
      </trkpt>
      <trkpt lat="48.62426" lon="1.74527">
        <ele>127</ele>
        <time>2020-01-26T11:01:48Z</time>
      </trkpt>
      <trkpt lat="48.62418" lon="1.74519">
        <ele>127</ele>
        <time>2020-01-26T11:01:54Z</time>
      </trkpt>
      <trkpt lat="48.62401" lon="1.74496">
        <ele>127</ele>
        <time>2020-01-26T11:02:10Z</time>
      </trkpt>
      <trkpt lat="48.62402" lon="1.74479">
        <ele>127</ele>
        <time>2020-01-26T11:02:17Z</time>
      </trkpt>
      <trkpt lat="48.62407" lon="1.74456">
        <ele>128</ele>
        <time>2020-01-26T11:02:27Z</time>
      </trkpt>
      <trkpt lat="48.62408" lon="1.74448">
        <ele>127</ele>
        <time>2020-01-26T11:02:31Z</time>
      </trkpt>
      <trkpt lat="48.62409" lon="1.74441">
        <ele>127</ele>
        <time>2020-01-26T11:02:35Z</time>
      </trkpt>
      <trkpt lat="48.62409" lon="1.74433">
        <ele>127</ele>
        <time>2020-01-26T11:02:38Z</time>
      </trkpt>
      <trkpt lat="48.62405" lon="1.74421">
        <ele>127</ele>
        <time>2020-01-26T11:02:44Z</time>
      </trkpt>
      <trkpt lat="48.6239" lon="1.74381">
        <ele>127</ele>
        <time>2020-01-26T11:03:07Z</time>
      </trkpt>
      <trkpt lat="48.62378" lon="1.7433">
        <ele>127</ele>
        <time>2020-01-26T11:03:34Z</time>
      </trkpt>
      <trkpt lat="48.62366" lon="1.7429">
        <ele>126</ele>
        <time>2020-01-26T11:03:56Z</time>
      </trkpt>
      <trkpt lat="48.62361" lon="1.74258">
        <ele>126</ele>
        <time>2020-01-26T11:04:11Z</time>
      </trkpt>
      <trkpt lat="48.62361" lon="1.74241">
        <ele>126</ele>
        <time>2020-01-26T11:04:19Z</time>
      </trkpt>
      <trkpt lat="48.62363" lon="1.74233">
        <ele>126</ele>
        <time>2020-01-26T11:04:23Z</time>
      </trkpt>
      <trkpt lat="48.62364" lon="1.74226">
        <ele>126</ele>
        <time>2020-01-26T11:04:27Z</time>
      </trkpt>
      <trkpt lat="48.62364" lon="1.74218">
        <ele>126</ele>
        <time>2020-01-26T11:04:31Z</time>
      </trkpt>
      <trkpt lat="48.62364" lon="1.7421">
        <ele>126</ele>
        <time>2020-01-26T11:04:35Z</time>
      </trkpt>
      <trkpt lat="48.62363" lon="1.74203">
        <ele>126</ele>
        <time>2020-01-26T11:04:39Z</time>
      </trkpt>
      <trkpt lat="48.6236" lon="1.7419">
        <ele>126</ele>
        <time>2020-01-26T11:04:47Z</time>
      </trkpt>
      <trkpt lat="48.62357" lon="1.74176">
        <ele>126</ele>
        <time>2020-01-26T11:04:55Z</time>
      </trkpt>
      <trkpt lat="48.62351" lon="1.74164">
        <ele>125</ele>
        <time>2020-01-26T11:05:03Z</time>
      </trkpt>
      <trkpt lat="48.62341" lon="1.74145">
        <ele>126</ele>
        <time>2020-01-26T11:05:17Z</time>
      </trkpt>
      <trkpt lat="48.62338" lon="1.74141">
        <ele>127</ele>
        <time>2020-01-26T11:05:21Z</time>
      </trkpt>
      <trkpt lat="48.62329" lon="1.74132">
        <ele>127</ele>
        <time>2020-01-26T11:05:29Z</time>
      </trkpt>
      <trkpt lat="48.62322" lon="1.74123">
        <ele>126</ele>
        <time>2020-01-26T11:05:36Z</time>
      </trkpt>
      <trkpt lat="48.62307" lon="1.74113">
        <ele>127</ele>
        <time>2020-01-26T11:05:48Z</time>
      </trkpt>
      <trkpt lat="48.62303" lon="1.7411">
        <ele>126</ele>
        <time>2020-01-26T11:05:52Z</time>
      </trkpt>
      <trkpt lat="48.62293" lon="1.74106">
        <ele>125</ele>
        <time>2020-01-26T11:06:00Z</time>
      </trkpt>
      <trkpt lat="48.6229" lon="1.74102">
        <ele>125</ele>
        <time>2020-01-26T11:06:04Z</time>
      </trkpt>
      <trkpt lat="48.62275" lon="1.74093">
        <ele>124</ele>
        <time>2020-01-26T11:06:16Z</time>
      </trkpt>
      <trkpt lat="48.62264" lon="1.74092">
        <ele>124</ele>
        <time>2020-01-26T11:06:23Z</time>
      </trkpt>
      <trkpt lat="48.62243" lon="1.74084">
        <ele>124</ele>
        <time>2020-01-26T11:06:39Z</time>
      </trkpt>
      <trkpt lat="48.622" lon="1.74061">
        <ele>124</ele>
        <time>2020-01-26T11:07:15Z</time>
      </trkpt>
      <trkpt lat="48.62195" lon="1.74058">
        <ele>124</ele>
        <time>2020-01-26T11:07:19Z</time>
      </trkpt>
      <trkpt lat="48.6219" lon="1.74055">
        <ele>124</ele>
        <time>2020-01-26T11:07:23Z</time>
      </trkpt>
      <trkpt lat="48.62169" lon="1.74052">
        <ele>124</ele>
        <time>2020-01-26T11:07:39Z</time>
      </trkpt>
      <trkpt lat="48.62145" lon="1.74041">
        <ele>123</ele>
        <time>2020-01-26T11:07:57Z</time>
      </trkpt>
      <trkpt lat="48.62125" lon="1.74033">
        <ele>123</ele>
        <time>2020-01-26T11:08:12Z</time>
      </trkpt>
      <trkpt lat="48.62111" lon="1.74015">
        <ele>124</ele>
        <time>2020-01-26T11:08:27Z</time>
      </trkpt>
      <trkpt lat="48.62102" lon="1.74009">
        <ele>124</ele>
        <time>2020-01-26T11:08:35Z</time>
      </trkpt>
      <trkpt lat="48.62065" lon="1.73966">
        <ele>125</ele>
        <time>2020-01-26T11:09:10Z</time>
      </trkpt>
      <trkpt lat="48.62059" lon="1.73955">
        <ele>125</ele>
        <time>2020-01-26T11:09:17Z</time>
      </trkpt>
      <trkpt lat="48.62026" lon="1.73922">
        <ele>124</ele>
        <time>2020-01-26T11:09:48Z</time>
      </trkpt>
      <trkpt lat="48.61998" lon="1.73906">
        <ele>123</ele>
        <time>2020-01-26T11:10:09Z</time>
      </trkpt>
      <trkpt lat="48.61961" lon="1.73896">
        <ele>123</ele>
        <time>2020-01-26T11:10:39Z</time>
      </trkpt>
      <trkpt lat="48.61942" lon="1.73888">
        <ele>123</ele>
        <time>2020-01-26T11:10:54Z</time>
      </trkpt>
      <trkpt lat="48.61918" lon="1.73862">
        <ele>123</ele>
        <time>2020-01-26T11:11:17Z</time>
      </trkpt>
      <trkpt lat="48.61902" lon="1.73829">
        <ele>123</ele>
        <time>2020-01-26T11:11:37Z</time>
      </trkpt>
      <trkpt lat="48.61872" lon="1.73791">
        <ele>123</ele>
        <time>2020-01-26T11:12:08Z</time>
      </trkpt>
      <trkpt lat="48.61868" lon="1.73779">
        <ele>124</ele>
        <time>2020-01-26T11:12:31Z</time>
      </trkpt>
      <trkpt lat="48.61867" lon="1.73776">
        <ele>126</ele>
        <time>2020-01-26T11:16:10Z</time>
      </trkpt>
      <trkpt lat="48.61852" lon="1.73761">
        <ele>126</ele>
        <time>2020-01-26T11:16:21Z</time>
      </trkpt>
      <trkpt lat="48.61813" lon="1.73724">
        <ele>126</ele>
        <time>2020-01-26T11:16:54Z</time>
      </trkpt>
      <trkpt lat="48.61804" lon="1.73718">
        <ele>126</ele>
        <time>2020-01-26T11:17:03Z</time>
      </trkpt>
      <trkpt lat="48.61799" lon="1.73713">
        <ele>126</ele>
        <time>2020-01-26T11:17:07Z</time>
      </trkpt>
      <trkpt lat="48.61796" lon="1.73708">
        <ele>126</ele>
        <time>2020-01-26T11:17:10Z</time>
      </trkpt>
      <trkpt lat="48.61797" lon="1.73699">
        <ele>126</ele>
        <time>2020-01-26T11:17:14Z</time>
      </trkpt>
      <trkpt lat="48.61793" lon="1.73694">
        <ele>126</ele>
        <time>2020-01-26T11:17:17Z</time>
      </trkpt>
      <trkpt lat="48.61788" lon="1.73691">
        <ele>126</ele>
        <time>2020-01-26T11:17:20Z</time>
      </trkpt>
      <trkpt lat="48.61776" lon="1.73667">
        <ele>125</ele>
        <time>2020-01-26T11:17:34Z</time>
      </trkpt>
      <trkpt lat="48.61764" lon="1.73617">
        <ele>125</ele>
        <time>2020-01-26T11:18:02Z</time>
      </trkpt>
      <trkpt lat="48.61765" lon="1.73587">
        <ele>125</ele>
        <time>2020-01-26T11:18:18Z</time>
      </trkpt>
      <trkpt lat="48.6176" lon="1.73573">
        <ele>126</ele>
        <time>2020-01-26T11:18:25Z</time>
      </trkpt>
      <trkpt lat="48.61752" lon="1.73564">
        <ele>126</ele>
        <time>2020-01-26T11:18:31Z</time>
      </trkpt>
      <trkpt lat="48.61734" lon="1.73552">
        <ele>126</ele>
        <time>2020-01-26T11:18:46Z</time>
      </trkpt>
      <trkpt lat="48.6172" lon="1.73534">
        <ele>127</ele>
        <time>2020-01-26T11:18:59Z</time>
      </trkpt>
      <trkpt lat="48.61715" lon="1.73523">
        <ele>127</ele>
        <time>2020-01-26T11:19:05Z</time>
      </trkpt>
      <trkpt lat="48.61709" lon="1.7348">
        <ele>129</ele>
        <time>2020-01-26T11:19:31Z</time>
      </trkpt>
      <trkpt lat="48.61707" lon="1.73474">
        <ele>130</ele>
        <time>2020-01-26T11:19:45Z</time>
      </trkpt>
      <trkpt lat="48.61692" lon="1.73472">
        <ele>131</ele>
        <time>2020-01-26T11:19:57Z</time>
      </trkpt>
      <trkpt lat="48.61678" lon="1.73475">
        <ele>132</ele>
        <time>2020-01-26T11:20:10Z</time>
      </trkpt>
      <trkpt lat="48.61674" lon="1.73469">
        <ele>133</ele>
        <time>2020-01-26T11:20:17Z</time>
      </trkpt>
      <trkpt lat="48.61668" lon="1.73471">
        <ele>135</ele>
        <time>2020-01-26T11:20:30Z</time>
      </trkpt>
      <trkpt lat="48.61663" lon="1.73474">
        <ele>135</ele>
        <time>2020-01-26T11:20:35Z</time>
      </trkpt>
      <trkpt lat="48.61658" lon="1.73476">
        <ele>135</ele>
        <time>2020-01-26T11:20:40Z</time>
      </trkpt>
      <trkpt lat="48.61639" lon="1.73489">
        <ele>137</ele>
        <time>2020-01-26T11:20:58Z</time>
      </trkpt>
      <trkpt lat="48.61615" lon="1.73514">
        <ele>139</ele>
        <time>2020-01-26T11:21:22Z</time>
      </trkpt>
      <trkpt lat="48.6161" lon="1.73511">
        <ele>139</ele>
        <time>2020-01-26T11:21:27Z</time>
      </trkpt>
      <trkpt lat="48.61607" lon="1.73505">
        <ele>140</ele>
        <time>2020-01-26T11:21:35Z</time>
      </trkpt>
      <trkpt lat="48.61601" lon="1.73494">
        <ele>142</ele>
        <time>2020-01-26T11:21:46Z</time>
      </trkpt>
      <trkpt lat="48.61595" lon="1.73476">
        <ele>144</ele>
        <time>2020-01-26T11:22:01Z</time>
      </trkpt>
      <trkpt lat="48.6159" lon="1.73472">
        <ele>146</ele>
        <time>2020-01-26T11:22:06Z</time>
      </trkpt>
      <trkpt lat="48.61588" lon="1.73462">
        <ele>147</ele>
        <time>2020-01-26T11:22:14Z</time>
      </trkpt>
      <trkpt lat="48.61586" lon="1.73454">
        <ele>147</ele>
        <time>2020-01-26T11:22:18Z</time>
      </trkpt>
      <trkpt lat="48.61581" lon="1.73451">
        <ele>147</ele>
        <time>2020-01-26T11:22:22Z</time>
      </trkpt>
      <trkpt lat="48.6157" lon="1.73458">
        <ele>149</ele>
        <time>2020-01-26T11:22:38Z</time>
      </trkpt>
      <trkpt lat="48.6156" lon="1.73462">
        <ele>151</ele>
        <time>2020-01-26T11:22:51Z</time>
      </trkpt>
      <trkpt lat="48.61542" lon="1.73459">
        <ele>154</ele>
        <time>2020-01-26T11:23:11Z</time>
      </trkpt>
      <trkpt lat="48.61511" lon="1.73446">
        <ele>158</ele>
        <time>2020-01-26T11:23:44Z</time>
      </trkpt>
      <trkpt lat="48.61496" lon="1.7343">
        <ele>161</ele>
        <time>2020-01-26T11:24:03Z</time>
      </trkpt>
      <trkpt lat="48.61474" lon="1.73416">
        <ele>162</ele>
        <time>2020-01-26T11:24:21Z</time>
      </trkpt>
      <trkpt lat="48.61468" lon="1.73404">
        <ele>163</ele>
        <time>2020-01-26T11:24:29Z</time>
      </trkpt>
      <trkpt lat="48.61458" lon="1.73375">
        <ele>164</ele>
        <time>2020-01-26T11:24:48Z</time>
      </trkpt>
      <trkpt lat="48.61455" lon="1.73369">
        <ele>164</ele>
        <time>2020-01-26T11:24:52Z</time>
      </trkpt>
      <trkpt lat="48.61451" lon="1.73364">
        <ele>164</ele>
        <time>2020-01-26T11:24:56Z</time>
      </trkpt>
      <trkpt lat="48.61447" lon="1.7336">
        <ele>164</ele>
        <time>2020-01-26T11:25:00Z</time>
      </trkpt>
      <trkpt lat="48.61441" lon="1.73361">
        <ele>164</ele>
        <time>2020-01-26T11:25:05Z</time>
      </trkpt>
      <trkpt lat="48.61413" lon="1.73342">
        <ele>165</ele>
        <time>2020-01-26T11:25:30Z</time>
      </trkpt>
      <trkpt lat="48.61408" lon="1.7334">
        <ele>165</ele>
        <time>2020-01-26T11:25:40Z</time>
      </trkpt>
      <trkpt lat="48.61395" lon="1.73337">
        <ele>166</ele>
        <time>2020-01-26T11:26:02Z</time>
      </trkpt>
      <trkpt lat="48.6138" lon="1.7334">
        <ele>166</ele>
        <time>2020-01-26T11:26:14Z</time>
      </trkpt>
      <trkpt lat="48.61375" lon="1.73342">
        <ele>166</ele>
        <time>2020-01-26T11:26:18Z</time>
      </trkpt>
      <trkpt lat="48.61369" lon="1.73341">
        <ele>166</ele>
        <time>2020-01-26T11:26:25Z</time>
      </trkpt>
      <trkpt lat="48.61354" lon="1.73342">
        <ele>167</ele>
        <time>2020-01-26T11:26:37Z</time>
      </trkpt>
      <trkpt lat="48.61344" lon="1.73347">
        <ele>167</ele>
        <time>2020-01-26T11:26:45Z</time>
      </trkpt>
      <trkpt lat="48.6134" lon="1.73351">
        <ele>167</ele>
        <time>2020-01-26T11:26:49Z</time>
      </trkpt>
      <trkpt lat="48.61304" lon="1.73387">
        <ele>166</ele>
        <time>2020-01-26T11:27:20Z</time>
      </trkpt>
      <trkpt lat="48.61274" lon="1.73413">
        <ele>168</ele>
        <time>2020-01-26T11:27:47Z</time>
      </trkpt>
      <trkpt lat="48.61253" lon="1.73423">
        <ele>168</ele>
        <time>2020-01-26T11:28:04Z</time>
      </trkpt>
      <trkpt lat="48.61243" lon="1.73425">
        <ele>169</ele>
        <time>2020-01-26T11:28:13Z</time>
      </trkpt>
      <trkpt lat="48.61232" lon="1.73427">
        <ele>169</ele>
        <time>2020-01-26T11:28:21Z</time>
      </trkpt>
      <trkpt lat="48.61222" lon="1.73426">
        <ele>170</ele>
        <time>2020-01-26T11:28:30Z</time>
      </trkpt>
      <trkpt lat="48.61186" lon="1.73432">
        <ele>171</ele>
        <time>2020-01-26T11:28:59Z</time>
      </trkpt>
      <trkpt lat="48.61143" lon="1.73428">
        <ele>172</ele>
        <time>2020-01-26T11:29:33Z</time>
      </trkpt>
      <trkpt lat="48.61099" lon="1.73433">
        <ele>173</ele>
        <time>2020-01-26T11:30:08Z</time>
      </trkpt>
      <trkpt lat="48.61057" lon="1.73438">
        <ele>174</ele>
        <time>2020-01-26T11:30:40Z</time>
      </trkpt>
      <trkpt lat="48.61043" lon="1.73438">
        <ele>174</ele>
        <time>2020-01-26T11:30:53Z</time>
      </trkpt>
      <trkpt lat="48.61038" lon="1.73437">
        <ele>174</ele>
        <time>2020-01-26T11:30:57Z</time>
      </trkpt>
      <trkpt lat="48.61008" lon="1.73443">
        <ele>174</ele>
        <time>2020-01-26T11:31:24Z</time>
      </trkpt>
      <trkpt lat="48.60998" lon="1.73441">
        <ele>174</ele>
        <time>2020-01-26T11:31:33Z</time>
      </trkpt>
      <trkpt lat="48.60988" lon="1.73444">
        <ele>174</ele>
        <time>2020-01-26T11:31:42Z</time>
      </trkpt>
      <trkpt lat="48.60984" lon="1.73448">
        <ele>174</ele>
        <time>2020-01-26T11:31:46Z</time>
      </trkpt>
      <trkpt lat="48.60983" lon="1.73455">
        <ele>174</ele>
        <time>2020-01-26T11:31:49Z</time>
      </trkpt>
      <trkpt lat="48.60985" lon="1.73471">
        <ele>174</ele>
        <time>2020-01-26T11:31:56Z</time>
      </trkpt>
      <trkpt lat="48.60993" lon="1.73499">
        <ele>174</ele>
        <time>2020-01-26T11:32:17Z</time>
      </trkpt>
      <trkpt lat="48.60995" lon="1.73515">
        <ele>174</ele>
        <time>2020-01-26T11:32:27Z</time>
      </trkpt>
      <trkpt lat="48.6099" lon="1.73519">
        <ele>174</ele>
        <time>2020-01-26T11:32:35Z</time>
      </trkpt>
      <trkpt lat="48.6096" lon="1.73507">
        <ele>174</ele>
        <time>2020-01-26T11:33:01Z</time>
      </trkpt>
      <trkpt lat="48.60956" lon="1.73503">
        <ele>174</ele>
        <time>2020-01-26T11:33:05Z</time>
      </trkpt>
      <trkpt lat="48.60916" lon="1.73483">
        <ele>174</ele>
        <time>2020-01-26T11:33:38Z</time>
      </trkpt>
      <trkpt lat="48.60906" lon="1.73479">
        <ele>174</ele>
        <time>2020-01-26T11:33:46Z</time>
      </trkpt>
      <trkpt lat="48.60901" lon="1.73476">
        <ele>174</ele>
        <time>2020-01-26T11:33:50Z</time>
      </trkpt>
      <trkpt lat="48.60862" lon="1.73455">
        <ele>174</ele>
        <time>2020-01-26T11:34:23Z</time>
      </trkpt>
      <trkpt lat="48.60858" lon="1.73452">
        <ele>174</ele>
        <time>2020-01-26T11:34:27Z</time>
      </trkpt>
      <trkpt lat="48.60849" lon="1.73446">
        <ele>174</ele>
        <time>2020-01-26T11:34:35Z</time>
      </trkpt>
      <trkpt lat="48.6081" lon="1.73429">
        <ele>174</ele>
        <time>2020-01-26T11:35:05Z</time>
      </trkpt>
      <trkpt lat="48.60785" lon="1.73416">
        <ele>173</ele>
        <time>2020-01-26T11:35:25Z</time>
      </trkpt>
      <trkpt lat="48.60764" lon="1.73413">
        <ele>173</ele>
        <time>2020-01-26T11:35:40Z</time>
      </trkpt>
      <trkpt lat="48.60755" lon="1.73407">
        <ele>173</ele>
        <time>2020-01-26T11:35:47Z</time>
      </trkpt>
      <trkpt lat="48.60746" lon="1.734">
        <ele>172</ele>
        <time>2020-01-26T11:35:55Z</time>
      </trkpt>
      <trkpt lat="48.60736" lon="1.73395">
        <ele>172</ele>
        <time>2020-01-26T11:36:04Z</time>
      </trkpt>
      <trkpt lat="48.60724" lon="1.73393">
        <ele>172</ele>
        <time>2020-01-26T11:36:24Z</time>
      </trkpt>
      <trkpt lat="48.60703" lon="1.73383">
        <ele>172</ele>
        <time>2020-01-26T11:36:39Z</time>
      </trkpt>
      <trkpt lat="48.60694" lon="1.73383">
        <ele>172</ele>
        <time>2020-01-26T11:36:45Z</time>
      </trkpt>
      <trkpt lat="48.60666" lon="1.73372">
        <ele>171</ele>
        <time>2020-01-26T11:37:05Z</time>
      </trkpt>
      <trkpt lat="48.60647" lon="1.73359">
        <ele>171</ele>
        <time>2020-01-26T11:37:22Z</time>
      </trkpt>
      <trkpt lat="48.60628" lon="1.73351">
        <ele>171</ele>
        <time>2020-01-26T11:37:38Z</time>
      </trkpt>
      <trkpt lat="48.60619" lon="1.73343">
        <ele>171</ele>
        <time>2020-01-26T11:37:46Z</time>
      </trkpt>
      <trkpt lat="48.60609" lon="1.73339">
        <ele>170</ele>
        <time>2020-01-26T11:37:53Z</time>
      </trkpt>
      <trkpt lat="48.60602" lon="1.73332">
        <ele>170</ele>
        <time>2020-01-26T11:38:08Z</time>
      </trkpt>
      <trkpt lat="48.60597" lon="1.73333">
        <ele>170</ele>
        <time>2020-01-26T11:38:20Z</time>
      </trkpt>
      <trkpt lat="48.60596" lon="1.73341">
        <ele>170</ele>
        <time>2020-01-26T11:38:24Z</time>
      </trkpt>
      <trkpt lat="48.60591" lon="1.73362">
        <ele>170</ele>
        <time>2020-01-26T11:38:36Z</time>
      </trkpt>
      <trkpt lat="48.6059" lon="1.73369">
        <ele>170</ele>
        <time>2020-01-26T11:38:40Z</time>
      </trkpt>
      <trkpt lat="48.60593" lon="1.73375">
        <ele>170</ele>
        <time>2020-01-26T11:38:44Z</time>
      </trkpt>
      <trkpt lat="48.60591" lon="1.73383">
        <ele>170</ele>
        <time>2020-01-26T11:38:48Z</time>
      </trkpt>
      <trkpt lat="48.60589" lon="1.7339">
        <ele>171</ele>
        <time>2020-01-26T11:38:52Z</time>
      </trkpt>
      <trkpt lat="48.60587" lon="1.73397">
        <ele>170</ele>
        <time>2020-01-26T11:38:57Z</time>
      </trkpt>
      <trkpt lat="48.60584" lon="1.73402">
        <ele>171</ele>
        <time>2020-01-26T11:39:01Z</time>
      </trkpt>
      <trkpt lat="48.60575" lon="1.73447">
        <ele>170</ele>
        <time>2020-01-26T11:39:27Z</time>
      </trkpt>
      <trkpt lat="48.60575" lon="1.73454">
        <ele>170</ele>
        <time>2020-01-26T11:39:31Z</time>
      </trkpt>
      <trkpt lat="48.60567" lon="1.73499">
        <ele>170</ele>
        <time>2020-01-26T11:39:59Z</time>
      </trkpt>
      <trkpt lat="48.60561" lon="1.73516">
        <ele>170</ele>
        <time>2020-01-26T11:40:16Z</time>
      </trkpt>
      <trkpt lat="48.60559" lon="1.73522">
        <ele>170</ele>
        <time>2020-01-26T11:40:28Z</time>
      </trkpt>
      <trkpt lat="48.60555" lon="1.73537">
        <ele>170</ele>
        <time>2020-01-26T11:40:41Z</time>
      </trkpt>
      <trkpt lat="48.60554" lon="1.73546">
        <ele>170</ele>
        <time>2020-01-26T11:40:49Z</time>
      </trkpt>
      <trkpt lat="48.60548" lon="1.73561">
        <ele>170</ele>
        <time>2020-01-26T11:41:01Z</time>
      </trkpt>
      <trkpt lat="48.60537" lon="1.73578">
        <ele>169</ele>
        <time>2020-01-26T11:41:14Z</time>
      </trkpt>
      <trkpt lat="48.60533" lon="1.73591">
        <ele>169</ele>
        <time>2020-01-26T11:41:22Z</time>
      </trkpt>
      <trkpt lat="48.60514" lon="1.73645">
        <ele>169</ele>
        <time>2020-01-26T11:41:55Z</time>
      </trkpt>
      <trkpt lat="48.60494" lon="1.7369">
        <ele>169</ele>
        <time>2020-01-26T11:42:28Z</time>
      </trkpt>
      <trkpt lat="48.60489" lon="1.73703">
        <ele>170</ele>
        <time>2020-01-26T11:42:36Z</time>
      </trkpt>
      <trkpt lat="48.60484" lon="1.73733">
        <ele>170</ele>
        <time>2020-01-26T11:42:51Z</time>
      </trkpt>
      <trkpt lat="48.60483" lon="1.73748">
        <ele>170</ele>
        <time>2020-01-26T11:42:59Z</time>
      </trkpt>
      <trkpt lat="48.60481" lon="1.73757">
        <ele>170</ele>
        <time>2020-01-26T11:43:06Z</time>
      </trkpt>
      <trkpt lat="48.60478" lon="1.73763">
        <ele>170</ele>
        <time>2020-01-26T11:43:11Z</time>
      </trkpt>
      <trkpt lat="48.60447" lon="1.73804">
        <ele>171</ele>
        <time>2020-01-26T11:43:44Z</time>
      </trkpt>
      <trkpt lat="48.60412" lon="1.73843">
        <ele>171</ele>
        <time>2020-01-26T11:44:17Z</time>
      </trkpt>
      <trkpt lat="48.60397" lon="1.73864">
        <ele>171</ele>
        <time>2020-01-26T11:44:33Z</time>
      </trkpt>
      <trkpt lat="48.60378" lon="1.73896">
        <ele>171</ele>
        <time>2020-01-26T11:44:54Z</time>
      </trkpt>
      <trkpt lat="48.60337" lon="1.73932">
        <ele>172</ele>
        <time>2020-01-26T11:45:30Z</time>
      </trkpt>
      <trkpt lat="48.6033" lon="1.7394">
        <ele>172</ele>
        <time>2020-01-26T11:45:37Z</time>
      </trkpt>
      <trkpt lat="48.60323" lon="1.73951">
        <ele>172</ele>
        <time>2020-01-26T11:45:46Z</time>
      </trkpt>
      <trkpt lat="48.60306" lon="1.73964">
        <ele>172</ele>
        <time>2020-01-26T11:45:59Z</time>
      </trkpt>
      <trkpt lat="48.60272" lon="1.73977">
        <ele>173</ele>
        <time>2020-01-26T11:46:33Z</time>
      </trkpt>
      <trkpt lat="48.60229" lon="1.74013">
        <ele>173</ele>
        <time>2020-01-26T11:47:10Z</time>
      </trkpt>
      <trkpt lat="48.60187" lon="1.74052">
        <ele>172</ele>
        <time>2020-01-26T11:47:44Z</time>
      </trkpt>
      <trkpt lat="48.60151" lon="1.74074">
        <ele>171</ele>
        <time>2020-01-26T11:48:18Z</time>
      </trkpt>
      <trkpt lat="48.60107" lon="1.74103">
        <ele>170</ele>
        <time>2020-01-26T11:48:56Z</time>
      </trkpt>
      <trkpt lat="48.60099" lon="1.74113">
        <ele>169</ele>
        <time>2020-01-26T11:49:03Z</time>
      </trkpt>
      <trkpt lat="48.60072" lon="1.74132">
        <ele>169</ele>
        <time>2020-01-26T11:49:23Z</time>
      </trkpt>
      <trkpt lat="48.60046" lon="1.74152">
        <ele>168</ele>
        <time>2020-01-26T11:49:46Z</time>
      </trkpt>
      <trkpt lat="48.60028" lon="1.7416">
        <ele>168</ele>
        <time>2020-01-26T11:50:02Z</time>
      </trkpt>
      <trkpt lat="48.59994" lon="1.74186">
        <ele>169</ele>
        <time>2020-01-26T11:50:33Z</time>
      </trkpt>
      <trkpt lat="48.59985" lon="1.74193">
        <ele>168</ele>
        <time>2020-01-26T11:50:41Z</time>
      </trkpt>
      <trkpt lat="48.59941" lon="1.74225">
        <ele>169</ele>
        <time>2020-01-26T11:51:18Z</time>
      </trkpt>
      <trkpt lat="48.59907" lon="1.74252">
        <ele>169</ele>
        <time>2020-01-26T11:51:51Z</time>
      </trkpt>
      <trkpt lat="48.59872" lon="1.74276">
        <ele>169</ele>
        <time>2020-01-26T11:52:23Z</time>
      </trkpt>
      <trkpt lat="48.59837" lon="1.74302">
        <ele>169</ele>
        <time>2020-01-26T11:52:53Z</time>
      </trkpt>
      <trkpt lat="48.59827" lon="1.74308">
        <ele>169</ele>
        <time>2020-01-26T11:53:00Z</time>
      </trkpt>
      <trkpt lat="48.5979" lon="1.74335">
        <ele>169</ele>
        <time>2020-01-26T11:53:34Z</time>
      </trkpt>
      <trkpt lat="48.59754" lon="1.7436">
        <ele>169</ele>
        <time>2020-01-26T11:54:06Z</time>
      </trkpt>
      <trkpt lat="48.59745" lon="1.74367">
        <ele>169</ele>
        <time>2020-01-26T11:54:13Z</time>
      </trkpt>
      <trkpt lat="48.59728" lon="1.74383">
        <ele>169</ele>
        <time>2020-01-26T11:54:25Z</time>
      </trkpt>
      <trkpt lat="48.59719" lon="1.74387">
        <ele>170</ele>
        <time>2020-01-26T11:54:32Z</time>
      </trkpt>
      <trkpt lat="48.59683" lon="1.74416">
        <ele>170</ele>
        <time>2020-01-26T11:55:04Z</time>
      </trkpt>
      <trkpt lat="48.59647" lon="1.74442">
        <ele>169</ele>
        <time>2020-01-26T11:55:34Z</time>
      </trkpt>
      <trkpt lat="48.59641" lon="1.74442">
        <ele>170</ele>
        <time>2020-01-26T11:55:40Z</time>
      </trkpt>
      <trkpt lat="48.59604" lon="1.74475">
        <ele>169</ele>
        <time>2020-01-26T11:56:12Z</time>
      </trkpt>
      <trkpt lat="48.59599" lon="1.74479">
        <ele>169</ele>
        <time>2020-01-26T11:56:16Z</time>
      </trkpt>
      <trkpt lat="48.59587" lon="1.74473">
        <ele>170</ele>
        <time>2020-01-26T11:56:57Z</time>
      </trkpt>
      <trkpt lat="48.59583" lon="1.74469">
        <ele>169</ele>
        <time>2020-01-26T11:57:03Z</time>
      </trkpt>
      <trkpt lat="48.5958" lon="1.74464">
        <ele>169</ele>
        <time>2020-01-26T11:57:06Z</time>
      </trkpt>
      <trkpt lat="48.59578" lon="1.74457">
        <ele>170</ele>
        <time>2020-01-26T11:57:10Z</time>
      </trkpt>
      <trkpt lat="48.5958" lon="1.74446">
        <ele>170</ele>
        <time>2020-01-26T11:57:17Z</time>
      </trkpt>
      <trkpt lat="48.59562" lon="1.74402">
        <ele>170</ele>
        <time>2020-01-26T11:57:48Z</time>
      </trkpt>
      <trkpt lat="48.59541" lon="1.74351">
        <ele>170</ele>
        <time>2020-01-26T11:58:20Z</time>
      </trkpt>
      <trkpt lat="48.59514" lon="1.743">
        <ele>169</ele>
        <time>2020-01-26T11:58:51Z</time>
      </trkpt>
      <trkpt lat="48.5951" lon="1.74294">
        <ele>169</ele>
        <time>2020-01-26T11:58:55Z</time>
      </trkpt>
      <trkpt lat="48.59488" lon="1.74264">
        <ele>170</ele>
        <time>2020-01-26T11:59:18Z</time>
      </trkpt>
      <trkpt lat="48.59466" lon="1.74218">
        <ele>170</ele>
        <time>2020-01-26T11:59:48Z</time>
      </trkpt>
      <trkpt lat="48.59464" lon="1.74211">
        <ele>170</ele>
        <time>2020-01-26T11:59:52Z</time>
      </trkpt>
      <trkpt lat="48.5946" lon="1.74197">
        <ele>170</ele>
        <time>2020-01-26T12:00:00Z</time>
      </trkpt>
      <trkpt lat="48.59459" lon="1.74189">
        <ele>170</ele>
        <time>2020-01-26T12:00:04Z</time>
      </trkpt>
      <trkpt lat="48.5945" lon="1.74153">
        <ele>170</ele>
        <time>2020-01-26T12:00:24Z</time>
      </trkpt>
      <trkpt lat="48.59446" lon="1.7413">
        <ele>170</ele>
        <time>2020-01-26T12:00:37Z</time>
      </trkpt>
      <trkpt lat="48.59432" lon="1.74073">
        <ele>171</ele>
        <time>2020-01-26T12:01:09Z</time>
      </trkpt>
      <trkpt lat="48.59431" lon="1.74065">
        <ele>171</ele>
        <time>2020-01-26T12:01:13Z</time>
      </trkpt>
      <trkpt lat="48.59429" lon="1.74057">
        <ele>171</ele>
        <time>2020-01-26T12:01:17Z</time>
      </trkpt>
      <trkpt lat="48.59419" lon="1.73997">
        <ele>171</ele>
        <time>2020-01-26T12:01:49Z</time>
      </trkpt>
      <trkpt lat="48.59408" lon="1.73936">
        <ele>171</ele>
        <time>2020-01-26T12:02:21Z</time>
      </trkpt>
      <trkpt lat="48.594" lon="1.73892">
        <ele>171</ele>
        <time>2020-01-26T12:02:46Z</time>
      </trkpt>
      <trkpt lat="48.59393" lon="1.73872">
        <ele>172</ele>
        <time>2020-01-26T12:02:57Z</time>
      </trkpt>
      <trkpt lat="48.59388" lon="1.7387">
        <ele>172</ele>
        <time>2020-01-26T12:03:01Z</time>
      </trkpt>
      <trkpt lat="48.59383" lon="1.73873">
        <ele>171</ele>
        <time>2020-01-26T12:03:06Z</time>
      </trkpt>
      <trkpt lat="48.59378" lon="1.73878">
        <ele>171</ele>
        <time>2020-01-26T12:03:10Z</time>
      </trkpt>
      <trkpt lat="48.59364" lon="1.73889">
        <ele>171</ele>
        <time>2020-01-26T12:03:22Z</time>
      </trkpt>
      <trkpt lat="48.59346" lon="1.73901">
        <ele>170</ele>
        <time>2020-01-26T12:03:38Z</time>
      </trkpt>
      <trkpt lat="48.59336" lon="1.73902">
        <ele>170</ele>
        <time>2020-01-26T12:03:46Z</time>
      </trkpt>
      <trkpt lat="48.59327" lon="1.73897">
        <ele>170</ele>
        <time>2020-01-26T12:03:54Z</time>
      </trkpt>
      <trkpt lat="48.59323" lon="1.73891">
        <ele>170</ele>
        <time>2020-01-26T12:03:58Z</time>
      </trkpt>
      <trkpt lat="48.59304" lon="1.73846">
        <ele>170</ele>
        <time>2020-01-26T12:04:30Z</time>
      </trkpt>
      <trkpt lat="48.59301" lon="1.7384">
        <ele>170</ele>
        <time>2020-01-26T12:04:34Z</time>
      </trkpt>
      <trkpt lat="48.59299" lon="1.73833">
        <ele>170</ele>
        <time>2020-01-26T12:04:38Z</time>
      </trkpt>
      <trkpt lat="48.59278" lon="1.73791">
        <ele>170</ele>
        <time>2020-01-26T12:05:08Z</time>
      </trkpt>
      <trkpt lat="48.59257" lon="1.73748">
        <ele>170</ele>
        <time>2020-01-26T12:05:39Z</time>
      </trkpt>
      <trkpt lat="48.59235" lon="1.73707">
        <ele>170</ele>
        <time>2020-01-26T12:06:09Z</time>
      </trkpt>
      <trkpt lat="48.5923" lon="1.73705">
        <ele>170</ele>
        <time>2020-01-26T12:06:17Z</time>
      </trkpt>
      <trkpt lat="48.59214" lon="1.73733">
        <ele>169</ele>
        <time>2020-01-26T12:06:37Z</time>
      </trkpt>
      <trkpt lat="48.59195" lon="1.73764">
        <ele>168</ele>
        <time>2020-01-26T12:07:02Z</time>
      </trkpt>
      <trkpt lat="48.59169" lon="1.7381">
        <ele>168</ele>
        <time>2020-01-26T12:07:36Z</time>
      </trkpt>
      <trkpt lat="48.59138" lon="1.73866">
        <ele>167</ele>
        <time>2020-01-26T12:08:12Z</time>
      </trkpt>
      <trkpt lat="48.59114" lon="1.73912">
        <ele>167</ele>
        <time>2020-01-26T12:08:41Z</time>
      </trkpt>
      <trkpt lat="48.59105" lon="1.73918">
        <ele>167</ele>
        <time>2020-01-26T12:08:49Z</time>
      </trkpt>
      <trkpt lat="48.59103" lon="1.73933">
        <ele>167</ele>
        <time>2020-01-26T12:08:56Z</time>
      </trkpt>
      <trkpt lat="48.59086" lon="1.73969">
        <ele>166</ele>
        <time>2020-01-26T12:09:15Z</time>
      </trkpt>
      <trkpt lat="48.59068" lon="1.74002">
        <ele>166</ele>
        <time>2020-01-26T12:09:36Z</time>
      </trkpt>
      <trkpt lat="48.59064" lon="1.74014">
        <ele>166</ele>
        <time>2020-01-26T12:09:44Z</time>
      </trkpt>
      <trkpt lat="48.59053" lon="1.74039">
        <ele>165</ele>
        <time>2020-01-26T12:10:00Z</time>
      </trkpt>
      <trkpt lat="48.59041" lon="1.74068">
        <ele>166</ele>
        <time>2020-01-26T12:10:19Z</time>
      </trkpt>
      <trkpt lat="48.59025" lon="1.74105">
        <ele>165</ele>
        <time>2020-01-26T12:10:40Z</time>
      </trkpt>
      <trkpt lat="48.59023" lon="1.74117">
        <ele>165</ele>
        <time>2020-01-26T12:10:48Z</time>
      </trkpt>
      <trkpt lat="48.59" lon="1.74171">
        <ele>165</ele>
        <time>2020-01-26T12:11:21Z</time>
      </trkpt>
      <trkpt lat="48.58996" lon="1.74177">
        <ele>165</ele>
        <time>2020-01-26T12:11:25Z</time>
      </trkpt>
      <trkpt lat="48.58994" lon="1.74183">
        <ele>165</ele>
        <time>2020-01-26T12:11:28Z</time>
      </trkpt>
      <trkpt lat="48.58976" lon="1.74221">
        <ele>164</ele>
        <time>2020-01-26T12:11:51Z</time>
      </trkpt>
      <trkpt lat="48.58975" lon="1.74229">
        <ele>164</ele>
        <time>2020-01-26T12:11:56Z</time>
      </trkpt>
      <trkpt lat="48.58941" lon="1.74278">
        <ele>164</ele>
        <time>2020-01-26T12:12:33Z</time>
      </trkpt>
      <trkpt lat="48.58917" lon="1.74304">
        <ele>164</ele>
        <time>2020-01-26T12:12:53Z</time>
      </trkpt>
      <trkpt lat="48.58904" lon="1.74324">
        <ele>164</ele>
        <time>2020-01-26T12:13:07Z</time>
      </trkpt>
      <trkpt lat="48.58896" lon="1.74332">
        <ele>165</ele>
        <time>2020-01-26T12:13:16Z</time>
      </trkpt>
      <trkpt lat="48.58874" lon="1.74364">
        <ele>165</ele>
        <time>2020-01-26T12:13:37Z</time>
      </trkpt>
      <trkpt lat="48.58859" lon="1.74383">
        <ele>165</ele>
        <time>2020-01-26T12:13:49Z</time>
      </trkpt>
      <trkpt lat="48.5885" lon="1.74382">
        <ele>165</ele>
        <time>2020-01-26T12:13:56Z</time>
      </trkpt>
      <trkpt lat="48.58839" lon="1.74359">
        <ele>165</ele>
        <time>2020-01-26T12:14:08Z</time>
      </trkpt>
      <trkpt lat="48.58831" lon="1.74348">
        <ele>164</ele>
        <time>2020-01-26T12:14:16Z</time>
      </trkpt>
      <trkpt lat="48.58802" lon="1.74292">
        <ele>162</ele>
        <time>2020-01-26T12:14:50Z</time>
      </trkpt>
      <trkpt lat="48.58775" lon="1.74231">
        <ele>157</ele>
        <time>2020-01-26T12:15:25Z</time>
      </trkpt>
      <trkpt lat="48.58769" lon="1.74219">
        <ele>157</ele>
        <time>2020-01-26T12:15:31Z</time>
      </trkpt>
      <trkpt lat="48.58746" lon="1.74192">
        <ele>155</ele>
        <time>2020-01-26T12:15:54Z</time>
      </trkpt>
      <trkpt lat="48.58699" lon="1.74165">
        <ele>151</ele>
        <time>2020-01-26T12:16:30Z</time>
      </trkpt>
      <trkpt lat="48.58683" lon="1.74155">
        <ele>149</ele>
        <time>2020-01-26T12:16:44Z</time>
      </trkpt>
      <trkpt lat="48.58674" lon="1.74145">
        <ele>148</ele>
        <time>2020-01-26T12:16:51Z</time>
      </trkpt>
      <trkpt lat="48.58647" lon="1.74133">
        <ele>146</ele>
        <time>2020-01-26T12:17:12Z</time>
      </trkpt>
      <trkpt lat="48.58637" lon="1.74133">
        <ele>146</ele>
        <time>2020-01-26T12:17:18Z</time>
      </trkpt>
      <trkpt lat="48.5862" lon="1.74122">
        <ele>144</ele>
        <time>2020-01-26T12:17:30Z</time>
      </trkpt>
      <trkpt lat="48.5861" lon="1.74119">
        <ele>143</ele>
        <time>2020-01-26T12:17:37Z</time>
      </trkpt>
      <trkpt lat="48.58566" lon="1.74089">
        <ele>139</ele>
        <time>2020-01-26T12:18:12Z</time>
      </trkpt>
      <trkpt lat="48.58556" lon="1.74086">
        <ele>139</ele>
        <time>2020-01-26T12:18:22Z</time>
      </trkpt>
      <trkpt lat="48.58546" lon="1.74088">
        <ele>139</ele>
        <time>2020-01-26T12:18:30Z</time>
      </trkpt>
      <trkpt lat="48.58538" lon="1.74094">
        <ele>139</ele>
        <time>2020-01-26T12:18:39Z</time>
      </trkpt>
      <trkpt lat="48.58527" lon="1.74096">
        <ele>140</ele>
        <time>2020-01-26T12:18:51Z</time>
      </trkpt>
      <trkpt lat="48.58527" lon="1.74107">
        <ele>140</ele>
        <time>2020-01-26T12:19:35Z</time>
      </trkpt>
      <trkpt lat="48.58515" lon="1.74111">
        <ele>141</ele>
        <time>2020-01-26T12:23:06Z</time>
      </trkpt>
      <trkpt lat="48.58482" lon="1.74124">
        <ele>143</ele>
        <time>2020-01-26T12:23:40Z</time>
      </trkpt>
      <trkpt lat="48.58473" lon="1.74124">
        <ele>144</ele>
        <time>2020-01-26T12:23:49Z</time>
      </trkpt>
      <trkpt lat="48.58466" lon="1.74134">
        <ele>144</ele>
        <time>2020-01-26T12:23:57Z</time>
      </trkpt>
      <trkpt lat="48.58462" lon="1.7415">
        <ele>144</ele>
        <time>2020-01-26T12:24:15Z</time>
      </trkpt>
      <trkpt lat="48.58456" lon="1.74177">
        <ele>145</ele>
        <time>2020-01-26T12:24:30Z</time>
      </trkpt>
      <trkpt lat="48.58456" lon="1.74192">
        <ele>145</ele>
        <time>2020-01-26T12:24:37Z</time>
      </trkpt>
      <trkpt lat="48.58458" lon="1.74207">
        <ele>146</ele>
        <time>2020-01-26T12:24:45Z</time>
      </trkpt>
      <trkpt lat="48.58464" lon="1.74235">
        <ele>146</ele>
        <time>2020-01-26T12:24:59Z</time>
      </trkpt>
      <trkpt lat="48.58468" lon="1.74264">
        <ele>147</ele>
        <time>2020-01-26T12:25:15Z</time>
      </trkpt>
      <trkpt lat="48.58474" lon="1.74279">
        <ele>148</ele>
        <time>2020-01-26T12:25:25Z</time>
      </trkpt>
      <trkpt lat="48.58475" lon="1.74349">
        <ele>150</ele>
        <time>2020-01-26T12:26:01Z</time>
      </trkpt>
      <trkpt lat="48.58469" lon="1.74421">
        <ele>153</ele>
        <time>2020-01-26T12:26:37Z</time>
      </trkpt>
      <trkpt lat="48.58468" lon="1.74449">
        <ele>154</ele>
        <time>2020-01-26T12:26:53Z</time>
      </trkpt>
      <trkpt lat="48.58456" lon="1.74505">
        <ele>156</ele>
        <time>2020-01-26T12:27:22Z</time>
      </trkpt>
      <trkpt lat="48.58454" lon="1.74576">
        <ele>158</ele>
        <time>2020-01-26T12:27:57Z</time>
      </trkpt>
      <trkpt lat="48.58449" lon="1.74623">
        <ele>160</ele>
        <time>2020-01-26T12:28:21Z</time>
      </trkpt>
      <trkpt lat="48.58444" lon="1.74628">
        <ele>160</ele>
        <time>2020-01-26T12:28:24Z</time>
      </trkpt>
      <trkpt lat="48.58446" lon="1.74652">
        <ele>160</ele>
        <time>2020-01-26T12:28:37Z</time>
      </trkpt>
      <trkpt lat="48.58445" lon="1.7466">
        <ele>160</ele>
        <time>2020-01-26T12:28:41Z</time>
      </trkpt>
      <trkpt lat="48.58447" lon="1.74667">
        <ele>160</ele>
        <time>2020-01-26T12:28:45Z</time>
      </trkpt>
      <trkpt lat="48.58448" lon="1.74708">
        <ele>161</ele>
        <time>2020-01-26T12:29:08Z</time>
      </trkpt>
      <trkpt lat="48.58448" lon="1.74716">
        <ele>160</ele>
        <time>2020-01-26T12:29:12Z</time>
      </trkpt>
      <trkpt lat="48.58447" lon="1.74723">
        <ele>160</ele>
        <time>2020-01-26T12:29:16Z</time>
      </trkpt>
      <trkpt lat="48.58448" lon="1.74732">
        <ele>160</ele>
        <time>2020-01-26T12:29:20Z</time>
      </trkpt>
      <trkpt lat="48.58448" lon="1.74739">
        <ele>160</ele>
        <time>2020-01-26T12:29:24Z</time>
      </trkpt>
      <trkpt lat="48.58447" lon="1.74752">
        <ele>160</ele>
        <time>2020-01-26T12:29:30Z</time>
      </trkpt>
      <trkpt lat="48.58447" lon="1.74759">
        <ele>160</ele>
        <time>2020-01-26T12:29:34Z</time>
      </trkpt>
      <trkpt lat="48.58445" lon="1.74766">
        <ele>160</ele>
        <time>2020-01-26T12:29:38Z</time>
      </trkpt>
      <trkpt lat="48.58444" lon="1.74781">
        <ele>160</ele>
        <time>2020-01-26T12:29:46Z</time>
      </trkpt>
      <trkpt lat="48.58444" lon="1.74797">
        <ele>159</ele>
        <time>2020-01-26T12:29:53Z</time>
      </trkpt>
      <trkpt lat="48.58443" lon="1.74837">
        <ele>158</ele>
        <time>2020-01-26T12:30:13Z</time>
      </trkpt>
      <trkpt lat="48.5844" lon="1.74851">
        <ele>158</ele>
        <time>2020-01-26T12:30:19Z</time>
      </trkpt>
      <trkpt lat="48.5844" lon="1.74859">
        <ele>157</ele>
        <time>2020-01-26T12:30:23Z</time>
      </trkpt>
      <trkpt lat="48.58441" lon="1.74875">
        <ele>157</ele>
        <time>2020-01-26T12:30:31Z</time>
      </trkpt>
      <trkpt lat="48.58439" lon="1.74883">
        <ele>158</ele>
        <time>2020-01-26T12:30:35Z</time>
      </trkpt>
      <trkpt lat="48.58441" lon="1.74909">
        <ele>157</ele>
        <time>2020-01-26T12:30:50Z</time>
      </trkpt>
      <trkpt lat="48.58439" lon="1.74916">
        <ele>156</ele>
        <time>2020-01-26T12:30:53Z</time>
      </trkpt>
      <trkpt lat="48.58439" lon="1.74925">
        <ele>156</ele>
        <time>2020-01-26T12:30:56Z</time>
      </trkpt>
      <trkpt lat="48.58439" lon="1.74933">
        <ele>156</ele>
        <time>2020-01-26T12:30:59Z</time>
      </trkpt>
      <trkpt lat="48.58436" lon="1.74957">
        <ele>156</ele>
        <time>2020-01-26T12:31:08Z</time>
      </trkpt>
      <trkpt lat="48.58437" lon="1.74964">
        <ele>156</ele>
        <time>2020-01-26T12:31:11Z</time>
      </trkpt>
      <trkpt lat="48.58436" lon="1.74971">
        <ele>155</ele>
        <time>2020-01-26T12:31:16Z</time>
      </trkpt>
      <trkpt lat="48.58437" lon="1.74979">
        <ele>155</ele>
        <time>2020-01-26T12:31:20Z</time>
      </trkpt>
      <trkpt lat="48.58441" lon="1.74985">
        <ele>155</ele>
        <time>2020-01-26T12:31:25Z</time>
      </trkpt>
      <trkpt lat="48.58437" lon="1.75008">
        <ele>154</ele>
        <time>2020-01-26T12:31:35Z</time>
      </trkpt>
      <trkpt lat="48.58433" lon="1.75023">
        <ele>154</ele>
        <time>2020-01-26T12:31:43Z</time>
      </trkpt>
      <trkpt lat="48.58432" lon="1.75031">
        <ele>154</ele>
        <time>2020-01-26T12:31:46Z</time>
      </trkpt>
      <trkpt lat="48.58432" lon="1.75038">
        <ele>154</ele>
        <time>2020-01-26T12:31:49Z</time>
      </trkpt>
      <trkpt lat="48.58428" lon="1.75071">
        <ele>153</ele>
        <time>2020-01-26T12:32:02Z</time>
      </trkpt>
      <trkpt lat="48.58424" lon="1.75115">
        <ele>152</ele>
        <time>2020-01-26T12:32:25Z</time>
      </trkpt>
      <trkpt lat="48.58423" lon="1.75144">
        <ele>151</ele>
        <time>2020-01-26T12:32:41Z</time>
      </trkpt>
      <trkpt lat="48.58413" lon="1.7517">
        <ele>150</ele>
        <time>2020-01-26T12:32:56Z</time>
      </trkpt>
      <trkpt lat="48.5841" lon="1.75183">
        <ele>150</ele>
        <time>2020-01-26T12:33:03Z</time>
      </trkpt>
      <trkpt lat="48.58405" lon="1.75195">
        <ele>149</ele>
        <time>2020-01-26T12:33:10Z</time>
      </trkpt>
      <trkpt lat="48.58407" lon="1.75224">
        <ele>148</ele>
        <time>2020-01-26T12:33:26Z</time>
      </trkpt>
      <trkpt lat="48.58392" lon="1.75295">
        <ele>146</ele>
        <time>2020-01-26T12:33:58Z</time>
      </trkpt>
      <trkpt lat="48.5839" lon="1.7531">
        <ele>146</ele>
        <time>2020-01-26T12:34:05Z</time>
      </trkpt>
      <trkpt lat="48.58372" lon="1.75345">
        <ele>146</ele>
        <time>2020-01-26T12:34:26Z</time>
      </trkpt>
      <trkpt lat="48.58369" lon="1.75359">
        <ele>146</ele>
        <time>2020-01-26T12:34:34Z</time>
      </trkpt>
      <trkpt lat="48.58347" lon="1.75408">
        <ele>145</ele>
        <time>2020-01-26T12:35:02Z</time>
      </trkpt>
      <trkpt lat="48.58344" lon="1.75424">
        <ele>145</ele>
        <time>2020-01-26T12:35:10Z</time>
      </trkpt>
      <trkpt lat="48.58339" lon="1.75435">
        <ele>145</ele>
        <time>2020-01-26T12:35:17Z</time>
      </trkpt>
      <trkpt lat="48.58334" lon="1.75478">
        <ele>146</ele>
        <time>2020-01-26T12:35:39Z</time>
      </trkpt>
      <trkpt lat="48.58325" lon="1.75516">
        <ele>147</ele>
        <time>2020-01-26T12:36:00Z</time>
      </trkpt>
      <trkpt lat="48.58319" lon="1.75575">
        <ele>148</ele>
        <time>2020-01-26T12:36:30Z</time>
      </trkpt>
      <trkpt lat="48.58317" lon="1.75584">
        <ele>149</ele>
        <time>2020-01-26T12:36:36Z</time>
      </trkpt>
      <trkpt lat="48.58317" lon="1.75592">
        <ele>149</ele>
        <time>2020-01-26T12:36:41Z</time>
      </trkpt>
      <trkpt lat="48.58315" lon="1.75599">
        <ele>149</ele>
        <time>2020-01-26T12:36:46Z</time>
      </trkpt>
      <trkpt lat="48.5831" lon="1.75603">
        <ele>150</ele>
        <time>2020-01-26T12:37:43Z</time>
      </trkpt>
      <trkpt lat="48.58307" lon="1.7561">
        <ele>150</ele>
        <time>2020-01-26T12:37:47Z</time>
      </trkpt>
      <trkpt lat="48.58306" lon="1.75617">
        <ele>150</ele>
        <time>2020-01-26T12:37:52Z</time>
      </trkpt>
      <trkpt lat="48.58306" lon="1.75625">
        <ele>150</ele>
        <time>2020-01-26T12:37:56Z</time>
      </trkpt>
      <trkpt lat="48.58297" lon="1.75686">
        <ele>147</ele>
        <time>2020-01-26T12:38:27Z</time>
      </trkpt>
      <trkpt lat="48.58294" lon="1.757">
        <ele>146</ele>
        <time>2020-01-26T12:38:35Z</time>
      </trkpt>
      <trkpt lat="48.58268" lon="1.75749">
        <ele>144</ele>
        <time>2020-01-26T12:39:08Z</time>
      </trkpt>
      <trkpt lat="48.58265" lon="1.75755">
        <ele>144</ele>
        <time>2020-01-26T12:39:12Z</time>
      </trkpt>
      <trkpt lat="48.58259" lon="1.75769">
        <ele>143</ele>
        <time>2020-01-26T12:39:21Z</time>
      </trkpt>
      <trkpt lat="48.58226" lon="1.75814">
        <ele>143</ele>
        <time>2020-01-26T12:39:55Z</time>
      </trkpt>
      <trkpt lat="48.58206" lon="1.75845">
        <ele>143</ele>
        <time>2020-01-26T12:40:19Z</time>
      </trkpt>
      <trkpt lat="48.58201" lon="1.7586">
        <ele>142</ele>
        <time>2020-01-26T12:40:29Z</time>
      </trkpt>
      <trkpt lat="48.58194" lon="1.75893">
        <ele>143</ele>
        <time>2020-01-26T12:40:48Z</time>
      </trkpt>
      <trkpt lat="48.58187" lon="1.75906">
        <ele>143</ele>
        <time>2020-01-26T12:40:56Z</time>
      </trkpt>
      <trkpt lat="48.58183" lon="1.75911">
        <ele>143</ele>
        <time>2020-01-26T12:41:01Z</time>
      </trkpt>
      <trkpt lat="48.58165" lon="1.75953">
        <ele>143</ele>
        <time>2020-01-26T12:41:23Z</time>
      </trkpt>
      <trkpt lat="48.58163" lon="1.7596">
        <ele>143</ele>
        <time>2020-01-26T12:41:27Z</time>
      </trkpt>
      <trkpt lat="48.5816" lon="1.75966">
        <ele>144</ele>
        <time>2020-01-26T12:41:31Z</time>
      </trkpt>
      <trkpt lat="48.58158" lon="1.75973">
        <ele>144</ele>
        <time>2020-01-26T12:41:36Z</time>
      </trkpt>
      <trkpt lat="48.58157" lon="1.75998">
        <ele>144</ele>
        <time>2020-01-26T12:42:16Z</time>
      </trkpt>
      <trkpt lat="48.58154" lon="1.76011">
        <ele>144</ele>
        <time>2020-01-26T12:42:22Z</time>
      </trkpt>
      <trkpt lat="48.58163" lon="1.76068">
        <ele>145</ele>
        <time>2020-01-26T12:42:47Z</time>
      </trkpt>
      <trkpt lat="48.58167" lon="1.76082">
        <ele>146</ele>
        <time>2020-01-26T12:42:55Z</time>
      </trkpt>
      <trkpt lat="48.58175" lon="1.76124">
        <ele>147</ele>
        <time>2020-01-26T12:43:17Z</time>
      </trkpt>
      <trkpt lat="48.58181" lon="1.76136">
        <ele>148</ele>
        <time>2020-01-26T12:43:25Z</time>
      </trkpt>
      <trkpt lat="48.582" lon="1.76127">
        <ele>146</ele>
        <time>2020-01-26T12:43:40Z</time>
      </trkpt>
      <trkpt lat="48.58213" lon="1.76118">
        <ele>145</ele>
        <time>2020-01-26T12:43:52Z</time>
      </trkpt>
      <trkpt lat="48.58216" lon="1.76113">
        <ele>145</ele>
        <time>2020-01-26T12:43:57Z</time>
      </trkpt>
      <trkpt lat="48.5822" lon="1.76108">
        <ele>146</ele>
        <time>2020-01-26T12:44:15Z</time>
      </trkpt>
      <trkpt lat="48.5823" lon="1.76106">
        <ele>145</ele>
        <time>2020-01-26T12:44:25Z</time>
      </trkpt>
      <trkpt lat="48.58234" lon="1.76101">
        <ele>145</ele>
        <time>2020-01-26T12:44:33Z</time>
      </trkpt>
      <trkpt lat="48.58241" lon="1.76103">
        <ele>144</ele>
        <time>2020-01-26T12:44:51Z</time>
      </trkpt>
      <trkpt lat="48.58251" lon="1.76099">
        <ele>144</ele>
        <time>2020-01-26T12:44:59Z</time>
      </trkpt>
      <trkpt lat="48.5827" lon="1.76089">
        <ele>144</ele>
        <time>2020-01-26T12:45:14Z</time>
      </trkpt>
      <trkpt lat="48.58274" lon="1.76085">
        <ele>144</ele>
        <time>2020-01-26T12:45:18Z</time>
      </trkpt>
      <trkpt lat="48.58284" lon="1.76079">
        <ele>144</ele>
        <time>2020-01-26T12:45:26Z</time>
      </trkpt>
      <trkpt lat="48.58288" lon="1.76074">
        <ele>144</ele>
        <time>2020-01-26T12:45:30Z</time>
      </trkpt>
      <trkpt lat="48.5829" lon="1.76068">
        <ele>144</ele>
        <time>2020-01-26T12:45:34Z</time>
      </trkpt>
      <trkpt lat="48.58293" lon="1.76053">
        <ele>145</ele>
        <time>2020-01-26T12:45:41Z</time>
      </trkpt>
      <trkpt lat="48.58298" lon="1.76047">
        <ele>145</ele>
        <time>2020-01-26T12:45:45Z</time>
      </trkpt>
      <trkpt lat="48.58298" lon="1.7604">
        <ele>146</ele>
        <time>2020-01-26T12:45:49Z</time>
      </trkpt>
      <trkpt lat="48.58302" lon="1.76003">
        <ele>149</ele>
        <time>2020-01-26T12:46:10Z</time>
      </trkpt>
      <trkpt lat="48.58305" lon="1.75995">
        <ele>150</ele>
        <time>2020-01-26T12:46:15Z</time>
      </trkpt>
      <trkpt lat="48.58316" lon="1.75981">
        <ele>152</ele>
        <time>2020-01-26T12:46:29Z</time>
      </trkpt>
      <trkpt lat="48.58325" lon="1.75977">
        <ele>153</ele>
        <time>2020-01-26T12:46:38Z</time>
      </trkpt>
      <trkpt lat="48.5834" lon="1.75973">
        <ele>155</ele>
        <time>2020-01-26T12:46:52Z</time>
      </trkpt>
      <trkpt lat="48.58347" lon="1.75975">
        <ele>156</ele>
        <time>2020-01-26T12:47:00Z</time>
      </trkpt>
      <trkpt lat="48.58369" lon="1.75978">
        <ele>158</ele>
        <time>2020-01-26T12:47:18Z</time>
      </trkpt>
      <trkpt lat="48.58386" lon="1.75986">
        <ele>161</ele>
        <time>2020-01-26T12:47:35Z</time>
      </trkpt>
      <trkpt lat="48.58426" lon="1.75996">
        <ele>163</ele>
        <time>2020-01-26T12:48:07Z</time>
      </trkpt>
      <trkpt lat="48.58444" lon="1.76001">
        <ele>163</ele>
        <time>2020-01-26T12:48:24Z</time>
      </trkpt>
      <trkpt lat="48.58453" lon="1.75999">
        <ele>163</ele>
        <time>2020-01-26T12:48:31Z</time>
      </trkpt>
      <trkpt lat="48.58472" lon="1.76004">
        <ele>164</ele>
        <time>2020-01-26T12:48:45Z</time>
      </trkpt>
      <trkpt lat="48.58484" lon="1.76001">
        <ele>164</ele>
        <time>2020-01-26T12:48:57Z</time>
      </trkpt>
      <trkpt lat="48.58504" lon="1.76007">
        <ele>165</ele>
        <time>2020-01-26T12:49:12Z</time>
      </trkpt>
      <trkpt lat="48.58523" lon="1.76016">
        <ele>165</ele>
        <time>2020-01-26T12:49:27Z</time>
      </trkpt>
      <trkpt lat="48.58564" lon="1.76028">
        <ele>166</ele>
        <time>2020-01-26T12:50:03Z</time>
      </trkpt>
      <trkpt lat="48.5861" lon="1.76052">
        <ele>166</ele>
        <time>2020-01-26T12:50:38Z</time>
      </trkpt>
      <trkpt lat="48.5862" lon="1.76052">
        <ele>166</ele>
        <time>2020-01-26T12:50:46Z</time>
      </trkpt>
      <trkpt lat="48.58656" lon="1.7607">
        <ele>166</ele>
        <time>2020-01-26T12:51:16Z</time>
      </trkpt>
      <trkpt lat="48.58693" lon="1.76088">
        <ele>165</ele>
        <time>2020-01-26T12:51:47Z</time>
      </trkpt>
      <trkpt lat="48.58733" lon="1.76103">
        <ele>165</ele>
        <time>2020-01-26T12:52:19Z</time>
      </trkpt>
      <trkpt lat="48.58752" lon="1.7611">
        <ele>165</ele>
        <time>2020-01-26T12:52:33Z</time>
      </trkpt>
      <trkpt lat="48.5876" lon="1.76103">
        <ele>165</ele>
        <time>2020-01-26T12:52:40Z</time>
      </trkpt>
      <trkpt lat="48.58769" lon="1.76105">
        <ele>165</ele>
        <time>2020-01-26T12:52:48Z</time>
      </trkpt>
      <trkpt lat="48.58816" lon="1.76122">
        <ele>165</ele>
        <time>2020-01-26T12:53:21Z</time>
      </trkpt>
      <trkpt lat="48.58851" lon="1.7613">
        <ele>165</ele>
        <time>2020-01-26T12:53:50Z</time>
      </trkpt>
      <trkpt lat="48.58891" lon="1.76151">
        <ele>166</ele>
        <time>2020-01-26T12:54:24Z</time>
      </trkpt>
      <trkpt lat="48.589" lon="1.76155">
        <ele>165</ele>
        <time>2020-01-26T12:54:40Z</time>
      </trkpt>
      <trkpt lat="48.58929" lon="1.76165">
        <ele>165</ele>
        <time>2020-01-26T12:55:11Z</time>
      </trkpt>
      <trkpt lat="48.58934" lon="1.76172">
        <ele>166</ele>
        <time>2020-01-26T12:56:11Z</time>
      </trkpt>
      <trkpt lat="48.58939" lon="1.76172">
        <ele>166</ele>
        <time>2020-01-26T12:56:19Z</time>
      </trkpt>
      <trkpt lat="48.58943" lon="1.76175">
        <ele>166</ele>
        <time>2020-01-26T12:57:13Z</time>
      </trkpt>
      <trkpt lat="48.58949" lon="1.76178">
        <ele>166</ele>
        <time>2020-01-26T12:57:25Z</time>
      </trkpt>
      <trkpt lat="48.58982" lon="1.76189">
        <ele>165</ele>
        <time>2020-01-26T12:57:56Z</time>
      </trkpt>
      <trkpt lat="48.58992" lon="1.76194">
        <ele>165</ele>
        <time>2020-01-26T12:58:05Z</time>
      </trkpt>
      <trkpt lat="48.59026" lon="1.76205">
        <ele>165</ele>
        <time>2020-01-26T12:58:34Z</time>
      </trkpt>
      <trkpt lat="48.59032" lon="1.7621">
        <ele>164</ele>
        <time>2020-01-26T12:58:43Z</time>
      </trkpt>
      <trkpt lat="48.59039" lon="1.76209">
        <ele>164</ele>
        <time>2020-01-26T12:58:55Z</time>
      </trkpt>
      <trkpt lat="48.59041" lon="1.76217">
        <ele>164</ele>
        <time>2020-01-26T12:59:01Z</time>
      </trkpt>
      <trkpt lat="48.59041" lon="1.76224">
        <ele>164</ele>
        <time>2020-01-26T12:59:05Z</time>
      </trkpt>
      <trkpt lat="48.5904" lon="1.76232">
        <ele>164</ele>
        <time>2020-01-26T12:59:10Z</time>
      </trkpt>
      <trkpt lat="48.59039" lon="1.7624">
        <ele>164</ele>
        <time>2020-01-26T12:59:15Z</time>
      </trkpt>
      <trkpt lat="48.59039" lon="1.76256">
        <ele>164</ele>
        <time>2020-01-26T12:59:25Z</time>
      </trkpt>
      <trkpt lat="48.59036" lon="1.76272">
        <ele>165</ele>
        <time>2020-01-26T12:59:34Z</time>
      </trkpt>
      <trkpt lat="48.59033" lon="1.76278">
        <ele>164</ele>
        <time>2020-01-26T12:59:38Z</time>
      </trkpt>
      <trkpt lat="48.59029" lon="1.763">
        <ele>164</ele>
        <time>2020-01-26T12:59:51Z</time>
      </trkpt>
      <trkpt lat="48.59021" lon="1.76329">
        <ele>164</ele>
        <time>2020-01-26T13:00:10Z</time>
      </trkpt>
      <trkpt lat="48.59019" lon="1.76338">
        <ele>164</ele>
        <time>2020-01-26T13:00:30Z</time>
      </trkpt>
      <trkpt lat="48.59017" lon="1.76345">
        <ele>164</ele>
        <time>2020-01-26T13:00:42Z</time>
      </trkpt>
      <trkpt lat="48.59022" lon="1.76348">
        <ele>164</ele>
        <time>2020-01-26T13:00:54Z</time>
      </trkpt>
      <trkpt lat="48.5903" lon="1.76353">
        <ele>165</ele>
        <time>2020-01-26T13:01:06Z</time>
      </trkpt>
      <trkpt lat="48.59033" lon="1.76359">
        <ele>165</ele>
        <time>2020-01-26T13:01:12Z</time>
      </trkpt>
      <trkpt lat="48.59042" lon="1.76369">
        <ele>166</ele>
        <time>2020-01-26T13:01:38Z</time>
      </trkpt>
      <trkpt lat="48.59041" lon="1.76366">
        <ele>165</ele>
        <time>2020-01-26T13:03:40Z</time>
      </trkpt>
      <trkpt lat="48.59048" lon="1.76356">
        <ele>165</ele>
        <time>2020-01-26T13:04:22Z</time>
      </trkpt>
      <trkpt lat="48.59051" lon="1.76352">
        <ele>164</ele>
        <time>2020-01-26T13:04:58Z</time>
      </trkpt>
      <trkpt lat="48.59049" lon="1.76354">
        <ele>155</ele>
        <time>2020-01-26T13:49:40Z</time>
      </trkpt>
      <trkpt lat="48.59049" lon="1.76354">
        <ele>155</ele>
        <time>2020-01-26T13:49:40Z</time>
      </trkpt>
      <trkpt lat="48.59043" lon="1.76355">
        <ele>154</ele>
        <time>2020-01-26T13:56:29Z</time>
      </trkpt>
      <trkpt lat="48.59037" lon="1.76356">
        <ele>154</ele>
        <time>2020-01-26T13:56:59Z</time>
      </trkpt>
      <trkpt lat="48.59023" lon="1.76361">
        <ele>153</ele>
        <time>2020-01-26T13:57:23Z</time>
      </trkpt>
      <trkpt lat="48.59017" lon="1.76359">
        <ele>152</ele>
        <time>2020-01-26T13:57:41Z</time>
      </trkpt>
      <trkpt lat="48.59014" lon="1.76365">
        <ele>152</ele>
        <time>2020-01-26T13:58:53Z</time>
      </trkpt>
      <trkpt lat="48.59012" lon="1.76375">
        <ele>152</ele>
        <time>2020-01-26T13:59:05Z</time>
      </trkpt>
      <trkpt lat="48.59004" lon="1.76401">
        <ele>152</ele>
        <time>2020-01-26T13:59:30Z</time>
      </trkpt>
      <trkpt lat="48.59004" lon="1.76412">
        <ele>152</ele>
        <time>2020-01-26T13:59:37Z</time>
      </trkpt>
      <trkpt lat="48.59002" lon="1.76419">
        <ele>152</ele>
        <time>2020-01-26T13:59:42Z</time>
      </trkpt>
      <trkpt lat="48.59002" lon="1.76459">
        <ele>153</ele>
        <time>2020-01-26T14:00:11Z</time>
      </trkpt>
      <trkpt lat="48.58997" lon="1.76503">
        <ele>153</ele>
        <time>2020-01-26T14:00:38Z</time>
      </trkpt>
      <trkpt lat="48.58996" lon="1.76538">
        <ele>154</ele>
        <time>2020-01-26T14:00:59Z</time>
      </trkpt>
      <trkpt lat="48.58996" lon="1.76545">
        <ele>153</ele>
        <time>2020-01-26T14:01:03Z</time>
      </trkpt>
      <trkpt lat="48.58995" lon="1.7656">
        <ele>153</ele>
        <time>2020-01-26T14:01:13Z</time>
      </trkpt>
      <trkpt lat="48.58994" lon="1.76591">
        <ele>153</ele>
        <time>2020-01-26T14:01:35Z</time>
      </trkpt>
      <trkpt lat="48.58997" lon="1.76615">
        <ele>153</ele>
        <time>2020-01-26T14:01:49Z</time>
      </trkpt>
      <trkpt lat="48.58997" lon="1.76629">
        <ele>152</ele>
        <time>2020-01-26T14:01:57Z</time>
      </trkpt>
      <trkpt lat="48.58993" lon="1.7666">
        <ele>152</ele>
        <time>2020-01-26T14:02:16Z</time>
      </trkpt>
      <trkpt lat="48.58993" lon="1.76667">
        <ele>153</ele>
        <time>2020-01-26T14:02:21Z</time>
      </trkpt>
      <trkpt lat="48.58994" lon="1.76675">
        <ele>152</ele>
        <time>2020-01-26T14:02:29Z</time>
      </trkpt>
      <trkpt lat="48.58993" lon="1.76697">
        <ele>153</ele>
        <time>2020-01-26T14:02:42Z</time>
      </trkpt>
      <trkpt lat="48.58992" lon="1.76712">
        <ele>153</ele>
        <time>2020-01-26T14:02:51Z</time>
      </trkpt>
      <trkpt lat="48.58994" lon="1.76749">
        <ele>152</ele>
        <time>2020-01-26T14:03:12Z</time>
      </trkpt>
      <trkpt lat="48.5899" lon="1.76801">
        <ele>151</ele>
        <time>2020-01-26T14:03:41Z</time>
      </trkpt>
      <trkpt lat="48.58991" lon="1.76816">
        <ele>151</ele>
        <time>2020-01-26T14:03:50Z</time>
      </trkpt>
      <trkpt lat="48.5899" lon="1.76831">
        <ele>151</ele>
        <time>2020-01-26T14:03:59Z</time>
      </trkpt>
      <trkpt lat="48.58988" lon="1.76847">
        <ele>150</ele>
        <time>2020-01-26T14:04:09Z</time>
      </trkpt>
      <trkpt lat="48.58988" lon="1.76854">
        <ele>151</ele>
        <time>2020-01-26T14:04:13Z</time>
      </trkpt>
      <trkpt lat="48.58986" lon="1.76869">
        <ele>151</ele>
        <time>2020-01-26T14:04:21Z</time>
      </trkpt>
      <trkpt lat="48.58986" lon="1.76876">
        <ele>151</ele>
        <time>2020-01-26T14:04:25Z</time>
      </trkpt>
      <trkpt lat="48.58987" lon="1.769">
        <ele>151</ele>
        <time>2020-01-26T14:04:38Z</time>
      </trkpt>
      <trkpt lat="48.58984" lon="1.76914">
        <ele>151</ele>
        <time>2020-01-26T14:04:46Z</time>
      </trkpt>
      <trkpt lat="48.58981" lon="1.76939">
        <ele>152</ele>
        <time>2020-01-26T14:04:58Z</time>
      </trkpt>
      <trkpt lat="48.58979" lon="1.76945">
        <ele>152</ele>
        <time>2020-01-26T14:05:01Z</time>
      </trkpt>
      <trkpt lat="48.58975" lon="1.76951">
        <ele>152</ele>
        <time>2020-01-26T14:05:05Z</time>
      </trkpt>
      <trkpt lat="48.58957" lon="1.77007">
        <ele>152</ele>
        <time>2020-01-26T14:05:36Z</time>
      </trkpt>
      <trkpt lat="48.58953" lon="1.7702">
        <ele>152</ele>
        <time>2020-01-26T14:05:43Z</time>
      </trkpt>
      <trkpt lat="48.58948" lon="1.77077">
        <ele>152</ele>
        <time>2020-01-26T14:06:14Z</time>
      </trkpt>
      <trkpt lat="48.58946" lon="1.77092">
        <ele>152</ele>
        <time>2020-01-26T14:06:21Z</time>
      </trkpt>
      <trkpt lat="48.58937" lon="1.77132">
        <ele>151</ele>
        <time>2020-01-26T14:06:45Z</time>
      </trkpt>
      <trkpt lat="48.58919" lon="1.77169">
        <ele>151</ele>
        <time>2020-01-26T14:07:08Z</time>
      </trkpt>
      <trkpt lat="48.58918" lon="1.77176">
        <ele>151</ele>
        <time>2020-01-26T14:07:12Z</time>
      </trkpt>
      <trkpt lat="48.58904" lon="1.77208">
        <ele>152</ele>
        <time>2020-01-26T14:07:32Z</time>
      </trkpt>
      <trkpt lat="48.58901" lon="1.77213">
        <ele>153</ele>
        <time>2020-01-26T14:07:36Z</time>
      </trkpt>
      <trkpt lat="48.58894" lon="1.77234">
        <ele>153</ele>
        <time>2020-01-26T14:07:51Z</time>
      </trkpt>
      <trkpt lat="48.58889" lon="1.77265">
        <ele>155</ele>
        <time>2020-01-26T14:08:15Z</time>
      </trkpt>
      <trkpt lat="48.58887" lon="1.77272">
        <ele>154</ele>
        <time>2020-01-26T14:08:27Z</time>
      </trkpt>
      <trkpt lat="48.58886" lon="1.7728">
        <ele>155</ele>
        <time>2020-01-26T14:08:32Z</time>
      </trkpt>
      <trkpt lat="48.58884" lon="1.77287">
        <ele>155</ele>
        <time>2020-01-26T14:08:36Z</time>
      </trkpt>
      <trkpt lat="48.58881" lon="1.77309">
        <ele>156</ele>
        <time>2020-01-26T14:08:49Z</time>
      </trkpt>
      <trkpt lat="48.58882" lon="1.77317">
        <ele>156</ele>
        <time>2020-01-26T14:08:54Z</time>
      </trkpt>
      <trkpt lat="48.58881" lon="1.77332">
        <ele>156</ele>
        <time>2020-01-26T14:09:03Z</time>
      </trkpt>
      <trkpt lat="48.5888" lon="1.77339">
        <ele>157</ele>
        <time>2020-01-26T14:09:07Z</time>
      </trkpt>
      <trkpt lat="48.58879" lon="1.77347">
        <ele>157</ele>
        <time>2020-01-26T14:09:11Z</time>
      </trkpt>
      <trkpt lat="48.58879" lon="1.77353">
        <ele>157</ele>
        <time>2020-01-26T14:09:15Z</time>
      </trkpt>
      <trkpt lat="48.58877" lon="1.77377">
        <ele>157</ele>
        <time>2020-01-26T14:09:29Z</time>
      </trkpt>
      <trkpt lat="48.58875" lon="1.77385">
        <ele>158</ele>
        <time>2020-01-26T14:09:33Z</time>
      </trkpt>
      <trkpt lat="48.58874" lon="1.77392">
        <ele>158</ele>
        <time>2020-01-26T14:09:37Z</time>
      </trkpt>
      <trkpt lat="48.58874" lon="1.77422">
        <ele>158</ele>
        <time>2020-01-26T14:09:54Z</time>
      </trkpt>
      <trkpt lat="48.58866" lon="1.77487">
        <ele>159</ele>
        <time>2020-01-26T14:10:31Z</time>
      </trkpt>
      <trkpt lat="48.58866" lon="1.77512">
        <ele>159</ele>
        <time>2020-01-26T14:10:45Z</time>
      </trkpt>
      <trkpt lat="48.58859" lon="1.77567">
        <ele>160</ele>
        <time>2020-01-26T14:11:19Z</time>
      </trkpt>
      <trkpt lat="48.58859" lon="1.77592">
        <ele>160</ele>
        <time>2020-01-26T14:11:34Z</time>
      </trkpt>
      <trkpt lat="48.58857" lon="1.77605">
        <ele>160</ele>
        <time>2020-01-26T14:11:40Z</time>
      </trkpt>
      <trkpt lat="48.58854" lon="1.77627">
        <ele>160</ele>
        <time>2020-01-26T14:11:51Z</time>
      </trkpt>
      <trkpt lat="48.5885" lon="1.77648">
        <ele>160</ele>
        <time>2020-01-26T14:12:04Z</time>
      </trkpt>
      <trkpt lat="48.58855" lon="1.77677">
        <ele>160</ele>
        <time>2020-01-26T14:12:22Z</time>
      </trkpt>
      <trkpt lat="48.58856" lon="1.77683">
        <ele>160</ele>
        <time>2020-01-26T14:12:26Z</time>
      </trkpt>
      <trkpt lat="48.58858" lon="1.77715">
        <ele>160</ele>
        <time>2020-01-26T14:12:46Z</time>
      </trkpt>
      <trkpt lat="48.58864" lon="1.7776">
        <ele>161</ele>
        <time>2020-01-26T14:13:21Z</time>
      </trkpt>
      <trkpt lat="48.58864" lon="1.77769">
        <ele>161</ele>
        <time>2020-01-26T14:13:27Z</time>
      </trkpt>
      <trkpt lat="48.58867" lon="1.77791">
        <ele>162</ele>
        <time>2020-01-26T14:13:40Z</time>
      </trkpt>
      <trkpt lat="48.5887" lon="1.77807">
        <ele>161</ele>
        <time>2020-01-26T14:13:50Z</time>
      </trkpt>
      <trkpt lat="48.58873" lon="1.77812">
        <ele>161</ele>
        <time>2020-01-26T14:13:54Z</time>
      </trkpt>
      <trkpt lat="48.5887" lon="1.77822">
        <ele>162</ele>
        <time>2020-01-26T14:14:02Z</time>
      </trkpt>
      <trkpt lat="48.58866" lon="1.77826">
        <ele>162</ele>
        <time>2020-01-26T14:14:07Z</time>
      </trkpt>
      <trkpt lat="48.5886" lon="1.77827">
        <ele>162</ele>
        <time>2020-01-26T14:14:12Z</time>
      </trkpt>
      <trkpt lat="48.5884" lon="1.77822">
        <ele>161</ele>
        <time>2020-01-26T14:14:28Z</time>
      </trkpt>
      <trkpt lat="48.58834" lon="1.77822">
        <ele>161</ele>
        <time>2020-01-26T14:14:32Z</time>
      </trkpt>
      <trkpt lat="48.58829" lon="1.77821">
        <ele>161</ele>
        <time>2020-01-26T14:14:36Z</time>
      </trkpt>
      <trkpt lat="48.58815" lon="1.77819">
        <ele>161</ele>
        <time>2020-01-26T14:14:48Z</time>
      </trkpt>
      <trkpt lat="48.58794" lon="1.77817">
        <ele>161</ele>
        <time>2020-01-26T14:15:05Z</time>
      </trkpt>
      <trkpt lat="48.58789" lon="1.77818">
        <ele>161</ele>
        <time>2020-01-26T14:15:09Z</time>
      </trkpt>
      <trkpt lat="48.58784" lon="1.77818">
        <ele>161</ele>
        <time>2020-01-26T14:15:13Z</time>
      </trkpt>
      <trkpt lat="48.58779" lon="1.77817">
        <ele>161</ele>
        <time>2020-01-26T14:15:17Z</time>
      </trkpt>
      <trkpt lat="48.58775" lon="1.77818">
        <ele>160</ele>
        <time>2020-01-26T14:15:21Z</time>
      </trkpt>
      <trkpt lat="48.5877" lon="1.77817">
        <ele>160</ele>
        <time>2020-01-26T14:15:25Z</time>
      </trkpt>
      <trkpt lat="48.58765" lon="1.77817">
        <ele>161</ele>
        <time>2020-01-26T14:15:30Z</time>
      </trkpt>
      <trkpt lat="48.5876" lon="1.77816">
        <ele>161</ele>
        <time>2020-01-26T14:15:34Z</time>
      </trkpt>
      <trkpt lat="48.58755" lon="1.77817">
        <ele>161</ele>
        <time>2020-01-26T14:15:38Z</time>
      </trkpt>
      <trkpt lat="48.58745" lon="1.77815">
        <ele>161</ele>
        <time>2020-01-26T14:15:46Z</time>
      </trkpt>
      <trkpt lat="48.5874" lon="1.77816">
        <ele>161</ele>
        <time>2020-01-26T14:15:50Z</time>
      </trkpt>
      <trkpt lat="48.58699" lon="1.77814">
        <ele>161</ele>
        <time>2020-01-26T14:16:22Z</time>
      </trkpt>
      <trkpt lat="48.58688" lon="1.77814">
        <ele>162</ele>
        <time>2020-01-26T14:16:31Z</time>
      </trkpt>
      <trkpt lat="48.58677" lon="1.77817">
        <ele>162</ele>
        <time>2020-01-26T14:16:39Z</time>
      </trkpt>
      <trkpt lat="48.58672" lon="1.77818">
        <ele>162</ele>
        <time>2020-01-26T14:16:43Z</time>
      </trkpt>
      <trkpt lat="48.58642" lon="1.77827">
        <ele>162</ele>
        <time>2020-01-26T14:17:07Z</time>
      </trkpt>
      <trkpt lat="48.58632" lon="1.77831">
        <ele>162</ele>
        <time>2020-01-26T14:17:15Z</time>
      </trkpt>
      <trkpt lat="48.58623" lon="1.77833">
        <ele>162</ele>
        <time>2020-01-26T14:17:23Z</time>
      </trkpt>
      <trkpt lat="48.58583" lon="1.77848">
        <ele>162</ele>
        <time>2020-01-26T14:17:56Z</time>
      </trkpt>
      <trkpt lat="48.58545" lon="1.77863">
        <ele>162</ele>
        <time>2020-01-26T14:18:28Z</time>
      </trkpt>
      <trkpt lat="48.5854" lon="1.77865">
        <ele>162</ele>
        <time>2020-01-26T14:18:32Z</time>
      </trkpt>
      <trkpt lat="48.585" lon="1.77885">
        <ele>161</ele>
        <time>2020-01-26T14:19:04Z</time>
      </trkpt>
      <trkpt lat="48.58459" lon="1.77902">
        <ele>160</ele>
        <time>2020-01-26T14:19:36Z</time>
      </trkpt>
      <trkpt lat="48.58444" lon="1.77911">
        <ele>159</ele>
        <time>2020-01-26T14:19:48Z</time>
      </trkpt>
      <trkpt lat="48.5844" lon="1.77916">
        <ele>159</ele>
        <time>2020-01-26T14:19:52Z</time>
      </trkpt>
      <trkpt lat="48.58433" lon="1.77928">
        <ele>158</ele>
        <time>2020-01-26T14:20:00Z</time>
      </trkpt>
      <trkpt lat="48.58426" lon="1.77938">
        <ele>158</ele>
        <time>2020-01-26T14:20:08Z</time>
      </trkpt>
      <trkpt lat="48.58421" lon="1.77942">
        <ele>157</ele>
        <time>2020-01-26T14:20:12Z</time>
      </trkpt>
      <trkpt lat="48.58406" lon="1.77949">
        <ele>157</ele>
        <time>2020-01-26T14:20:24Z</time>
      </trkpt>
      <trkpt lat="48.58396" lon="1.77955">
        <ele>156</ele>
        <time>2020-01-26T14:20:32Z</time>
      </trkpt>
      <trkpt lat="48.58393" lon="1.77962">
        <ele>156</ele>
        <time>2020-01-26T14:20:36Z</time>
      </trkpt>
      <trkpt lat="48.58391" lon="1.77969">
        <ele>156</ele>
        <time>2020-01-26T14:20:40Z</time>
      </trkpt>
      <trkpt lat="48.58389" lon="1.77975">
        <ele>156</ele>
        <time>2020-01-26T14:20:45Z</time>
      </trkpt>
      <trkpt lat="48.58386" lon="1.77988">
        <ele>156</ele>
        <time>2020-01-26T14:21:28Z</time>
      </trkpt>
      <trkpt lat="48.58374" lon="1.78051">
        <ele>155</ele>
        <time>2020-01-26T14:22:00Z</time>
      </trkpt>
      <trkpt lat="48.58368" lon="1.7808">
        <ele>155</ele>
        <time>2020-01-26T14:22:16Z</time>
      </trkpt>
      <trkpt lat="48.58367" lon="1.78088">
        <ele>154</ele>
        <time>2020-01-26T14:22:20Z</time>
      </trkpt>
      <trkpt lat="48.58366" lon="1.78097">
        <ele>154</ele>
        <time>2020-01-26T14:22:24Z</time>
      </trkpt>
      <trkpt lat="48.58355" lon="1.78158">
        <ele>155</ele>
        <time>2020-01-26T14:22:58Z</time>
      </trkpt>
      <trkpt lat="48.58355" lon="1.78165">
        <ele>155</ele>
        <time>2020-01-26T14:23:02Z</time>
      </trkpt>
      <trkpt lat="48.58354" lon="1.78172">
        <ele>155</ele>
        <time>2020-01-26T14:23:06Z</time>
      </trkpt>
      <trkpt lat="48.58352" lon="1.78178">
        <ele>155</ele>
        <time>2020-01-26T14:23:10Z</time>
      </trkpt>
      <trkpt lat="48.58349" lon="1.78183">
        <ele>156</ele>
        <time>2020-01-26T14:23:15Z</time>
      </trkpt>
      <trkpt lat="48.58342" lon="1.78177">
        <ele>155</ele>
        <time>2020-01-26T14:23:23Z</time>
      </trkpt>
      <trkpt lat="48.58334" lon="1.78166">
        <ele>153</ele>
        <time>2020-01-26T14:23:33Z</time>
      </trkpt>
      <trkpt lat="48.58325" lon="1.78161">
        <ele>152</ele>
        <time>2020-01-26T14:23:42Z</time>
      </trkpt>
      <trkpt lat="48.58319" lon="1.78153">
        <ele>150</ele>
        <time>2020-01-26T14:23:50Z</time>
      </trkpt>
      <trkpt lat="48.58304" lon="1.78117">
        <ele>145</ele>
        <time>2020-01-26T14:24:17Z</time>
      </trkpt>
      <trkpt lat="48.58299" lon="1.78112">
        <ele>144</ele>
        <time>2020-01-26T14:24:23Z</time>
      </trkpt>
      <trkpt lat="48.58294" lon="1.7811">
        <ele>144</ele>
        <time>2020-01-26T14:24:27Z</time>
      </trkpt>
      <trkpt lat="48.58268" lon="1.78107">
        <ele>143</ele>
        <time>2020-01-26T14:24:47Z</time>
      </trkpt>
      <trkpt lat="48.58263" lon="1.78106">
        <ele>143</ele>
        <time>2020-01-26T14:24:51Z</time>
      </trkpt>
      <trkpt lat="48.58257" lon="1.78106">
        <ele>143</ele>
        <time>2020-01-26T14:24:56Z</time>
      </trkpt>
      <trkpt lat="48.58255" lon="1.78113">
        <ele>142</ele>
        <time>2020-01-26T14:25:03Z</time>
      </trkpt>
      <trkpt lat="48.58255" lon="1.78148">
        <ele>141</ele>
        <time>2020-01-26T14:25:23Z</time>
      </trkpt>
      <trkpt lat="48.58253" lon="1.78163">
        <ele>142</ele>
        <time>2020-01-26T14:25:31Z</time>
      </trkpt>
      <trkpt lat="48.58251" lon="1.78169">
        <ele>142</ele>
        <time>2020-01-26T14:25:35Z</time>
      </trkpt>
      <trkpt lat="48.58242" lon="1.78186">
        <ele>142</ele>
        <time>2020-01-26T14:25:48Z</time>
      </trkpt>
      <trkpt lat="48.58238" lon="1.782">
        <ele>142</ele>
        <time>2020-01-26T14:25:56Z</time>
      </trkpt>
      <trkpt lat="48.58235" lon="1.78207">
        <ele>142</ele>
        <time>2020-01-26T14:26:00Z</time>
      </trkpt>
      <trkpt lat="48.58228" lon="1.78218">
        <ele>142</ele>
        <time>2020-01-26T14:26:08Z</time>
      </trkpt>
      <trkpt lat="48.58215" lon="1.78243">
        <ele>142</ele>
        <time>2020-01-26T14:26:26Z</time>
      </trkpt>
      <trkpt lat="48.58212" lon="1.78247">
        <ele>143</ele>
        <time>2020-01-26T14:26:36Z</time>
      </trkpt>
      <trkpt lat="48.58204" lon="1.78257">
        <ele>143</ele>
        <time>2020-01-26T14:26:56Z</time>
      </trkpt>
      <trkpt lat="48.58201" lon="1.78261">
        <ele>143</ele>
        <time>2020-01-26T14:27:07Z</time>
      </trkpt>
      <trkpt lat="48.58197" lon="1.78268">
        <ele>143</ele>
        <time>2020-01-26T14:27:31Z</time>
      </trkpt>
      <trkpt lat="48.58193" lon="1.78274">
        <ele>143</ele>
        <time>2020-01-26T14:27:36Z</time>
      </trkpt>
      <trkpt lat="48.58191" lon="1.78281">
        <ele>143</ele>
        <time>2020-01-26T14:27:41Z</time>
      </trkpt>
      <trkpt lat="48.58188" lon="1.78288">
        <ele>143</ele>
        <time>2020-01-26T14:27:45Z</time>
      </trkpt>
      <trkpt lat="48.58185" lon="1.78295">
        <ele>142</ele>
        <time>2020-01-26T14:27:50Z</time>
      </trkpt>
      <trkpt lat="48.58184" lon="1.78304">
        <ele>142</ele>
        <time>2020-01-26T14:27:56Z</time>
      </trkpt>
      <trkpt lat="48.58181" lon="1.7831">
        <ele>142</ele>
        <time>2020-01-26T14:28:00Z</time>
      </trkpt>
      <trkpt lat="48.58174" lon="1.78322">
        <ele>142</ele>
        <time>2020-01-26T14:28:07Z</time>
      </trkpt>
      <trkpt lat="48.58172" lon="1.78329">
        <ele>142</ele>
        <time>2020-01-26T14:28:11Z</time>
      </trkpt>
      <trkpt lat="48.58161" lon="1.78346">
        <ele>142</ele>
        <time>2020-01-26T14:28:24Z</time>
      </trkpt>
      <trkpt lat="48.58156" lon="1.78351">
        <ele>142</ele>
        <time>2020-01-26T14:28:28Z</time>
      </trkpt>
      <trkpt lat="48.58152" lon="1.78357">
        <ele>142</ele>
        <time>2020-01-26T14:28:32Z</time>
      </trkpt>
      <trkpt lat="48.58139" lon="1.78375">
        <ele>143</ele>
        <time>2020-01-26T14:28:47Z</time>
      </trkpt>
      <trkpt lat="48.58129" lon="1.78381">
        <ele>143</ele>
        <time>2020-01-26T14:28:55Z</time>
      </trkpt>
      <trkpt lat="48.5812" lon="1.78387">
        <ele>142</ele>
        <time>2020-01-26T14:29:02Z</time>
      </trkpt>
      <trkpt lat="48.58111" lon="1.78393">
        <ele>143</ele>
        <time>2020-01-26T14:29:10Z</time>
      </trkpt>
      <trkpt lat="48.58103" lon="1.78399">
        <ele>142</ele>
        <time>2020-01-26T14:29:19Z</time>
      </trkpt>
      <trkpt lat="48.58076" lon="1.78417">
        <ele>142</ele>
        <time>2020-01-26T14:29:40Z</time>
      </trkpt>
      <trkpt lat="48.58068" lon="1.78423">
        <ele>142</ele>
        <time>2020-01-26T14:29:47Z</time>
      </trkpt>
      <trkpt lat="48.58059" lon="1.78426">
        <ele>142</ele>
        <time>2020-01-26T14:29:56Z</time>
      </trkpt>
      <trkpt lat="48.58047" lon="1.78435">
        <ele>142</ele>
        <time>2020-01-26T14:30:07Z</time>
      </trkpt>
      <trkpt lat="48.5804" lon="1.78439">
        <ele>142</ele>
        <time>2020-01-26T14:30:18Z</time>
      </trkpt>
      <trkpt lat="48.58035" lon="1.78454">
        <ele>142</ele>
        <time>2020-01-26T14:30:30Z</time>
      </trkpt>
      <trkpt lat="48.58032" lon="1.78461">
        <ele>142</ele>
        <time>2020-01-26T14:30:35Z</time>
      </trkpt>
      <trkpt lat="48.58021" lon="1.78495">
        <ele>142</ele>
        <time>2020-01-26T14:30:55Z</time>
      </trkpt>
      <trkpt lat="48.58015" lon="1.78507">
        <ele>142</ele>
        <time>2020-01-26T14:31:02Z</time>
      </trkpt>
      <trkpt lat="48.5801" lon="1.78521">
        <ele>142</ele>
        <time>2020-01-26T14:31:10Z</time>
      </trkpt>
      <trkpt lat="48.58008" lon="1.78527">
        <ele>142</ele>
        <time>2020-01-26T14:31:13Z</time>
      </trkpt>
      <trkpt lat="48.58002" lon="1.78541">
        <ele>142</ele>
        <time>2020-01-26T14:31:20Z</time>
      </trkpt>
      <trkpt lat="48.58001" lon="1.78554">
        <ele>142</ele>
        <time>2020-01-26T14:31:28Z</time>
      </trkpt>
      <trkpt lat="48.58007" lon="1.78566">
        <ele>142</ele>
        <time>2020-01-26T14:31:40Z</time>
      </trkpt>
      <trkpt lat="48.58008" lon="1.78581">
        <ele>142</ele>
        <time>2020-01-26T14:31:49Z</time>
      </trkpt>
      <trkpt lat="48.58008" lon="1.7861">
        <ele>142</ele>
        <time>2020-01-26T14:32:06Z</time>
      </trkpt>
      <trkpt lat="48.58015" lon="1.78637">
        <ele>143</ele>
        <time>2020-01-26T14:32:23Z</time>
      </trkpt>
      <trkpt lat="48.58023" lon="1.78646">
        <ele>142</ele>
        <time>2020-01-26T14:32:31Z</time>
      </trkpt>
      <trkpt lat="48.58027" lon="1.78654">
        <ele>142</ele>
        <time>2020-01-26T14:32:37Z</time>
      </trkpt>
      <trkpt lat="48.58031" lon="1.78663">
        <ele>142</ele>
        <time>2020-01-26T14:32:45Z</time>
      </trkpt>
      <trkpt lat="48.58039" lon="1.78689">
        <ele>143</ele>
        <time>2020-01-26T14:33:02Z</time>
      </trkpt>
      <trkpt lat="48.58039" lon="1.78696">
        <ele>143</ele>
        <time>2020-01-26T14:33:06Z</time>
      </trkpt>
      <trkpt lat="48.58043" lon="1.78702">
        <ele>143</ele>
        <time>2020-01-26T14:33:10Z</time>
      </trkpt>
      <trkpt lat="48.5805" lon="1.78715">
        <ele>143</ele>
        <time>2020-01-26T14:33:18Z</time>
      </trkpt>
      <trkpt lat="48.58066" lon="1.78759">
        <ele>143</ele>
        <time>2020-01-26T14:33:49Z</time>
      </trkpt>
      <trkpt lat="48.58079" lon="1.78796">
        <ele>144</ele>
        <time>2020-01-26T14:34:08Z</time>
      </trkpt>
      <trkpt lat="48.58089" lon="1.78853">
        <ele>143</ele>
        <time>2020-01-26T14:34:38Z</time>
      </trkpt>
      <trkpt lat="48.58093" lon="1.78866">
        <ele>144</ele>
        <time>2020-01-26T14:34:47Z</time>
      </trkpt>
      <trkpt lat="48.58104" lon="1.78873">
        <ele>146</ele>
        <time>2020-01-26T14:35:03Z</time>
      </trkpt>
      <trkpt lat="48.5811" lon="1.78885">
        <ele>145</ele>
        <time>2020-01-26T14:35:10Z</time>
      </trkpt>
      <trkpt lat="48.58116" lon="1.78896">
        <ele>144</ele>
        <time>2020-01-26T14:35:18Z</time>
      </trkpt>
      <trkpt lat="48.58126" lon="1.78927">
        <ele>144</ele>
        <time>2020-01-26T14:35:38Z</time>
      </trkpt>
      <trkpt lat="48.58128" lon="1.7894">
        <ele>144</ele>
        <time>2020-01-26T14:35:46Z</time>
      </trkpt>
      <trkpt lat="48.58148" lon="1.78991">
        <ele>144</ele>
        <time>2020-01-26T14:36:17Z</time>
      </trkpt>
      <trkpt lat="48.58164" lon="1.79035">
        <ele>147</ele>
        <time>2020-01-26T14:36:51Z</time>
      </trkpt>
      <trkpt lat="48.58171" lon="1.79047">
        <ele>148</ele>
        <time>2020-01-26T14:37:01Z</time>
      </trkpt>
      <trkpt lat="48.58182" lon="1.79088">
        <ele>150</ele>
        <time>2020-01-26T14:37:28Z</time>
      </trkpt>
      <trkpt lat="48.58182" lon="1.79103">
        <ele>151</ele>
        <time>2020-01-26T14:37:36Z</time>
      </trkpt>
      <trkpt lat="48.58193" lon="1.79157">
        <ele>152</ele>
        <time>2020-01-26T14:38:08Z</time>
      </trkpt>
      <trkpt lat="48.582" lon="1.79185">
        <ele>153</ele>
        <time>2020-01-26T14:38:25Z</time>
      </trkpt>
      <trkpt lat="48.58209" lon="1.7921">
        <ele>155</ele>
        <time>2020-01-26T14:38:41Z</time>
      </trkpt>
      <trkpt lat="48.58215" lon="1.79221">
        <ele>155</ele>
        <time>2020-01-26T14:38:48Z</time>
      </trkpt>
      <trkpt lat="48.58226" lon="1.79263">
        <ele>156</ele>
        <time>2020-01-26T14:39:11Z</time>
      </trkpt>
      <trkpt lat="48.5826" lon="1.79322">
        <ele>158</ele>
        <time>2020-01-26T14:39:53Z</time>
      </trkpt>
      <trkpt lat="48.58266" lon="1.79331">
        <ele>158</ele>
        <time>2020-01-26T14:40:00Z</time>
      </trkpt>
      <trkpt lat="48.58267" lon="1.79339">
        <ele>158</ele>
        <time>2020-01-26T14:40:37Z</time>
      </trkpt>
      <trkpt lat="48.58272" lon="1.79337">
        <ele>158</ele>
        <time>2020-01-26T14:40:49Z</time>
      </trkpt>
      <trkpt lat="48.58277" lon="1.79337">
        <ele>159</ele>
        <time>2020-01-26T14:41:01Z</time>
      </trkpt>
      <trkpt lat="48.58278" lon="1.79346">
        <ele>159</ele>
        <time>2020-01-26T14:41:30Z</time>
      </trkpt>
      <trkpt lat="48.58282" lon="1.79353">
        <ele>159</ele>
        <time>2020-01-26T14:41:38Z</time>
      </trkpt>
      <trkpt lat="48.58289" lon="1.79375">
        <ele>159</ele>
        <time>2020-01-26T14:42:01Z</time>
      </trkpt>
      <trkpt lat="48.58319" lon="1.79424">
        <ele>159</ele>
        <time>2020-01-26T14:42:36Z</time>
      </trkpt>
      <trkpt lat="48.58323" lon="1.79436">
        <ele>159</ele>
        <time>2020-01-26T14:42:43Z</time>
      </trkpt>
      <trkpt lat="48.58355" lon="1.79488">
        <ele>159</ele>
        <time>2020-01-26T14:43:16Z</time>
      </trkpt>
      <trkpt lat="48.58387" lon="1.79528">
        <ele>159</ele>
        <time>2020-01-26T14:43:47Z</time>
      </trkpt>
      <trkpt lat="48.58405" lon="1.79556">
        <ele>159</ele>
        <time>2020-01-26T14:44:07Z</time>
      </trkpt>
      <trkpt lat="48.58414" lon="1.79577">
        <ele>159</ele>
        <time>2020-01-26T14:44:19Z</time>
      </trkpt>
      <trkpt lat="48.5843" lon="1.79629">
        <ele>159</ele>
        <time>2020-01-26T14:44:52Z</time>
      </trkpt>
      <trkpt lat="48.58435" lon="1.79645">
        <ele>160</ele>
        <time>2020-01-26T14:45:03Z</time>
      </trkpt>
      <trkpt lat="48.58438" lon="1.79651">
        <ele>160</ele>
        <time>2020-01-26T14:45:07Z</time>
      </trkpt>
      <trkpt lat="48.58458" lon="1.79689">
        <ele>159</ele>
        <time>2020-01-26T14:45:34Z</time>
      </trkpt>
      <trkpt lat="48.58465" lon="1.79701">
        <ele>159</ele>
        <time>2020-01-26T14:45:43Z</time>
      </trkpt>
      <trkpt lat="48.58467" lon="1.79707">
        <ele>159</ele>
        <time>2020-01-26T14:45:47Z</time>
      </trkpt>
      <trkpt lat="48.58469" lon="1.79716">
        <ele>159</ele>
        <time>2020-01-26T14:45:52Z</time>
      </trkpt>
      <trkpt lat="48.58477" lon="1.79726">
        <ele>159</ele>
        <time>2020-01-26T14:46:00Z</time>
      </trkpt>
      <trkpt lat="48.58501" lon="1.79746">
        <ele>158</ele>
        <time>2020-01-26T14:46:19Z</time>
      </trkpt>
      <trkpt lat="48.58519" lon="1.79771">
        <ele>158</ele>
        <time>2020-01-26T14:46:37Z</time>
      </trkpt>
      <trkpt lat="48.58524" lon="1.79784">
        <ele>158</ele>
        <time>2020-01-26T14:46:45Z</time>
      </trkpt>
      <trkpt lat="48.58556" lon="1.79828">
        <ele>157</ele>
        <time>2020-01-26T14:47:19Z</time>
      </trkpt>
      <trkpt lat="48.58562" lon="1.79839">
        <ele>158</ele>
        <time>2020-01-26T14:47:27Z</time>
      </trkpt>
      <trkpt lat="48.58594" lon="1.79879">
        <ele>157</ele>
        <time>2020-01-26T14:47:58Z</time>
      </trkpt>
      <trkpt lat="48.58619" lon="1.79919">
        <ele>158</ele>
        <time>2020-01-26T14:48:29Z</time>
      </trkpt>
      <trkpt lat="48.58629" lon="1.7993">
        <ele>158</ele>
        <time>2020-01-26T14:48:38Z</time>
      </trkpt>
      <trkpt lat="48.58634" lon="1.79933">
        <ele>158</ele>
        <time>2020-01-26T14:48:42Z</time>
      </trkpt>
      <trkpt lat="48.58643" lon="1.7994">
        <ele>158</ele>
        <time>2020-01-26T14:48:50Z</time>
      </trkpt>
      <trkpt lat="48.5865" lon="1.79951">
        <ele>158</ele>
        <time>2020-01-26T14:48:58Z</time>
      </trkpt>
      <trkpt lat="48.58686" lon="1.79979">
        <ele>158</ele>
        <time>2020-01-26T14:49:30Z</time>
      </trkpt>
      <trkpt lat="48.58688" lon="1.79986">
        <ele>158</ele>
        <time>2020-01-26T14:49:34Z</time>
      </trkpt>
      <trkpt lat="48.58693" lon="1.79988">
        <ele>158</ele>
        <time>2020-01-26T14:49:38Z</time>
      </trkpt>
      <trkpt lat="48.58733" lon="1.80007">
        <ele>158</ele>
        <time>2020-01-26T14:50:10Z</time>
      </trkpt>
      <trkpt lat="48.58776" lon="1.8002">
        <ele>158</ele>
        <time>2020-01-26T14:50:42Z</time>
      </trkpt>
      <trkpt lat="48.58782" lon="1.80021">
        <ele>157</ele>
        <time>2020-01-26T14:50:46Z</time>
      </trkpt>
      <trkpt lat="48.58797" lon="1.80025">
        <ele>158</ele>
        <time>2020-01-26T14:50:58Z</time>
      </trkpt>
      <trkpt lat="48.58802" lon="1.80025">
        <ele>157</ele>
        <time>2020-01-26T14:51:02Z</time>
      </trkpt>
      <trkpt lat="48.58826" lon="1.80032">
        <ele>156</ele>
        <time>2020-01-26T14:51:22Z</time>
      </trkpt>
      <trkpt lat="48.58859" lon="1.8005">
        <ele>156</ele>
        <time>2020-01-26T14:51:56Z</time>
      </trkpt>
      <trkpt lat="48.58863" lon="1.80055">
        <ele>156</ele>
        <time>2020-01-26T14:52:01Z</time>
      </trkpt>
      <trkpt lat="48.58869" lon="1.8006">
        <ele>156</ele>
        <time>2020-01-26T14:52:07Z</time>
      </trkpt>
      <trkpt lat="48.58892" lon="1.80082">
        <ele>157</ele>
        <time>2020-01-26T14:52:30Z</time>
      </trkpt>
      <trkpt lat="48.58896" lon="1.80087">
        <ele>156</ele>
        <time>2020-01-26T14:52:34Z</time>
      </trkpt>
      <trkpt lat="48.58926" lon="1.80121">
        <ele>159</ele>
        <time>2020-01-26T14:53:07Z</time>
      </trkpt>
      <trkpt lat="48.58956" lon="1.80155">
        <ele>160</ele>
        <time>2020-01-26T14:53:37Z</time>
      </trkpt>
      <trkpt lat="48.58983" lon="1.80187">
        <ele>161</ele>
        <time>2020-01-26T14:54:05Z</time>
      </trkpt>
      <trkpt lat="48.58996" lon="1.80209">
        <ele>161</ele>
        <time>2020-01-26T14:54:23Z</time>
      </trkpt>
      <trkpt lat="48.59001" lon="1.80213">
        <ele>161</ele>
        <time>2020-01-26T14:54:28Z</time>
      </trkpt>
      <trkpt lat="48.59005" lon="1.80218">
        <ele>161</ele>
        <time>2020-01-26T14:54:32Z</time>
      </trkpt>
      <trkpt lat="48.59008" lon="1.80222">
        <ele>161</ele>
        <time>2020-01-26T14:54:36Z</time>
      </trkpt>
      <trkpt lat="48.59012" lon="1.80227">
        <ele>161</ele>
        <time>2020-01-26T14:54:41Z</time>
      </trkpt>
      <trkpt lat="48.59035" lon="1.8026">
        <ele>161</ele>
        <time>2020-01-26T14:55:08Z</time>
      </trkpt>
      <trkpt lat="48.59045" lon="1.8027">
        <ele>161</ele>
        <time>2020-01-26T14:55:16Z</time>
      </trkpt>
      <trkpt lat="48.59052" lon="1.80281">
        <ele>162</ele>
        <time>2020-01-26T14:55:24Z</time>
      </trkpt>
      <trkpt lat="48.59084" lon="1.80321">
        <ele>161</ele>
        <time>2020-01-26T14:55:56Z</time>
      </trkpt>
      <trkpt lat="48.59117" lon="1.80366">
        <ele>162</ele>
        <time>2020-01-26T14:56:28Z</time>
      </trkpt>
      <trkpt lat="48.59148" lon="1.80405">
        <ele>162</ele>
        <time>2020-01-26T14:56:59Z</time>
      </trkpt>
      <trkpt lat="48.59164" lon="1.80424">
        <ele>162</ele>
        <time>2020-01-26T14:57:13Z</time>
      </trkpt>
      <trkpt lat="48.5917" lon="1.80428">
        <ele>162</ele>
        <time>2020-01-26T14:57:17Z</time>
      </trkpt>
      <trkpt lat="48.59173" lon="1.80433">
        <ele>162</ele>
        <time>2020-01-26T14:57:21Z</time>
      </trkpt>
      <trkpt lat="48.59208" lon="1.80473">
        <ele>162</ele>
        <time>2020-01-26T14:57:53Z</time>
      </trkpt>
      <trkpt lat="48.5922" lon="1.80486">
        <ele>162</ele>
        <time>2020-01-26T14:58:04Z</time>
      </trkpt>
      <trkpt lat="48.59229" lon="1.80494">
        <ele>161</ele>
        <time>2020-01-26T14:58:11Z</time>
      </trkpt>
      <trkpt lat="48.5927" lon="1.80524">
        <ele>160</ele>
        <time>2020-01-26T14:58:44Z</time>
      </trkpt>
      <trkpt lat="48.59313" lon="1.8055">
        <ele>159</ele>
        <time>2020-01-26T14:59:17Z</time>
      </trkpt>
      <trkpt lat="48.59322" lon="1.80554">
        <ele>159</ele>
        <time>2020-01-26T14:59:25Z</time>
      </trkpt>
      <trkpt lat="48.5933" lon="1.80558">
        <ele>160</ele>
        <time>2020-01-26T14:59:31Z</time>
      </trkpt>
      <trkpt lat="48.59375" lon="1.80573">
        <ele>160</ele>
        <time>2020-01-26T15:00:05Z</time>
      </trkpt>
      <trkpt lat="48.59401" lon="1.80575">
        <ele>160</ele>
        <time>2020-01-26T15:00:24Z</time>
      </trkpt>
      <trkpt lat="48.59405" lon="1.80578">
        <ele>160</ele>
        <time>2020-01-26T15:00:28Z</time>
      </trkpt>
      <trkpt lat="48.59442" lon="1.80579">
        <ele>160</ele>
        <time>2020-01-26T15:00:56Z</time>
      </trkpt>
      <trkpt lat="48.59447" lon="1.80581">
        <ele>159</ele>
        <time>2020-01-26T15:01:00Z</time>
      </trkpt>
      <trkpt lat="48.59457" lon="1.80583">
        <ele>159</ele>
        <time>2020-01-26T15:01:08Z</time>
      </trkpt>
      <trkpt lat="48.59462" lon="1.80583">
        <ele>160</ele>
        <time>2020-01-26T15:01:12Z</time>
      </trkpt>
      <trkpt lat="48.59482" lon="1.80586">
        <ele>159</ele>
        <time>2020-01-26T15:01:27Z</time>
      </trkpt>
      <trkpt lat="48.59497" lon="1.80588">
        <ele>160</ele>
        <time>2020-01-26T15:01:39Z</time>
      </trkpt>
      <trkpt lat="48.5951" lon="1.80592">
        <ele>160</ele>
        <time>2020-01-26T15:01:51Z</time>
      </trkpt>
      <trkpt lat="48.59531" lon="1.80592">
        <ele>160</ele>
        <time>2020-01-26T15:02:08Z</time>
      </trkpt>
      <trkpt lat="48.59541" lon="1.80589">
        <ele>160</ele>
        <time>2020-01-26T15:02:16Z</time>
      </trkpt>
      <trkpt lat="48.59546" lon="1.8059">
        <ele>160</ele>
        <time>2020-01-26T15:02:20Z</time>
      </trkpt>
      <trkpt lat="48.59551" lon="1.80587">
        <ele>160</ele>
        <time>2020-01-26T15:02:24Z</time>
      </trkpt>
      <trkpt lat="48.59556" lon="1.80587">
        <ele>160</ele>
        <time>2020-01-26T15:02:28Z</time>
      </trkpt>
      <trkpt lat="48.59587" lon="1.8058">
        <ele>160</ele>
        <time>2020-01-26T15:02:52Z</time>
      </trkpt>
      <trkpt lat="48.59592" lon="1.80577">
        <ele>160</ele>
        <time>2020-01-26T15:02:56Z</time>
      </trkpt>
      <trkpt lat="48.59623" lon="1.80573">
        <ele>161</ele>
        <time>2020-01-26T15:03:19Z</time>
      </trkpt>
      <trkpt lat="48.59628" lon="1.8057">
        <ele>161</ele>
        <time>2020-01-26T15:03:23Z</time>
      </trkpt>
      <trkpt lat="48.59632" lon="1.80566">
        <ele>160</ele>
        <time>2020-01-26T15:03:27Z</time>
      </trkpt>
      <trkpt lat="48.59637" lon="1.80564">
        <ele>160</ele>
        <time>2020-01-26T15:03:31Z</time>
      </trkpt>
      <trkpt lat="48.59677" lon="1.8055">
        <ele>160</ele>
        <time>2020-01-26T15:04:03Z</time>
      </trkpt>
      <trkpt lat="48.59682" lon="1.80547">
        <ele>160</ele>
        <time>2020-01-26T15:04:07Z</time>
      </trkpt>
      <trkpt lat="48.59687" lon="1.80546">
        <ele>160</ele>
        <time>2020-01-26T15:04:11Z</time>
      </trkpt>
      <trkpt lat="48.59703" lon="1.8054">
        <ele>160</ele>
        <time>2020-01-26T15:04:23Z</time>
      </trkpt>
      <trkpt lat="48.59707" lon="1.80538">
        <ele>160</ele>
        <time>2020-01-26T15:04:27Z</time>
      </trkpt>
      <trkpt lat="48.59712" lon="1.80535">
        <ele>160</ele>
        <time>2020-01-26T15:04:31Z</time>
      </trkpt>
      <trkpt lat="48.59717" lon="1.80533">
        <ele>160</ele>
        <time>2020-01-26T15:04:35Z</time>
      </trkpt>
      <trkpt lat="48.59729" lon="1.8052">
        <ele>159</ele>
        <time>2020-01-26T15:04:47Z</time>
      </trkpt>
      <trkpt lat="48.59734" lon="1.80518">
        <ele>159</ele>
        <time>2020-01-26T15:04:51Z</time>
      </trkpt>
      <trkpt lat="48.59739" lon="1.80515">
        <ele>158</ele>
        <time>2020-01-26T15:04:55Z</time>
      </trkpt>
      <trkpt lat="48.59744" lon="1.80511">
        <ele>157</ele>
        <time>2020-01-26T15:05:00Z</time>
      </trkpt>
      <trkpt lat="48.5978" lon="1.8048">
        <ele>157</ele>
        <time>2020-01-26T15:05:30Z</time>
      </trkpt>
      <trkpt lat="48.598" lon="1.80469">
        <ele>159</ele>
        <time>2020-01-26T15:05:48Z</time>
      </trkpt>
      <trkpt lat="48.5981" lon="1.80471">
        <ele>159</ele>
        <time>2020-01-26T15:05:56Z</time>
      </trkpt>
      <trkpt lat="48.59837" lon="1.80462">
        <ele>162</ele>
        <time>2020-01-26T15:06:20Z</time>
      </trkpt>
      <trkpt lat="48.59848" lon="1.80464">
        <ele>163</ele>
        <time>2020-01-26T15:06:29Z</time>
      </trkpt>
      <trkpt lat="48.59857" lon="1.80464">
        <ele>163</ele>
        <time>2020-01-26T15:06:35Z</time>
      </trkpt>
      <trkpt lat="48.59866" lon="1.80466">
        <ele>163</ele>
        <time>2020-01-26T15:06:44Z</time>
      </trkpt>
      <trkpt lat="48.59877" lon="1.80473">
        <ele>163</ele>
        <time>2020-01-26T15:06:52Z</time>
      </trkpt>
      <trkpt lat="48.59882" lon="1.80473">
        <ele>163</ele>
        <time>2020-01-26T15:06:55Z</time>
      </trkpt>
      <trkpt lat="48.59892" lon="1.80471">
        <ele>163</ele>
        <time>2020-01-26T15:07:02Z</time>
      </trkpt>
      <trkpt lat="48.59917" lon="1.80478">
        <ele>163</ele>
        <time>2020-01-26T15:07:23Z</time>
      </trkpt>
      <trkpt lat="48.59935" lon="1.80488">
        <ele>163</ele>
        <time>2020-01-26T15:07:36Z</time>
      </trkpt>
      <trkpt lat="48.59979" lon="1.80493">
        <ele>163</ele>
        <time>2020-01-26T15:08:05Z</time>
      </trkpt>
      <trkpt lat="48.59994" lon="1.80495">
        <ele>163</ele>
        <time>2020-01-26T15:08:17Z</time>
      </trkpt>
      <trkpt lat="48.60013" lon="1.80501">
        <ele>163</ele>
        <time>2020-01-26T15:08:33Z</time>
      </trkpt>
      <trkpt lat="48.60029" lon="1.80503">
        <ele>163</ele>
        <time>2020-01-26T15:08:46Z</time>
      </trkpt>
      <trkpt lat="48.60072" lon="1.80505">
        <ele>162</ele>
        <time>2020-01-26T15:09:18Z</time>
      </trkpt>
      <trkpt lat="48.60076" lon="1.80504">
        <ele>162</ele>
        <time>2020-01-26T15:09:22Z</time>
      </trkpt>
      <trkpt lat="48.60082" lon="1.80504">
        <ele>162</ele>
        <time>2020-01-26T15:09:26Z</time>
      </trkpt>
      <trkpt lat="48.60087" lon="1.80502">
        <ele>162</ele>
        <time>2020-01-26T15:09:30Z</time>
      </trkpt>
      <trkpt lat="48.60092" lon="1.80501">
        <ele>162</ele>
        <time>2020-01-26T15:09:34Z</time>
      </trkpt>
      <trkpt lat="48.60103" lon="1.805">
        <ele>162</ele>
        <time>2020-01-26T15:09:42Z</time>
      </trkpt>
      <trkpt lat="48.60116" lon="1.80492">
        <ele>162</ele>
        <time>2020-01-26T15:09:54Z</time>
      </trkpt>
      <trkpt lat="48.6012" lon="1.80488">
        <ele>162</ele>
        <time>2020-01-26T15:09:58Z</time>
      </trkpt>
      <trkpt lat="48.60124" lon="1.80487">
        <ele>162</ele>
        <time>2020-01-26T15:10:03Z</time>
      </trkpt>
      <trkpt lat="48.60159" lon="1.80463">
        <ele>163</ele>
        <time>2020-01-26T15:10:35Z</time>
      </trkpt>
      <trkpt lat="48.60163" lon="1.80461">
        <ele>163</ele>
        <time>2020-01-26T15:10:39Z</time>
      </trkpt>
      <trkpt lat="48.60192" lon="1.80425">
        <ele>163</ele>
        <time>2020-01-26T15:11:06Z</time>
      </trkpt>
      <trkpt lat="48.60196" lon="1.80419">
        <ele>164</ele>
        <time>2020-01-26T15:11:11Z</time>
      </trkpt>
      <trkpt lat="48.60227" lon="1.80378">
        <ele>164</ele>
        <time>2020-01-26T15:11:44Z</time>
      </trkpt>
      <trkpt lat="48.60239" lon="1.80364">
        <ele>165</ele>
        <time>2020-01-26T15:11:56Z</time>
      </trkpt>
      <trkpt lat="48.60242" lon="1.80359">
        <ele>164</ele>
        <time>2020-01-26T15:12:00Z</time>
      </trkpt>
      <trkpt lat="48.60256" lon="1.80345">
        <ele>165</ele>
        <time>2020-01-26T15:12:17Z</time>
      </trkpt>
      <trkpt lat="48.60259" lon="1.8034">
        <ele>165</ele>
        <time>2020-01-26T15:12:21Z</time>
      </trkpt>
      <trkpt lat="48.60264" lon="1.80338">
        <ele>165</ele>
        <time>2020-01-26T15:12:26Z</time>
      </trkpt>
      <trkpt lat="48.60271" lon="1.80328">
        <ele>165</ele>
        <time>2020-01-26T15:12:40Z</time>
      </trkpt>
      <trkpt lat="48.60276" lon="1.80324">
        <ele>165</ele>
        <time>2020-01-26T15:12:50Z</time>
      </trkpt>
      <trkpt lat="48.60281" lon="1.80324">
        <ele>165</ele>
        <time>2020-01-26T15:12:54Z</time>
      </trkpt>
      <trkpt lat="48.60285" lon="1.8032">
        <ele>165</ele>
        <time>2020-01-26T15:12:59Z</time>
      </trkpt>
      <trkpt lat="48.60286" lon="1.80313">
        <ele>165</ele>
        <time>2020-01-26T15:13:07Z</time>
      </trkpt>
      <trkpt lat="48.60292" lon="1.80318">
        <ele>165</ele>
        <time>2020-01-26T15:15:34Z</time>
      </trkpt>
      <trkpt lat="48.60298" lon="1.80309">
        <ele>165</ele>
        <time>2020-01-26T15:17:21Z</time>
      </trkpt>
      <trkpt lat="48.60302" lon="1.80306">
        <ele>165</ele>
        <time>2020-01-26T15:17:25Z</time>
      </trkpt>
      <trkpt lat="48.60316" lon="1.80298">
        <ele>164</ele>
        <time>2020-01-26T15:17:37Z</time>
      </trkpt>
      <trkpt lat="48.60351" lon="1.80284">
        <ele>163</ele>
        <time>2020-01-26T15:18:08Z</time>
      </trkpt>
      <trkpt lat="48.60356" lon="1.80283">
        <ele>163</ele>
        <time>2020-01-26T15:18:12Z</time>
      </trkpt>
      <trkpt lat="48.60365" lon="1.80281">
        <ele>163</ele>
        <time>2020-01-26T15:18:20Z</time>
      </trkpt>
      <trkpt lat="48.6037" lon="1.80281">
        <ele>163</ele>
        <time>2020-01-26T15:18:24Z</time>
      </trkpt>
      <trkpt lat="48.6041" lon="1.80283">
        <ele>163</ele>
        <time>2020-01-26T15:18:57Z</time>
      </trkpt>
      <trkpt lat="48.60445" lon="1.80293">
        <ele>162</ele>
        <time>2020-01-26T15:19:28Z</time>
      </trkpt>
      <trkpt lat="48.60464" lon="1.80296">
        <ele>161</ele>
        <time>2020-01-26T15:19:44Z</time>
      </trkpt>
      <trkpt lat="48.6047" lon="1.80297">
        <ele>161</ele>
        <time>2020-01-26T15:19:48Z</time>
      </trkpt>
      <trkpt lat="48.60474" lon="1.80298">
        <ele>161</ele>
        <time>2020-01-26T15:19:52Z</time>
      </trkpt>
      <trkpt lat="48.60515" lon="1.80308">
        <ele>160</ele>
        <time>2020-01-26T15:20:24Z</time>
      </trkpt>
      <trkpt lat="48.6053" lon="1.80313">
        <ele>160</ele>
        <time>2020-01-26T15:20:36Z</time>
      </trkpt>
      <trkpt lat="48.60571" lon="1.80321">
        <ele>160</ele>
        <time>2020-01-26T15:21:08Z</time>
      </trkpt>
      <trkpt lat="48.606" lon="1.80331">
        <ele>160</ele>
        <time>2020-01-26T15:21:49Z</time>
      </trkpt>
      <trkpt lat="48.60636" lon="1.80345">
        <ele>159</ele>
        <time>2020-01-26T15:22:19Z</time>
      </trkpt>
      <trkpt lat="48.6064" lon="1.80348">
        <ele>159</ele>
        <time>2020-01-26T15:22:23Z</time>
      </trkpt>
      <trkpt lat="48.60656" lon="1.8038">
        <ele>159</ele>
        <time>2020-01-26T15:22:51Z</time>
      </trkpt>
      <trkpt lat="48.60668" lon="1.80403">
        <ele>159</ele>
        <time>2020-01-26T15:23:08Z</time>
      </trkpt>
      <trkpt lat="48.60671" lon="1.80409">
        <ele>159</ele>
        <time>2020-01-26T15:23:12Z</time>
      </trkpt>
      <trkpt lat="48.60681" lon="1.80426">
        <ele>159</ele>
        <time>2020-01-26T15:23:25Z</time>
      </trkpt>
      <trkpt lat="48.60685" lon="1.80432">
        <ele>159</ele>
        <time>2020-01-26T15:23:29Z</time>
      </trkpt>
      <trkpt lat="48.60708" lon="1.80481">
        <ele>160</ele>
        <time>2020-01-26T15:24:01Z</time>
      </trkpt>
      <trkpt lat="48.60712" lon="1.80487">
        <ele>160</ele>
        <time>2020-01-26T15:24:05Z</time>
      </trkpt>
      <trkpt lat="48.60715" lon="1.80493">
        <ele>160</ele>
        <time>2020-01-26T15:24:09Z</time>
      </trkpt>
      <trkpt lat="48.60732" lon="1.80525">
        <ele>160</ele>
        <time>2020-01-26T15:24:29Z</time>
      </trkpt>
      <trkpt lat="48.60738" lon="1.80538">
        <ele>160</ele>
        <time>2020-01-26T15:24:37Z</time>
      </trkpt>
      <trkpt lat="48.60755" lon="1.80568">
        <ele>159</ele>
        <time>2020-01-26T15:24:57Z</time>
      </trkpt>
      <trkpt lat="48.60774" lon="1.80613">
        <ele>157</ele>
        <time>2020-01-26T15:25:26Z</time>
      </trkpt>
      <trkpt lat="48.60788" lon="1.80637">
        <ele>155</ele>
        <time>2020-01-26T15:25:42Z</time>
      </trkpt>
      <trkpt lat="48.60811" lon="1.80687">
        <ele>153</ele>
        <time>2020-01-26T15:26:14Z</time>
      </trkpt>
      <trkpt lat="48.60816" lon="1.80689">
        <ele>153</ele>
        <time>2020-01-26T15:26:18Z</time>
      </trkpt>
      <trkpt lat="48.6082" lon="1.8069">
        <ele>153</ele>
        <time>2020-01-26T15:26:21Z</time>
      </trkpt>
      <trkpt lat="48.60825" lon="1.80694">
        <ele>153</ele>
        <time>2020-01-26T15:26:25Z</time>
      </trkpt>
      <trkpt lat="48.60834" lon="1.80711">
        <ele>152</ele>
        <time>2020-01-26T15:26:37Z</time>
      </trkpt>
      <trkpt lat="48.60839" lon="1.80711">
        <ele>152</ele>
        <time>2020-01-26T15:26:42Z</time>
      </trkpt>
      <trkpt lat="48.60854" lon="1.80691">
        <ele>152</ele>
        <time>2020-01-26T15:27:00Z</time>
      </trkpt>
      <trkpt lat="48.60862" lon="1.80687">
        <ele>152</ele>
        <time>2020-01-26T15:27:11Z</time>
      </trkpt>
      <trkpt lat="48.60874" lon="1.80671">
        <ele>152</ele>
        <time>2020-01-26T15:27:24Z</time>
      </trkpt>
      <trkpt lat="48.60878" lon="1.80667">
        <ele>153</ele>
        <time>2020-01-26T15:27:29Z</time>
      </trkpt>
      <trkpt lat="48.60906" lon="1.80634">
        <ele>153</ele>
        <time>2020-01-26T15:28:00Z</time>
      </trkpt>
      <trkpt lat="48.60937" lon="1.80595">
        <ele>155</ele>
        <time>2020-01-26T15:28:34Z</time>
      </trkpt>
      <trkpt lat="48.60965" lon="1.80562">
        <ele>156</ele>
        <time>2020-01-26T15:29:06Z</time>
      </trkpt>
      <trkpt lat="48.60993" lon="1.80529">
        <ele>158</ele>
        <time>2020-01-26T15:29:37Z</time>
      </trkpt>
      <trkpt lat="48.61008" lon="1.80506">
        <ele>159</ele>
        <time>2020-01-26T15:29:54Z</time>
      </trkpt>
      <trkpt lat="48.61041" lon="1.80469">
        <ele>160</ele>
        <time>2020-01-26T15:30:26Z</time>
      </trkpt>
      <trkpt lat="48.61052" lon="1.80456">
        <ele>161</ele>
        <time>2020-01-26T15:30:38Z</time>
      </trkpt>
      <trkpt lat="48.61083" lon="1.80417">
        <ele>161</ele>
        <time>2020-01-26T15:31:11Z</time>
      </trkpt>
      <trkpt lat="48.61087" lon="1.80412">
        <ele>161</ele>
        <time>2020-01-26T15:31:15Z</time>
      </trkpt>
      <trkpt lat="48.61091" lon="1.80407">
        <ele>161</ele>
        <time>2020-01-26T15:31:19Z</time>
      </trkpt>
      <trkpt lat="48.61123" lon="1.80373">
        <ele>162</ele>
        <time>2020-01-26T15:31:51Z</time>
      </trkpt>
      <trkpt lat="48.61158" lon="1.80331">
        <ele>162</ele>
        <time>2020-01-26T15:32:36Z</time>
      </trkpt>
      <trkpt lat="48.61188" lon="1.80299">
        <ele>162</ele>
        <time>2020-01-26T15:33:10Z</time>
      </trkpt>
      <trkpt lat="48.61192" lon="1.80295">
        <ele>162</ele>
        <time>2020-01-26T15:33:14Z</time>
      </trkpt>
      <trkpt lat="48.61226" lon="1.80252">
        <ele>163</ele>
        <time>2020-01-26T15:33:48Z</time>
      </trkpt>
      <trkpt lat="48.61259" lon="1.80216">
        <ele>163</ele>
        <time>2020-01-26T15:34:21Z</time>
      </trkpt>
      <trkpt lat="48.61263" lon="1.80211">
        <ele>163</ele>
        <time>2020-01-26T15:34:25Z</time>
      </trkpt>
      <trkpt lat="48.61267" lon="1.80205">
        <ele>163</ele>
        <time>2020-01-26T15:34:29Z</time>
      </trkpt>
      <trkpt lat="48.61271" lon="1.802">
        <ele>164</ele>
        <time>2020-01-26T15:34:33Z</time>
      </trkpt>
      <trkpt lat="48.61276" lon="1.80194">
        <ele>163</ele>
        <time>2020-01-26T15:34:37Z</time>
      </trkpt>
      <trkpt lat="48.61299" lon="1.80166">
        <ele>164</ele>
        <time>2020-01-26T15:35:01Z</time>
      </trkpt>
      <trkpt lat="48.61304" lon="1.80163">
        <ele>164</ele>
        <time>2020-01-26T15:35:05Z</time>
      </trkpt>
      <trkpt lat="48.61332" lon="1.80129">
        <ele>165</ele>
        <time>2020-01-26T15:35:33Z</time>
      </trkpt>
      <trkpt lat="48.61335" lon="1.80122">
        <ele>165</ele>
        <time>2020-01-26T15:35:38Z</time>
      </trkpt>
      <trkpt lat="48.61367" lon="1.80085">
        <ele>165</ele>
        <time>2020-01-26T15:36:12Z</time>
      </trkpt>
      <trkpt lat="48.61383" lon="1.80065">
        <ele>165</ele>
        <time>2020-01-26T15:36:30Z</time>
      </trkpt>
      <trkpt lat="48.61388" lon="1.80064">
        <ele>166</ele>
        <time>2020-01-26T15:36:34Z</time>
      </trkpt>
      <trkpt lat="48.61392" lon="1.80067">
        <ele>166</ele>
        <time>2020-01-26T15:36:38Z</time>
      </trkpt>
      <trkpt lat="48.61411" lon="1.80091">
        <ele>165</ele>
        <time>2020-01-26T15:36:58Z</time>
      </trkpt>
      <trkpt lat="48.61441" lon="1.80118">
        <ele>165</ele>
        <time>2020-01-26T15:37:27Z</time>
      </trkpt>
      <trkpt lat="48.61456" lon="1.80139">
        <ele>165</ele>
        <time>2020-01-26T15:37:44Z</time>
      </trkpt>
      <trkpt lat="48.61465" lon="1.80147">
        <ele>165</ele>
        <time>2020-01-26T15:37:52Z</time>
      </trkpt>
      <trkpt lat="48.6149" lon="1.80189">
        <ele>164</ele>
        <time>2020-01-26T15:38:20Z</time>
      </trkpt>
      <trkpt lat="48.61495" lon="1.80193">
        <ele>164</ele>
        <time>2020-01-26T15:38:24Z</time>
      </trkpt>
      <trkpt lat="48.61523" lon="1.80243">
        <ele>164</ele>
        <time>2020-01-26T15:38:56Z</time>
      </trkpt>
      <trkpt lat="48.61548" lon="1.80285">
        <ele>164</ele>
        <time>2020-01-26T15:39:24Z</time>
      </trkpt>
      <trkpt lat="48.6155" lon="1.80292">
        <ele>163</ele>
        <time>2020-01-26T15:39:28Z</time>
      </trkpt>
      <trkpt lat="48.61576" lon="1.80342">
        <ele>163</ele>
        <time>2020-01-26T15:40:00Z</time>
      </trkpt>
      <trkpt lat="48.61596" lon="1.8038">
        <ele>163</ele>
        <time>2020-01-26T15:40:24Z</time>
      </trkpt>
      <trkpt lat="48.61629" lon="1.80417">
        <ele>162</ele>
        <time>2020-01-26T15:40:55Z</time>
      </trkpt>
      <trkpt lat="48.61652" lon="1.80436">
        <ele>162</ele>
        <time>2020-01-26T15:41:15Z</time>
      </trkpt>
      <trkpt lat="48.61657" lon="1.80438">
        <ele>162</ele>
        <time>2020-01-26T15:41:19Z</time>
      </trkpt>
      <trkpt lat="48.61662" lon="1.80441">
        <ele>162</ele>
        <time>2020-01-26T15:41:23Z</time>
      </trkpt>
      <trkpt lat="48.6169" lon="1.80459">
        <ele>161</ele>
        <time>2020-01-26T15:41:46Z</time>
      </trkpt>
      <trkpt lat="48.61721" lon="1.80491">
        <ele>161</ele>
        <time>2020-01-26T15:42:13Z</time>
      </trkpt>
      <trkpt lat="48.6175" lon="1.80539">
        <ele>160</ele>
        <time>2020-01-26T15:42:46Z</time>
      </trkpt>
      <trkpt lat="48.61754" lon="1.80545">
        <ele>161</ele>
        <time>2020-01-26T15:42:50Z</time>
      </trkpt>
      <trkpt lat="48.61783" lon="1.80593">
        <ele>160</ele>
        <time>2020-01-26T15:43:22Z</time>
      </trkpt>
      <trkpt lat="48.61802" lon="1.80609">
        <ele>161</ele>
        <time>2020-01-26T15:43:38Z</time>
      </trkpt>
      <trkpt lat="48.61832" lon="1.80623">
        <ele>161</ele>
        <time>2020-01-26T15:44:02Z</time>
      </trkpt>
      <trkpt lat="48.61872" lon="1.80634">
        <ele>161</ele>
        <time>2020-01-26T15:44:34Z</time>
      </trkpt>
      <trkpt lat="48.61912" lon="1.80646">
        <ele>161</ele>
        <time>2020-01-26T15:45:06Z</time>
      </trkpt>
      <trkpt lat="48.6195" lon="1.80667">
        <ele>162</ele>
        <time>2020-01-26T15:45:38Z</time>
      </trkpt>
      <trkpt lat="48.61985" lon="1.80697">
        <ele>162</ele>
        <time>2020-01-26T15:46:10Z</time>
      </trkpt>
      <trkpt lat="48.61997" lon="1.80712">
        <ele>163</ele>
        <time>2020-01-26T15:46:22Z</time>
      </trkpt>
      <trkpt lat="48.62024" lon="1.80759">
        <ele>163</ele>
        <time>2020-01-26T15:46:55Z</time>
      </trkpt>
      <trkpt lat="48.62032" lon="1.8078">
        <ele>164</ele>
        <time>2020-01-26T15:47:07Z</time>
      </trkpt>
      <trkpt lat="48.62034" lon="1.80786">
        <ele>163</ele>
        <time>2020-01-26T15:47:11Z</time>
      </trkpt>
      <trkpt lat="48.62053" lon="1.80844">
        <ele>164</ele>
        <time>2020-01-26T15:47:43Z</time>
      </trkpt>
      <trkpt lat="48.62076" lon="1.80895">
        <ele>164</ele>
        <time>2020-01-26T15:48:15Z</time>
      </trkpt>
      <trkpt lat="48.62104" lon="1.80937">
        <ele>163</ele>
        <time>2020-01-26T15:48:47Z</time>
      </trkpt>
      <trkpt lat="48.62124" lon="1.80961">
        <ele>163</ele>
        <time>2020-01-26T15:49:07Z</time>
      </trkpt>
      <trkpt lat="48.6213" lon="1.80965">
        <ele>163</ele>
        <time>2020-01-26T15:49:11Z</time>
      </trkpt>
      <trkpt lat="48.62166" lon="1.80994">
        <ele>163</ele>
        <time>2020-01-26T15:49:42Z</time>
      </trkpt>
      <trkpt lat="48.6217" lon="1.80997">
        <ele>163</ele>
        <time>2020-01-26T15:49:46Z</time>
      </trkpt>
      <trkpt lat="48.62175" lon="1.81">
        <ele>163</ele>
        <time>2020-01-26T15:49:50Z</time>
      </trkpt>
      <trkpt lat="48.6218" lon="1.81003">
        <ele>163</ele>
        <time>2020-01-26T15:49:54Z</time>
      </trkpt>
      <trkpt lat="48.62195" lon="1.8101">
        <ele>163</ele>
        <time>2020-01-26T15:50:06Z</time>
      </trkpt>
      <trkpt lat="48.62201" lon="1.81013">
        <ele>163</ele>
        <time>2020-01-26T15:50:11Z</time>
      </trkpt>
      <trkpt lat="48.62205" lon="1.81018">
        <ele>163</ele>
        <time>2020-01-26T15:50:15Z</time>
      </trkpt>
      <trkpt lat="48.62208" lon="1.81032">
        <ele>163</ele>
        <time>2020-01-26T15:50:24Z</time>
      </trkpt>
      <trkpt lat="48.62213" lon="1.81089">
        <ele>163</ele>
        <time>2020-01-26T15:50:54Z</time>
      </trkpt>
      <trkpt lat="48.62218" lon="1.8115">
        <ele>163</ele>
        <time>2020-01-26T15:51:25Z</time>
      </trkpt>
      <trkpt lat="48.62221" lon="1.81211">
        <ele>163</ele>
        <time>2020-01-26T15:51:57Z</time>
      </trkpt>
      <trkpt lat="48.62224" lon="1.8124">
        <ele>163</ele>
        <time>2020-01-26T15:52:13Z</time>
      </trkpt>
      <trkpt lat="48.62226" lon="1.81247">
        <ele>163</ele>
        <time>2020-01-26T15:52:17Z</time>
      </trkpt>
      <trkpt lat="48.62228" lon="1.81254">
        <ele>163</ele>
        <time>2020-01-26T15:52:21Z</time>
      </trkpt>
      <trkpt lat="48.6223" lon="1.81261">
        <ele>163</ele>
        <time>2020-01-26T15:52:25Z</time>
      </trkpt>
      <trkpt lat="48.62237" lon="1.81271">
        <ele>163</ele>
        <time>2020-01-26T15:52:33Z</time>
      </trkpt>
      <trkpt lat="48.62241" lon="1.81275">
        <ele>162</ele>
        <time>2020-01-26T15:52:37Z</time>
      </trkpt>
      <trkpt lat="48.62251" lon="1.81281">
        <ele>162</ele>
        <time>2020-01-26T15:52:47Z</time>
      </trkpt>
      <trkpt lat="48.62256" lon="1.81283">
        <ele>162</ele>
        <time>2020-01-26T15:52:51Z</time>
      </trkpt>
      <trkpt lat="48.62261" lon="1.81285">
        <ele>162</ele>
        <time>2020-01-26T15:52:55Z</time>
      </trkpt>
      <trkpt lat="48.62267" lon="1.81287">
        <ele>162</ele>
        <time>2020-01-26T15:52:59Z</time>
      </trkpt>
      <trkpt lat="48.62277" lon="1.81289">
        <ele>162</ele>
        <time>2020-01-26T15:53:07Z</time>
      </trkpt>
      <trkpt lat="48.62281" lon="1.81291">
        <ele>162</ele>
        <time>2020-01-26T15:53:10Z</time>
      </trkpt>
      <trkpt lat="48.62323" lon="1.81298">
        <ele>162</ele>
        <time>2020-01-26T15:53:42Z</time>
      </trkpt>
      <trkpt lat="48.62328" lon="1.81299">
        <ele>162</ele>
        <time>2020-01-26T15:53:46Z</time>
      </trkpt>
      <trkpt lat="48.62338" lon="1.81299">
        <ele>162</ele>
        <time>2020-01-26T15:53:54Z</time>
      </trkpt>
      <trkpt lat="48.62342" lon="1.81301">
        <ele>162</ele>
        <time>2020-01-26T15:54:23Z</time>
      </trkpt>
      <trkpt lat="48.62351" lon="1.81301">
        <ele>161</ele>
        <time>2020-01-26T15:57:10Z</time>
      </trkpt>
      <trkpt lat="48.62361" lon="1.81303">
        <ele>161</ele>
        <time>2020-01-26T15:57:18Z</time>
      </trkpt>
      <trkpt lat="48.62366" lon="1.81301">
        <ele>161</ele>
        <time>2020-01-26T15:57:22Z</time>
      </trkpt>
      <trkpt lat="48.62401" lon="1.81305">
        <ele>161</ele>
        <time>2020-01-26T15:57:55Z</time>
      </trkpt>
      <trkpt lat="48.62437" lon="1.8131">
        <ele>161</ele>
        <time>2020-01-26T15:58:25Z</time>
      </trkpt>
      <trkpt lat="48.62478" lon="1.81316">
        <ele>161</ele>
        <time>2020-01-26T15:58:59Z</time>
      </trkpt>
      <trkpt lat="48.62518" lon="1.81326">
        <ele>161</ele>
        <time>2020-01-26T15:59:33Z</time>
      </trkpt>
      <trkpt lat="48.62557" lon="1.81338">
        <ele>161</ele>
        <time>2020-01-26T16:00:05Z</time>
      </trkpt>
      <trkpt lat="48.62586" lon="1.81341">
        <ele>161</ele>
        <time>2020-01-26T16:00:29Z</time>
      </trkpt>
      <trkpt lat="48.62591" lon="1.81346">
        <ele>161</ele>
        <time>2020-01-26T16:00:33Z</time>
      </trkpt>
      <trkpt lat="48.62606" lon="1.81354">
        <ele>161</ele>
        <time>2020-01-26T16:00:47Z</time>
      </trkpt>
      <trkpt lat="48.62644" lon="1.81361">
        <ele>161</ele>
        <time>2020-01-26T16:01:21Z</time>
      </trkpt>
      <trkpt lat="48.62649" lon="1.81363">
        <ele>161</ele>
        <time>2020-01-26T16:01:25Z</time>
      </trkpt>
      <trkpt lat="48.62688" lon="1.81367">
        <ele>161</ele>
        <time>2020-01-26T16:01:58Z</time>
      </trkpt>
      <trkpt lat="48.62729" lon="1.81374">
        <ele>161</ele>
        <time>2020-01-26T16:02:30Z</time>
      </trkpt>
      <trkpt lat="48.62735" lon="1.81375">
        <ele>161</ele>
        <time>2020-01-26T16:02:35Z</time>
      </trkpt>
      <trkpt lat="48.62739" lon="1.81378">
        <ele>161</ele>
        <time>2020-01-26T16:02:39Z</time>
      </trkpt>
      <trkpt lat="48.62744" lon="1.81379">
        <ele>161</ele>
        <time>2020-01-26T16:02:43Z</time>
      </trkpt>
      <trkpt lat="48.62749" lon="1.8138">
        <ele>161</ele>
        <time>2020-01-26T16:02:47Z</time>
      </trkpt>
      <trkpt lat="48.62754" lon="1.81382">
        <ele>162</ele>
        <time>2020-01-26T16:02:51Z</time>
      </trkpt>
      <trkpt lat="48.62769" lon="1.81382">
        <ele>162</ele>
        <time>2020-01-26T16:03:03Z</time>
      </trkpt>
      <trkpt lat="48.62774" lon="1.81382">
        <ele>162</ele>
        <time>2020-01-26T16:03:07Z</time>
      </trkpt>
      <trkpt lat="48.62779" lon="1.81384">
        <ele>162</ele>
        <time>2020-01-26T16:03:11Z</time>
      </trkpt>
      <trkpt lat="48.62784" lon="1.81384">
        <ele>162</ele>
        <time>2020-01-26T16:03:15Z</time>
      </trkpt>
      <trkpt lat="48.62789" lon="1.81385">
        <ele>161</ele>
        <time>2020-01-26T16:03:19Z</time>
      </trkpt>
      <trkpt lat="48.62799" lon="1.81391">
        <ele>161</ele>
        <time>2020-01-26T16:03:27Z</time>
      </trkpt>
      <trkpt lat="48.62804" lon="1.81392">
        <ele>162</ele>
        <time>2020-01-26T16:03:31Z</time>
      </trkpt>
      <trkpt lat="48.62824" lon="1.81401">
        <ele>161</ele>
        <time>2020-01-26T16:03:46Z</time>
      </trkpt>
      <trkpt lat="48.62848" lon="1.81417">
        <ele>162</ele>
        <time>2020-01-26T16:04:06Z</time>
      </trkpt>
      <trkpt lat="48.62858" lon="1.81432">
        <ele>162</ele>
        <time>2020-01-26T16:04:19Z</time>
      </trkpt>
      <trkpt lat="48.62855" lon="1.81437">
        <ele>162</ele>
        <time>2020-01-26T16:04:24Z</time>
      </trkpt>
      <trkpt lat="48.62859" lon="1.81443">
        <ele>162</ele>
        <time>2020-01-26T16:15:10Z</time>
      </trkpt>
      <trkpt lat="48.62866" lon="1.81445">
        <ele>161</ele>
        <time>2020-01-26T16:21:06Z</time>
      </trkpt>
      <trkpt lat="48.6287" lon="1.81448">
        <ele>161</ele>
        <time>2020-01-26T16:21:10Z</time>
      </trkpt>
      <trkpt lat="48.62875" lon="1.8145">
        <ele>161</ele>
        <time>2020-01-26T16:21:14Z</time>
      </trkpt>
      <trkpt lat="48.62879" lon="1.81454">
        <ele>161</ele>
        <time>2020-01-26T16:21:18Z</time>
      </trkpt>
      <trkpt lat="48.62888" lon="1.81466">
        <ele>161</ele>
        <time>2020-01-26T16:21:27Z</time>
      </trkpt>
      <trkpt lat="48.62905" lon="1.81481">
        <ele>161</ele>
        <time>2020-01-26T16:21:43Z</time>
      </trkpt>
      <trkpt lat="48.62921" lon="1.815">
        <ele>161</ele>
        <time>2020-01-26T16:22:00Z</time>
      </trkpt>
      <trkpt lat="48.62959" lon="1.81528">
        <ele>161</ele>
        <time>2020-01-26T16:22:34Z</time>
      </trkpt>
      <trkpt lat="48.62997" lon="1.81551">
        <ele>161</ele>
        <time>2020-01-26T16:23:08Z</time>
      </trkpt>
      <trkpt lat="48.6303" lon="1.81567">
        <ele>161</ele>
        <time>2020-01-26T16:23:38Z</time>
      </trkpt>
      <trkpt lat="48.6307" lon="1.81575">
        <ele>160</ele>
        <time>2020-01-26T16:24:11Z</time>
      </trkpt>
      <trkpt lat="48.63096" lon="1.8158">
        <ele>160</ele>
        <time>2020-01-26T16:24:31Z</time>
      </trkpt>
      <trkpt lat="48.63107" lon="1.81585">
        <ele>160</ele>
        <time>2020-01-26T16:24:41Z</time>
      </trkpt>
      <trkpt lat="48.63117" lon="1.81588">
        <ele>160</ele>
        <time>2020-01-26T16:24:49Z</time>
      </trkpt>
      <trkpt lat="48.63128" lon="1.81588">
        <ele>159</ele>
        <time>2020-01-26T16:24:57Z</time>
      </trkpt>
      <trkpt lat="48.63166" lon="1.81601">
        <ele>159</ele>
        <time>2020-01-26T16:25:30Z</time>
      </trkpt>
      <trkpt lat="48.63204" lon="1.81619">
        <ele>159</ele>
        <time>2020-01-26T16:26:02Z</time>
      </trkpt>
      <trkpt lat="48.63208" lon="1.81621">
        <ele>159</ele>
        <time>2020-01-26T16:26:06Z</time>
      </trkpt>
      <trkpt lat="48.63213" lon="1.81623">
        <ele>159</ele>
        <time>2020-01-26T16:26:10Z</time>
      </trkpt>
      <trkpt lat="48.63251" lon="1.81648">
        <ele>159</ele>
        <time>2020-01-26T16:26:43Z</time>
      </trkpt>
      <trkpt lat="48.63274" lon="1.81661">
        <ele>159</ele>
        <time>2020-01-26T16:27:14Z</time>
      </trkpt>
      <trkpt lat="48.63308" lon="1.81683">
        <ele>159</ele>
        <time>2020-01-26T16:28:01Z</time>
      </trkpt>
      <trkpt lat="48.63322" lon="1.81689">
        <ele>159</ele>
        <time>2020-01-26T16:28:10Z</time>
      </trkpt>
      <trkpt lat="48.63337" lon="1.81701">
        <ele>158</ele>
        <time>2020-01-26T16:28:22Z</time>
      </trkpt>
      <trkpt lat="48.63379" lon="1.81726">
        <ele>158</ele>
        <time>2020-01-26T16:28:53Z</time>
      </trkpt>
      <trkpt lat="48.63384" lon="1.81729">
        <ele>158</ele>
        <time>2020-01-26T16:28:57Z</time>
      </trkpt>
      <trkpt lat="48.6339" lon="1.81731">
        <ele>158</ele>
        <time>2020-01-26T16:29:01Z</time>
      </trkpt>
      <trkpt lat="48.63421" lon="1.81751">
        <ele>158</ele>
        <time>2020-01-26T16:29:34Z</time>
      </trkpt>
      <trkpt lat="48.6345" lon="1.81767">
        <ele>156</ele>
        <time>2020-01-26T16:29:58Z</time>
      </trkpt>
      <trkpt lat="48.6346" lon="1.81774">
        <ele>155</ele>
        <time>2020-01-26T16:30:06Z</time>
      </trkpt>
      <trkpt lat="48.6347" lon="1.8178">
        <ele>155</ele>
        <time>2020-01-26T16:30:13Z</time>
      </trkpt>
      <trkpt lat="48.63493" lon="1.81799">
        <ele>154</ele>
        <time>2020-01-26T16:30:32Z</time>
      </trkpt>
      <trkpt lat="48.63498" lon="1.81798">
        <ele>153</ele>
        <time>2020-01-26T16:30:36Z</time>
      </trkpt>
      <trkpt lat="48.63504" lon="1.81795">
        <ele>153</ele>
        <time>2020-01-26T16:30:40Z</time>
      </trkpt>
      <trkpt lat="48.63528" lon="1.81775">
        <ele>153</ele>
        <time>2020-01-26T16:31:05Z</time>
      </trkpt>
      <trkpt lat="48.63537" lon="1.81775">
        <ele>153</ele>
        <time>2020-01-26T16:31:11Z</time>
      </trkpt>
      <trkpt lat="48.63572" lon="1.81787">
        <ele>152</ele>
        <time>2020-01-26T16:31:38Z</time>
      </trkpt>
      <trkpt lat="48.63576" lon="1.81791">
        <ele>152</ele>
        <time>2020-01-26T16:31:42Z</time>
      </trkpt>
      <trkpt lat="48.63585" lon="1.818">
        <ele>152</ele>
        <time>2020-01-26T16:31:50Z</time>
      </trkpt>
      <trkpt lat="48.63588" lon="1.81805">
        <ele>152</ele>
        <time>2020-01-26T16:31:54Z</time>
      </trkpt>
      <trkpt lat="48.63613" lon="1.8183">
        <ele>151</ele>
        <time>2020-01-26T16:32:25Z</time>
      </trkpt>
      <trkpt lat="48.63617" lon="1.81833">
        <ele>151</ele>
        <time>2020-01-26T16:32:28Z</time>
      </trkpt>
      <trkpt lat="48.6363" lon="1.81842">
        <ele>151</ele>
        <time>2020-01-26T16:32:44Z</time>
      </trkpt>
      <trkpt lat="48.63635" lon="1.81845">
        <ele>151</ele>
        <time>2020-01-26T16:32:48Z</time>
      </trkpt>
      <trkpt lat="48.63656" lon="1.8185">
        <ele>151</ele>
        <time>2020-01-26T16:33:06Z</time>
      </trkpt>
      <trkpt lat="48.6367" lon="1.81847">
        <ele>150</ele>
        <time>2020-01-26T16:33:19Z</time>
      </trkpt>
      <trkpt lat="48.637" lon="1.81824">
        <ele>149</ele>
        <time>2020-01-26T16:33:51Z</time>
      </trkpt>
      <trkpt lat="48.63742" lon="1.81801">
        <ele>148</ele>
        <time>2020-01-26T16:34:23Z</time>
      </trkpt>
      <trkpt lat="48.63771" lon="1.81784">
        <ele>147</ele>
        <time>2020-01-26T16:34:46Z</time>
      </trkpt>
      <trkpt lat="48.63781" lon="1.81782">
        <ele>147</ele>
        <time>2020-01-26T16:34:53Z</time>
      </trkpt>
      <trkpt lat="48.63786" lon="1.81784">
        <ele>147</ele>
        <time>2020-01-26T16:34:57Z</time>
      </trkpt>
      <trkpt lat="48.63828" lon="1.81784">
        <ele>147</ele>
        <time>2020-01-26T16:35:30Z</time>
      </trkpt>
      <trkpt lat="48.63834" lon="1.81786">
        <ele>147</ele>
        <time>2020-01-26T16:35:34Z</time>
      </trkpt>
      <trkpt lat="48.63877" lon="1.81795">
        <ele>146</ele>
        <time>2020-01-26T16:36:05Z</time>
      </trkpt>
      <trkpt lat="48.63901" lon="1.81805">
        <ele>145</ele>
        <time>2020-01-26T16:36:25Z</time>
      </trkpt>
      <trkpt lat="48.63906" lon="1.81809">
        <ele>145</ele>
        <time>2020-01-26T16:36:29Z</time>
      </trkpt>
      <trkpt lat="48.6391" lon="1.81812">
        <ele>145</ele>
        <time>2020-01-26T16:36:33Z</time>
      </trkpt>
      <trkpt lat="48.63945" lon="1.81832">
        <ele>144</ele>
        <time>2020-01-26T16:37:01Z</time>
      </trkpt>
      <trkpt lat="48.63952" lon="1.81841">
        <ele>144</ele>
        <time>2020-01-26T16:37:08Z</time>
      </trkpt>
      <trkpt lat="48.63967" lon="1.81865">
        <ele>144</ele>
        <time>2020-01-26T16:37:24Z</time>
      </trkpt>
      <trkpt lat="48.63987" lon="1.81892">
        <ele>144</ele>
        <time>2020-01-26T16:37:43Z</time>
      </trkpt>
      <trkpt lat="48.64003" lon="1.81917">
        <ele>144</ele>
        <time>2020-01-26T16:37:59Z</time>
      </trkpt>
      <trkpt lat="48.64007" lon="1.81921">
        <ele>144</ele>
        <time>2020-01-26T16:38:03Z</time>
      </trkpt>
      <trkpt lat="48.64017" lon="1.81939">
        <ele>144</ele>
        <time>2020-01-26T16:38:15Z</time>
      </trkpt>
      <trkpt lat="48.64036" lon="1.81964">
        <ele>144</ele>
        <time>2020-01-26T16:38:34Z</time>
      </trkpt>
      <trkpt lat="48.64051" lon="1.81994">
        <ele>144</ele>
        <time>2020-01-26T16:38:51Z</time>
      </trkpt>
      <trkpt lat="48.64055" lon="1.82008">
        <ele>144</ele>
        <time>2020-01-26T16:38:58Z</time>
      </trkpt>
      <trkpt lat="48.6406" lon="1.82011">
        <ele>144</ele>
        <time>2020-01-26T16:39:02Z</time>
      </trkpt>
      <trkpt lat="48.64063" lon="1.82018">
        <ele>144</ele>
        <time>2020-01-26T16:39:07Z</time>
      </trkpt>
      <trkpt lat="48.64066" lon="1.8205">
        <ele>144</ele>
        <time>2020-01-26T16:39:23Z</time>
      </trkpt>
      <trkpt lat="48.64066" lon="1.82057">
        <ele>144</ele>
        <time>2020-01-26T16:39:27Z</time>
      </trkpt>
      <trkpt lat="48.64068" lon="1.82065">
        <ele>144</ele>
        <time>2020-01-26T16:39:31Z</time>
      </trkpt>
      <trkpt lat="48.64068" lon="1.82072">
        <ele>144</ele>
        <time>2020-01-26T16:39:35Z</time>
      </trkpt>
      <trkpt lat="48.64071" lon="1.82104">
        <ele>145</ele>
        <time>2020-01-26T16:39:51Z</time>
      </trkpt>
      <trkpt lat="48.6407" lon="1.82111">
        <ele>145</ele>
        <time>2020-01-26T16:39:55Z</time>
      </trkpt>
      <trkpt lat="48.64073" lon="1.82149">
        <ele>145</ele>
        <time>2020-01-26T16:40:14Z</time>
      </trkpt>
      <trkpt lat="48.64075" lon="1.82157">
        <ele>145</ele>
        <time>2020-01-26T16:40:19Z</time>
      </trkpt>
      <trkpt lat="48.64075" lon="1.82163">
        <ele>145</ele>
        <time>2020-01-26T16:40:23Z</time>
      </trkpt>
      <trkpt lat="48.64079" lon="1.82179">
        <ele>145</ele>
        <time>2020-01-26T16:40:31Z</time>
      </trkpt>
      <trkpt lat="48.64081" lon="1.82208">
        <ele>145</ele>
        <time>2020-01-26T16:40:47Z</time>
      </trkpt>
      <trkpt lat="48.64083" lon="1.82215">
        <ele>145</ele>
        <time>2020-01-26T16:40:51Z</time>
      </trkpt>
      <trkpt lat="48.64083" lon="1.82231">
        <ele>145</ele>
        <time>2020-01-26T16:40:59Z</time>
      </trkpt>
      <trkpt lat="48.64085" lon="1.82238">
        <ele>145</ele>
        <time>2020-01-26T16:41:03Z</time>
      </trkpt>
      <trkpt lat="48.64085" lon="1.82247">
        <ele>145</ele>
        <time>2020-01-26T16:41:07Z</time>
      </trkpt>
      <trkpt lat="48.64085" lon="1.82255">
        <ele>145</ele>
        <time>2020-01-26T16:41:11Z</time>
      </trkpt>
      <trkpt lat="48.64086" lon="1.82263">
        <ele>145</ele>
        <time>2020-01-26T16:41:15Z</time>
      </trkpt>
      <trkpt lat="48.64089" lon="1.82269">
        <ele>145</ele>
        <time>2020-01-26T16:41:19Z</time>
      </trkpt>
      <trkpt lat="48.64091" lon="1.82276">
        <ele>145</ele>
        <time>2020-01-26T16:41:23Z</time>
      </trkpt>
      <trkpt lat="48.64089" lon="1.82308">
        <ele>145</ele>
        <time>2020-01-26T16:41:39Z</time>
      </trkpt>
      <trkpt lat="48.6409" lon="1.82316">
        <ele>145</ele>
        <time>2020-01-26T16:41:43Z</time>
      </trkpt>
      <trkpt lat="48.64093" lon="1.82322">
        <ele>145</ele>
        <time>2020-01-26T16:41:47Z</time>
      </trkpt>
      <trkpt lat="48.64094" lon="1.82354">
        <ele>145</ele>
        <time>2020-01-26T16:42:03Z</time>
      </trkpt>
      <trkpt lat="48.64092" lon="1.82376">
        <ele>145</ele>
        <time>2020-01-26T16:42:13Z</time>
      </trkpt>
      <trkpt lat="48.64093" lon="1.82383">
        <ele>145</ele>
        <time>2020-01-26T16:42:17Z</time>
      </trkpt>
      <trkpt lat="48.64099" lon="1.82412">
        <ele>145</ele>
        <time>2020-01-26T16:42:30Z</time>
      </trkpt>
      <trkpt lat="48.64099" lon="1.82419">
        <ele>145</ele>
        <time>2020-01-26T16:42:33Z</time>
      </trkpt>
      <trkpt lat="48.64098" lon="1.82427">
        <ele>145</ele>
        <time>2020-01-26T16:42:37Z</time>
      </trkpt>
      <trkpt lat="48.641" lon="1.82436">
        <ele>145</ele>
        <time>2020-01-26T16:42:41Z</time>
      </trkpt>
      <trkpt lat="48.64115" lon="1.82495">
        <ele>145</ele>
        <time>2020-01-26T16:43:13Z</time>
      </trkpt>
      <trkpt lat="48.64135" lon="1.82543">
        <ele>145</ele>
        <time>2020-01-26T16:43:41Z</time>
      </trkpt>
      <trkpt lat="48.64135" lon="1.8255">
        <ele>145</ele>
        <time>2020-01-26T16:43:45Z</time>
      </trkpt>
      <trkpt lat="48.6414" lon="1.82561">
        <ele>145</ele>
        <time>2020-01-26T16:44:08Z</time>
      </trkpt>
      <trkpt lat="48.64144" lon="1.82566">
        <ele>146</ele>
        <time>2020-01-26T16:44:12Z</time>
      </trkpt>
      <trkpt lat="48.64159" lon="1.82574">
        <ele>145</ele>
        <time>2020-01-26T16:44:24Z</time>
      </trkpt>
      <trkpt lat="48.64164" lon="1.82577">
        <ele>146</ele>
        <time>2020-01-26T16:44:28Z</time>
      </trkpt>
      <trkpt lat="48.64184" lon="1.82577">
        <ele>146</ele>
        <time>2020-01-26T16:44:43Z</time>
      </trkpt>
      <trkpt lat="48.6419" lon="1.82579">
        <ele>146</ele>
        <time>2020-01-26T16:44:47Z</time>
      </trkpt>
      <trkpt lat="48.6421" lon="1.82577">
        <ele>146</ele>
        <time>2020-01-26T16:45:02Z</time>
      </trkpt>
      <trkpt lat="48.64254" lon="1.82583">
        <ele>147</ele>
        <time>2020-01-26T16:45:36Z</time>
      </trkpt>
      <trkpt lat="48.64275" lon="1.82585">
        <ele>147</ele>
        <time>2020-01-26T16:45:51Z</time>
      </trkpt>
      <trkpt lat="48.64286" lon="1.82585">
        <ele>148</ele>
        <time>2020-01-26T16:45:59Z</time>
      </trkpt>
      <trkpt lat="48.6429" lon="1.82589">
        <ele>148</ele>
        <time>2020-01-26T16:46:03Z</time>
      </trkpt>
      <trkpt lat="48.64292" lon="1.82596">
        <ele>148</ele>
        <time>2020-01-26T16:46:07Z</time>
      </trkpt>
      <trkpt lat="48.64289" lon="1.82634">
        <ele>148</ele>
        <time>2020-01-26T16:46:27Z</time>
      </trkpt>
      <trkpt lat="48.6429" lon="1.82641">
        <ele>148</ele>
        <time>2020-01-26T16:46:31Z</time>
      </trkpt>
      <trkpt lat="48.64288" lon="1.82657">
        <ele>148</ele>
        <time>2020-01-26T16:46:38Z</time>
      </trkpt>
      <trkpt lat="48.64287" lon="1.82663">
        <ele>148</ele>
        <time>2020-01-26T16:46:41Z</time>
      </trkpt>
      <trkpt lat="48.64285" lon="1.82695">
        <ele>149</ele>
        <time>2020-01-26T16:46:58Z</time>
      </trkpt>
      <trkpt lat="48.64272" lon="1.82759">
        <ele>149</ele>
        <time>2020-01-26T16:47:32Z</time>
      </trkpt>
      <trkpt lat="48.64269" lon="1.82773">
        <ele>149</ele>
        <time>2020-01-26T16:47:39Z</time>
      </trkpt>
      <trkpt lat="48.64268" lon="1.82781">
        <ele>149</ele>
        <time>2020-01-26T16:47:43Z</time>
      </trkpt>
      <trkpt lat="48.64262" lon="1.8281">
        <ele>149</ele>
        <time>2020-01-26T16:47:59Z</time>
      </trkpt>
      <trkpt lat="48.64263" lon="1.82818">
        <ele>149</ele>
        <time>2020-01-26T16:48:03Z</time>
      </trkpt>
      <trkpt lat="48.64267" lon="1.82823">
        <ele>149</ele>
        <time>2020-01-26T16:48:05Z</time>
      </trkpt>
      <trkpt lat="48.64277" lon="1.82826">
        <ele>149</ele>
        <time>2020-01-26T16:48:07Z</time>
      </trkpt>
      <trkpt lat="48.64275" lon="1.82842">
        <ele>149</ele>
        <time>2020-01-26T16:48:14Z</time>
      </trkpt>
      <trkpt lat="48.64273" lon="1.82896">
        <ele>150</ele>
        <time>2020-01-26T16:48:38Z</time>
      </trkpt>
      <trkpt lat="48.64271" lon="1.82903">
        <ele>150</ele>
        <time>2020-01-26T16:48:42Z</time>
      </trkpt>
      <trkpt lat="48.6427" lon="1.82917">
        <ele>150</ele>
        <time>2020-01-26T16:48:48Z</time>
      </trkpt>
      <trkpt lat="48.64269" lon="1.82924">
        <ele>149</ele>
        <time>2020-01-26T16:48:52Z</time>
      </trkpt>
      <trkpt lat="48.64269" lon="1.82932">
        <ele>150</ele>
        <time>2020-01-26T16:48:56Z</time>
      </trkpt>
      <trkpt lat="48.64274" lon="1.82945">
        <ele>150</ele>
        <time>2020-01-26T16:49:04Z</time>
      </trkpt>
      <trkpt lat="48.64275" lon="1.82951">
        <ele>150</ele>
        <time>2020-01-26T16:49:08Z</time>
      </trkpt>
      <trkpt lat="48.64274" lon="1.82959">
        <ele>150</ele>
        <time>2020-01-26T16:49:13Z</time>
      </trkpt>
      <trkpt lat="48.64274" lon="1.82969">
        <ele>150</ele>
        <time>2020-01-26T16:49:30Z</time>
      </trkpt>
      <trkpt lat="48.64275" lon="1.82976">
        <ele>150</ele>
        <time>2020-01-26T16:49:34Z</time>
      </trkpt>
      <trkpt lat="48.64276" lon="1.82983">
        <ele>150</ele>
        <time>2020-01-26T16:49:38Z</time>
      </trkpt>
      <trkpt lat="48.64278" lon="1.82991">
        <ele>151</ele>
        <time>2020-01-26T16:49:49Z</time>
      </trkpt>
      <trkpt lat="48.64282" lon="1.82999">
        <ele>150</ele>
        <time>2020-01-26T16:50:05Z</time>
      </trkpt>
      <trkpt lat="48.6429" lon="1.8301">
        <ele>151</ele>
        <time>2020-01-26T16:50:13Z</time>
      </trkpt>
      <trkpt lat="48.64293" lon="1.83022">
        <ele>151</ele>
        <time>2020-01-26T16:50:19Z</time>
      </trkpt>
      <trkpt lat="48.64297" lon="1.83028">
        <ele>151</ele>
        <time>2020-01-26T16:50:23Z</time>
      </trkpt>
      <trkpt lat="48.64306" lon="1.83038">
        <ele>152</ele>
        <time>2020-01-26T16:50:32Z</time>
      </trkpt>
      <trkpt lat="48.64307" lon="1.83048">
        <ele>152</ele>
        <time>2020-01-26T16:50:40Z</time>
      </trkpt>
      <trkpt lat="48.64311" lon="1.83053">
        <ele>153</ele>
        <time>2020-01-26T16:50:45Z</time>
      </trkpt>
      <trkpt lat="48.64316" lon="1.83057">
        <ele>153</ele>
        <time>2020-01-26T16:50:49Z</time>
      </trkpt>
      <trkpt lat="48.64329" lon="1.83078">
        <ele>155</ele>
        <time>2020-01-26T16:51:04Z</time>
      </trkpt>
      <trkpt lat="48.64332" lon="1.83087">
        <ele>156</ele>
        <time>2020-01-26T16:51:11Z</time>
      </trkpt>
      <trkpt lat="48.64355" lon="1.8312">
        <ele>158</ele>
        <time>2020-01-26T16:51:35Z</time>
      </trkpt>
      <trkpt lat="48.64357" lon="1.83127">
        <ele>158</ele>
        <time>2020-01-26T16:51:39Z</time>
      </trkpt>
      <trkpt lat="48.64373" lon="1.83153">
        <ele>158</ele>
        <time>2020-01-26T16:52:07Z</time>
      </trkpt>
      <trkpt lat="48.64371" lon="1.83167">
        <ele>158</ele>
        <time>2020-01-26T16:52:50Z</time>
      </trkpt>
      <trkpt lat="48.64364" lon="1.83155">
        <ele>158</ele>
        <time>2020-01-26T16:53:00Z</time>
      </trkpt>
      <trkpt lat="48.64358" lon="1.83161">
        <ele>158</ele>
        <time>2020-01-26T16:54:40Z</time>
      </trkpt>
      <trkpt lat="48.64352" lon="1.83149">
        <ele>158</ele>
        <time>2020-01-26T16:57:01Z</time>
      </trkpt>
      <trkpt lat="48.64349" lon="1.83144">
        <ele>158</ele>
        <time>2020-01-26T16:57:05Z</time>
      </trkpt>
      <trkpt lat="48.64345" lon="1.83146">
        <ele>158</ele>
        <time>2020-01-26T16:57:25Z</time>
      </trkpt>
      <trkpt lat="48.64347" lon="1.83154">
        <ele>158</ele>
        <time>2020-01-26T16:57:30Z</time>
      </trkpt>
      <trkpt lat="48.6435" lon="1.83161">
        <ele>158</ele>
        <time>2020-01-26T16:57:45Z</time>
      </trkpt>
      <trkpt lat="48.64355" lon="1.83159">
        <ele>158</ele>
        <time>2020-01-26T16:57:49Z</time>
      </trkpt>
      <trkpt lat="48.64359" lon="1.83162">
        <ele>158</ele>
        <time>2020-01-26T16:58:00Z</time>
      </trkpt>
    </trkseg>
  </trk>
</gpx>